Provisional Data: Meshoppen Creek near Kaiserville, PA


Please select a monitoring station.
Please select start date.
Please select start date.

Toggle Unit: C/F Toggle Unit: C/F
Sample Time Temperature (C) Temperature (F) Specific Conductivity (mS/cm) pH   Turbidity (NTU+) DO (mg/L)
10/17/2022 12:00:00 AM 10.43 50.774 0.143 7.38 1.9 12.89
10/17/2022 12:15:00 AM 10.38 50.684 0.143 7.36 1.91 12.9
10/17/2022 12:30:00 AM 10.32 50.576 0.143 7.38 1.91 12.92
10/17/2022 12:45:00 AM 10.27 50.486 0.143 7.37 1.92 12.94
10/17/2022 1:00:00 AM 10.21 50.378 0.143 7.36 1.91 12.95
10/17/2022 1:15:00 AM 10.16 50.288 0.143 7.38 1.98 12.96
10/17/2022 1:30:00 AM 10.11 50.198 0.143 7.37 1.95 12.98
10/17/2022 1:45:00 AM 10.06 50.108 0.143 7.38 1.87 12.99
10/17/2022 2:00:00 AM 10 50 0.143 7.36 1.99 12.99
10/17/2022 2:15:00 AM 9.96 49.928 0.143 7.37 1.96 13.01
10/17/2022 2:30:00 AM 9.91 49.838 0.143 7.36 1.87 13.03
10/17/2022 2:45:00 AM 9.86 49.748 0.143 7.36 1.88 13.05
10/17/2022 3:00:00 AM 9.81 49.658 0.143 7.36 1.89 13.07
10/17/2022 3:15:00 AM 9.75 49.55 0.143 7.35 1.95 13.08
10/17/2022 3:30:00 AM 9.7 49.46 0.143 7.35 2.06 13.09
10/17/2022 3:45:00 AM 9.65 49.37 0.143 7.35 1.92 13.11
10/17/2022 4:00:00 AM 9.59 49.262 0.143 7.35 1.85 13.12
10/17/2022 4:15:00 AM 9.54 49.172 0.144 7.34 1.92 13.13
10/17/2022 4:30:00 AM 9.49 49.082 0.144 7.35 1.86 13.15
10/17/2022 4:45:00 AM 9.44 48.992 0.144 7.35 1.91 13.16
10/17/2022 5:00:00 AM 9.39 48.902 0.144 7.36 1.9 13.18
10/17/2022 5:15:00 AM 9.34 48.812 0.144 7.34 1.91 13.19
10/17/2022 5:30:00 AM 9.29 48.722 0.144 7.35 1.85 13.2
10/17/2022 5:45:00 AM 9.25 48.65 0.144 7.35 1.89 13.22
10/17/2022 6:00:00 AM 9.22 48.596 0.144 7.36 1.96 13.23
10/17/2022 6:15:00 AM 9.19 48.542 0.144 7.35 1.94 13.24
10/17/2022 6:30:00 AM 9.17 48.506 0.144 7.36 1.91 13.25
10/17/2022 6:45:00 AM 9.15 48.47 0.144 7.36 2.03 13.26
10/17/2022 7:00:00 AM 9.14 48.452 0.144 7.36 1.9 13.26
10/17/2022 7:15:00 AM 9.12 48.416 0.144 7.36 1.9 13.27
10/17/2022 7:30:00 AM 9.11 48.398 0.144 7.36 1.88 13.29
10/17/2022 7:45:00 AM 9.1 48.38 0.144 7.37 1.91 13.32
10/17/2022 8:00:00 AM 9.09 48.362 0.144 7.38 1.89 13.37
10/17/2022 8:15:00 AM 9.08 48.344 0.144 7.38 1.91 13.4
10/17/2022 8:30:00 AM 9.09 48.362 0.144 7.41 1.96 13.44
10/17/2022 8:45:00 AM 9.09 48.362 0.144 7.41 1.86 13.51
10/17/2022 9:00:00 AM 9.11 48.398 0.144 7.43 1.84 13.55
10/17/2022 9:15:00 AM 9.12 48.416 0.144 7.44 1.84 13.61
10/17/2022 9:30:00 AM 9.15 48.47 0.144 7.47 1.83 13.7
10/17/2022 9:45:00 AM 9.18 48.524 0.144 7.49 1.8 13.77
10/17/2022 10:00:00 AM 9.22 48.596 0.144 7.51 1.82 13.85
10/17/2022 10:15:00 AM 9.26 48.668 0.144 7.54 1.8 13.87
10/17/2022 10:30:00 AM 9.29 48.722 0.144 7.56 1.85 13.87
10/17/2022 10:45:00 AM 9.33 48.794 0.144 7.58 1.79 13.93
10/17/2022 11:00:00 AM 9.39 48.902 0.143 7.61 1.8 14.01
10/17/2022 11:15:00 AM 9.45 49.01 0.143 7.65 1.83 14.08
10/17/2022 11:30:00 AM 9.52 49.136 0.143 7.7 1.77 14.16
10/17/2022 11:45:00 AM 9.61 49.298 0.143 7.77 1.77 14.25
10/17/2022 12:00:00 PM 9.69 49.442 0.143 7.8 1.81 14.27
10/17/2022 12:15:00 PM 9.75 49.55 0.143 7.84 1.79 14.22
10/17/2022 12:30:00 PM 9.84 49.712 0.142 7.89 1.82 14.31
10/17/2022 12:45:00 PM 9.9 49.82 0.142 7.93 1.82 14.25
10/17/2022 1:00:00 PM 9.96 49.928 0.142 7.93 1.8 14.19
10/17/2022 1:15:00 PM 10.06 50.108 0.142 7.99 1.78 14.28
10/17/2022 1:30:00 PM 10.13 50.234 0.142 8.01 1.8 14.25
10/17/2022 1:45:00 PM 10.23 50.414 0.142 8.07 2.16 14.27
10/17/2022 2:00:00 PM 10.27 50.486 0.142 8.07 1.83 14.13
10/17/2022 2:15:00 PM 10.3 50.54 0.142 8.04 1.84 14.01
10/17/2022 2:30:00 PM 10.33 50.594 0.142 8.01 1.82 14.01
10/17/2022 2:45:00 PM 10.35 50.63 0.142 7.97 1.83 13.88
10/17/2022 3:00:00 PM 10.38 50.684 0.142 7.96 1.85 13.88
10/17/2022 3:15:00 PM 10.39 50.702 0.142 7.92 1.85 13.79
10/17/2022 3:30:00 PM 10.41 50.738 0.142 7.88 1.9 13.71
10/17/2022 3:45:00 PM 10.4 50.72 0.143 7.83 1.86 13.56
10/17/2022 4:00:00 PM 10.46 50.828 0.142 7.83 1.9 13.71
10/17/2022 4:15:00 PM 10.46 50.828 0.143 7.82 1.92 13.59
10/17/2022 4:30:00 PM 10.51 50.918 0.142 7.81 1.87 13.62
10/17/2022 4:45:00 PM 10.51 50.918 0.142 7.82 1.83 13.63
10/17/2022 5:00:00 PM 10.54 50.972 0.143 7.84 1.88 13.62
10/17/2022 5:15:00 PM 10.54 50.972 0.142 7.82 1.81 13.64
10/17/2022 5:30:00 PM 10.53 50.954 0.143 7.82 1.85 13.61
10/17/2022 5:45:00 PM 10.51 50.918 0.143 7.79 1.83 13.52
10/17/2022 6:00:00 PM 10.48 50.864 0.143 7.76 1.8 13.43
10/17/2022 6:15:00 PM 10.45 50.81 0.143 7.69 1.9 13.32
10/17/2022 6:30:00 PM 10.41 50.738 0.143 7.64 1.89 13.23
10/17/2022 6:45:00 PM 10.37 50.666 0.143 7.6 1.84 13.15
10/17/2022 7:00:00 PM 10.33 50.594 0.144 7.57 1.97 13.1
10/17/2022 7:15:00 PM 10.29 50.522 0.144 7.55 1.91 13.05
10/17/2022 7:30:00 PM 10.25 50.45 0.144 7.53 1.85 13.03
10/17/2022 7:45:00 PM 10.22 50.396 0.144 7.49 1.97 13.01
10/17/2022 8:00:00 PM 10.19 50.342 0.144 7.5 1.89 13
10/17/2022 8:15:00 PM 10.16 50.288 0.144 7.48 1.93 12.99
10/17/2022 8:30:00 PM 10.14 50.252 0.144 7.48 1.9 12.99
10/17/2022 8:45:00 PM 10.12 50.216 0.144 7.46 1.92 12.99
10/17/2022 9:00:00 PM 10.1 50.18 0.144 7.46 1.9 12.99
10/17/2022 9:15:00 PM 10.08 50.144 0.144 7.46 1.87 12.99
10/17/2022 9:30:00 PM 10.06 50.108 0.144 7.45 1.84 12.99
10/17/2022 9:45:00 PM 10.04 50.072 0.144 7.45 1.85 13
10/17/2022 10:00:00 PM 10.01 50.018 0.144 7.45 1.9 12.99
10/17/2022 10:15:00 PM 9.97 49.946 0.144 7.44 1.89 13
10/17/2022 10:30:00 PM 9.94 49.892 0.144 7.44 1.87 13
10/17/2022 10:45:00 PM 9.9 49.82 0.144 7.41 1.96 13.02
10/17/2022 11:00:00 PM 9.86 49.748 0.144 7.43 1.87 13.02
10/17/2022 11:15:00 PM 9.82 49.676 0.144 7.43 1.83 13.03
10/17/2022 11:30:00 PM 9.78 49.604 0.144 7.43 1.94 13.05
10/17/2022 11:45:00 PM 9.74 49.532 0.144 7.44 1.88 13.05
10/18/2022 12:00:00 AM 9.71 49.478 0.144 7.45 2.01 13.06
10/18/2022 12:15:00 AM 9.67 49.406 0.144 7.44 1.9 13.07
10/18/2022 12:30:00 AM 9.62 49.316 0.144 7.43 1.82 13.08
10/18/2022 12:45:00 AM 9.56 49.208 0.144 7.44 1.86 13.09
10/18/2022 1:00:00 AM 9.51 49.118 0.144 7.41 1.84 13.1
10/18/2022 1:15:00 AM 9.45 49.01 0.144 7.43 1.94 13.12
10/18/2022 1:30:00 AM 9.4 48.92 0.144 7.42 1.9 13.14
10/18/2022 1:45:00 AM 9.34 48.812 0.144 7.43 1.89 13.15
10/18/2022 2:00:00 AM 9.29 48.722 0.144 7.42 1.85 13.16
10/18/2022 2:15:00 AM 9.25 48.65 0.144 7.43 1.82 13.18
10/18/2022 2:30:00 AM 9.2 48.56 0.144 7.42 1.88 13.2
10/18/2022 2:45:00 AM 9.15 48.47 0.144 7.42 1.93 13.21
10/18/2022 3:00:00 AM 9.1 48.38 0.144 7.41 1.87 13.23
10/18/2022 3:15:00 AM 9.04 48.272 0.144 7.4 1.85 13.24
10/18/2022 3:30:00 AM 8.98 48.164 0.144 7.4 1.88 13.26
10/18/2022 3:45:00 AM 8.91 48.038 0.144 7.4 1.89 13.27
10/18/2022 4:00:00 AM 8.84 47.912 0.144 7.41 1.87 13.3
10/18/2022 4:15:00 AM 8.78 47.804 0.144 7.4 1.85 13.32
10/18/2022 4:30:00 AM 8.71 47.678 0.144 7.4 1.85 13.34
10/18/2022 4:45:00 AM 8.64 47.552 0.144 7.4 1.89 13.36
10/18/2022 5:00:00 AM 8.58 47.444 0.144 7.4 1.85 13.38
10/18/2022 5:15:00 AM 8.51 47.318 0.144 7.39 1.91 13.4
10/18/2022 5:30:00 AM 8.45 47.21 0.144 7.39 1.89 13.43
10/18/2022 5:45:00 AM 8.38 47.084 0.144 7.39 1.93 13.45
10/18/2022 6:00:00 AM 8.32 46.976 0.144 7.39 2.05 13.47
10/18/2022 6:15:00 AM 8.26 46.868 0.144 7.4 1.94 13.5
10/18/2022 6:30:00 AM 8.19 46.742 0.145 7.4 1.99 13.51
10/18/2022 6:45:00 AM 8.13 46.634 0.145 7.39 2.11 13.53
10/18/2022 7:00:00 AM 8.07 46.526 0.145 7.4 2.04 13.56
10/18/2022 7:15:00 AM 8 46.4 0.145 7.39 2.08 13.58
10/18/2022 7:30:00 AM 7.94 46.292 0.145 7.41 2.03 13.62
10/18/2022 7:45:00 AM 7.88 46.184 0.145 7.41 2.01 13.67
10/18/2022 8:00:00 AM 7.83 46.094 0.145 7.42 1.99 13.75
10/18/2022 8:15:00 AM 7.78 46.004 0.145 7.44 1.96 13.83
10/18/2022 8:30:00 AM 7.74 45.932 0.145 7.42 2 13.9
10/18/2022 8:45:00 AM 7.71 45.878 0.145 7.47 1.93 13.98
10/18/2022 9:00:00 AM 7.69 45.842 0.145 7.49 1.94 14.08
10/18/2022 9:15:00 AM 7.69 45.842 0.144 7.51 1.96 14.15
10/18/2022 9:30:00 AM 7.72 45.896 0.144 7.55 1.92 14.24
10/18/2022 9:45:00 AM 7.77 45.986 0.144 7.54 1.96 14.34
10/18/2022 10:00:00 AM 7.83 46.094 0.144 7.62 1.91 14.41
10/18/2022 10:15:00 AM 7.88 46.184 0.144 7.64 1.9 14.47
10/18/2022 10:30:00 AM 7.92 46.256 0.144 7.68 1.94 14.49
10/18/2022 10:45:00 AM 8.04 46.472 0.144 7.72 1.94 14.56
10/18/2022 11:00:00 AM 8.06 46.508 0.144 7.76 1.93 14.63
10/18/2022 11:15:00 AM 8.18 46.724 0.143 7.8 1.9 14.7
10/18/2022 11:30:00 AM 8.3 46.94 0.143 7.86 1.87 14.74
10/18/2022 11:45:00 AM 8.41 47.138 0.143 7.91 1.9 14.78
10/18/2022 12:00:00 PM 8.5 47.3 0.143 7.98 1.93 14.82
10/18/2022 12:15:00 PM 8.59 47.462 0.143 8.03 1.87 14.84
10/18/2022 12:30:00 PM 8.7 47.66 0.142 8.08 1.9 14.84
10/18/2022 12:45:00 PM 8.83 47.894 0.142 8.16 1.89 14.86
10/18/2022 1:00:00 PM 8.92 48.056 0.142 8.22 1.83 14.82
10/18/2022 1:15:00 PM 9.02 48.236 0.142 8.26 1.89 14.79
10/18/2022 1:30:00 PM 9.1 48.38 0.142 8.32 1.84 14.79
10/18/2022 1:45:00 PM 9.17 48.506 0.141 8.37 1.83 14.77
10/18/2022 2:00:00 PM 9.23 48.614 0.141 8.39 1.91 14.72
10/18/2022 2:15:00 PM 9.33 48.794 0.141 8.42 1.89 14.72
10/18/2022 2:30:00 PM 9.37 48.866 0.141 8.44 1.89 14.65
10/18/2022 2:45:00 PM 9.38 48.884 0.141 8.43 1.95 14.54
10/18/2022 3:00:00 PM 9.39 48.902 0.141 8.43 1.89 14.5
10/18/2022 3:15:00 PM 9.39 48.902 0.141 8.42 2.02 14.46
10/18/2022 3:30:00 PM 9.4 48.92 0.141 8.39 1.86 14.44
10/18/2022 3:45:00 PM 9.39 48.902 0.141 8.37 1.92 14.35
10/18/2022 4:00:00 PM 9.37 48.866 0.141 8.3 1.86 14.27
10/18/2022 4:15:00 PM 9.35 48.83 0.142 8.24 1.88 14.21
10/18/2022 4:30:00 PM 9.32 48.776 0.142 8.13 1.87 14.14
10/18/2022 4:45:00 PM 9.3 48.74 0.142 8.07 1.9 14.1
10/18/2022 5:00:00 PM 9.27 48.686 0.142 7.99 1.86 14.03
10/18/2022 5:15:00 PM 9.23 48.614 0.142 7.94 1.9 13.98
10/18/2022 5:30:00 PM 9.2 48.56 0.142 7.88 1.85 13.91
10/18/2022 5:45:00 PM 9.16 48.488 0.143 7.83 1.86 13.86
10/18/2022 6:00:00 PM 9.13 48.434 0.143 7.78 1.88 13.79
10/18/2022 6:15:00 PM 9.1 48.38 0.143 7.73 1.95 13.71
10/18/2022 6:30:00 PM 9.04 48.272 0.143 7.69 1.92 13.65
10/18/2022 6:45:00 PM 8.98 48.164 0.143 7.65 1.97 13.6
10/18/2022 7:00:00 PM 8.91 48.038 0.144 7.62 1.88 13.57
10/18/2022 7:15:00 PM 8.84 47.912 0.144 7.59 1.92 13.54
10/18/2022 7:30:00 PM 8.77 47.786 0.144 7.56 1.93 13.53
10/18/2022 7:45:00 PM 8.7 47.66 0.144 7.54 1.93 13.52
10/18/2022 8:00:00 PM 8.63 47.534 0.144 7.53 1.94 13.53
10/18/2022 8:15:00 PM 8.56 47.408 0.144 7.52 1.93 13.53
10/18/2022 8:30:00 PM 8.49 47.282 0.144 7.51 1.92 13.55
10/18/2022 8:45:00 PM 8.42 47.156 0.144 7.5 1.95 13.56
10/18/2022 9:00:00 PM 8.35 47.03 0.144 7.5 1.9 13.57
10/18/2022 9:15:00 PM 8.28 46.904 0.144 7.49 1.93 13.59
10/18/2022 9:30:00 PM 8.21 46.778 0.145 7.48 1.98 13.6
10/18/2022 9:45:00 PM 8.15 46.67 0.145 7.47 1.95 13.62
10/18/2022 10:00:00 PM 8.08 46.544 0.145 7.45 1.97 13.63
10/18/2022 10:15:00 PM 8.01 46.418 0.145 7.44 1.95 13.65
10/18/2022 10:30:00 PM 7.94 46.292 0.145 7.45 1.91 13.67
10/18/2022 10:45:00 PM 7.87 46.166 0.145 7.45 1.93 13.7
10/18/2022 11:00:00 PM 7.81 46.058 0.145 7.42 1.96 13.71
10/18/2022 11:15:00 PM 7.74 45.932 0.145 7.41 1.86 13.74
10/18/2022 11:30:00 PM 7.67 45.806 0.145 7.41 1.89 13.74
10/18/2022 11:45:00 PM 7.61 45.698 0.145 7.41 1.98 13.77
10/19/2022 12:00:00 AM 7.55 45.59 0.145 7.42 1.94 13.79
10/19/2022 12:15:00 AM 7.48 45.464 0.145 7.41 1.94 13.81
10/19/2022 12:30:00 AM 7.42 45.356 0.145 7.4 2.03 13.83
10/19/2022 12:45:00 AM 7.36 45.248 0.145 7.44 1.99 13.86
10/19/2022 1:00:00 AM 7.3 45.14 0.145 7.42 1.93 13.87
10/19/2022 1:15:00 AM 7.25 45.05 0.145 7.43 1.92 13.9
10/19/2022 1:30:00 AM 7.19 44.942 0.145 7.43 1.98 13.91
10/19/2022 1:45:00 AM 7.14 44.852 0.145 7.4 1.94 13.93
10/19/2022 2:00:00 AM 7.08 44.744 0.145 7.43 1.97 13.96
10/19/2022 2:15:00 AM 7.03 44.654 0.145 7.42 1.97 13.97
10/19/2022 2:30:00 AM 6.98 44.564 0.145 7.43 1.98 14
10/19/2022 2:45:00 AM 6.93 44.474 0.145 7.42 1.94 14.01
10/19/2022 3:00:00 AM 6.88 44.384 0.145 7.41 1.97 14.03
10/19/2022 3:15:00 AM 6.84 44.312 0.145 7.43 1.96 14.04
10/19/2022 3:30:00 AM 6.79 44.222 0.145 7.42 2 14.07
10/19/2022 3:45:00 AM 6.73 44.114 0.145 7.41 1.94 14.08
10/19/2022 4:00:00 AM 6.68 44.024 0.145 7.42 1.94 14.1
10/19/2022 4:15:00 AM 6.63 43.934 0.145 7.42 1.91 14.12
10/19/2022 4:30:00 AM 6.59 43.862 0.145 7.42 1.91 14.14
10/19/2022 4:45:00 AM 6.55 43.79 0.145 7.42 1.94 14.15
10/19/2022 5:00:00 AM 6.53 43.754 0.145 7.41 1.91 14.17
10/19/2022 5:15:00 AM 6.51 43.718 0.145 7.42 1.91 14.18
10/19/2022 5:30:00 AM 6.5 43.7 0.145 7.43 1.91 14.18
10/19/2022 5:45:00 AM 6.49 43.682 0.145 7.42 1.92 14.19
10/19/2022 6:00:00 AM 6.48 43.664 0.145 7.43 1.9 14.2
10/19/2022 6:15:00 AM 6.47 43.646 0.145 7.43 1.94 14.2
10/19/2022 6:30:00 AM 6.47 43.646 0.145 7.43 1.94 14.2
10/19/2022 6:45:00 AM 6.46 43.628 0.145 7.43 1.9 14.21
10/19/2022 7:00:00 AM 6.45 43.61 0.145 7.42 1.95 14.21
10/19/2022 7:15:00 AM 6.44 43.592 0.145 7.43 1.94 14.22
10/19/2022 7:30:00 AM 6.44 43.592 0.145 7.42 1.94 14.24
10/19/2022 7:45:00 AM 6.43 43.574 0.145 7.44 1.98 14.27
10/19/2022 8:00:00 AM 6.42 43.556 0.145 7.45 1.97 14.33
10/19/2022 8:15:00 AM 6.42 43.556 0.145 7.46 1.96 14.39
10/19/2022 8:30:00 AM 6.43 43.574 0.145 7.48 1.91 14.46
10/19/2022 8:45:00 AM 6.44 43.592 0.145 7.5 1.92 14.58
10/19/2022 9:00:00 AM 6.45 43.61 0.145 7.51 1.92 14.65
10/19/2022 9:15:00 AM 6.47 43.646 0.145 7.56 1.93 14.75
10/19/2022 9:30:00 AM 6.51 43.718 0.145 7.59 1.88 14.85
10/19/2022 9:45:00 AM 6.56 43.808 0.145 7.61 1.91 14.93
10/19/2022 10:00:00 AM 6.62 43.916 0.145 7.65 1.88 15.01
10/19/2022 10:15:00 AM 6.68 44.024 0.145 7.71 1.88 15.07
10/19/2022 10:30:00 AM 6.74 44.132 0.144 7.75 1.9 15.11
10/19/2022 10:45:00 AM 6.79 44.222 0.144 7.79 1.84 15.16
10/19/2022 11:00:00 AM 6.85 44.33 0.144 7.83 1.87 15.2
10/19/2022 11:15:00 AM 6.91 44.438 0.144 7.86 1.88 15.23
10/19/2022 11:30:00 AM 6.95 44.51 0.144 7.89 1.89 15.22
10/19/2022 11:45:00 AM 7.03 44.654 0.144 7.91 1.84 15.27
10/19/2022 12:00:00 PM 7.07 44.726 0.144 7.96 1.85 15.26
10/19/2022 12:15:00 PM 7.12 44.816 0.144 7.99 1.85 15.24
10/19/2022 12:30:00 PM 7.16 44.888 0.143 8.02 1.84 15.23
10/19/2022 12:45:00 PM 7.19 44.942 0.143 8.02 1.84 15.18
10/19/2022 1:00:00 PM 7.22 44.996 0.143 8.02 1.86 15.14
10/19/2022 1:15:00 PM 7.25 45.05 0.143 8.03 1.82 15.11
10/19/2022 1:30:00 PM 7.31 45.158 0.143 8.03 1.84 15.14
10/19/2022 1:45:00 PM 7.37 45.266 0.143 8.06 1.86 15.17
10/19/2022 2:00:00 PM 7.43 45.374 0.143 8.1 1.92 15.16
10/19/2022 2:15:00 PM 7.48 45.464 0.143 8.13 1.92 15.15
10/19/2022 2:30:00 PM 7.49 45.482 0.143 8.11 1.92 15.01
10/19/2022 2:45:00 PM 7.53 45.554 0.143 8.1 1.98 15.03
10/19/2022 3:00:00 PM 7.54 45.572 0.143 8.09 1.9 14.94
10/19/2022 3:15:00 PM 7.56 45.608 0.143 8.06 1.93 14.92
10/19/2022 3:30:00 PM 7.57 45.626 0.143 8.02 1.88 14.84
10/19/2022 3:45:00 PM 7.59 45.662 0.143 8.01 1.88 14.85
10/19/2022 4:00:00 PM 7.62 45.716 0.143 8.02 1.84 14.91
10/19/2022 4:15:00 PM 7.66 45.788 0.143 8.04 1.88 14.92
10/19/2022 4:30:00 PM 7.7 45.86 0.143 8.06 1.91 14.93
10/19/2022 4:45:00 PM 7.74 45.932 0.143 8.06 1.85 14.87
10/19/2022 5:00:00 PM 7.76 45.968 0.143 8.05 1.87 14.79
10/19/2022 5:15:00 PM 7.77 45.986 0.143 8.03 1.87 14.77
10/19/2022 5:30:00 PM 7.75 45.95 0.143 7.98 1.86 14.69
10/19/2022 5:45:00 PM 7.75 45.95 0.143 7.97 1.9 14.64
10/19/2022 6:00:00 PM 7.72 45.896 0.144 7.92 1.84 14.54
10/19/2022 6:15:00 PM 7.67 45.806 0.144 7.85 1.84 14.42
10/19/2022 6:30:00 PM 7.63 45.734 0.144 7.79 1.83 14.32
10/19/2022 6:45:00 PM 7.59 45.662 0.145 7.73 1.83 14.23
10/19/2022 7:00:00 PM 7.55 45.59 0.145 7.69 1.91 14.17
10/19/2022 7:15:00 PM 7.51 45.518 0.145 7.65 1.91 14.12
10/19/2022 7:30:00 PM 7.48 45.464 0.145 7.61 1.92 14.08
10/19/2022 7:45:00 PM 7.45 45.41 0.145 7.59 1.88 14.04
10/19/2022 8:00:00 PM 7.43 45.374 0.145 7.58 1.9 14.03
10/19/2022 8:15:00 PM 7.39 45.302 0.146 7.56 1.9 14.02
10/19/2022 8:30:00 PM 7.36 45.248 0.146 7.55 1.97 14.01
10/19/2022 8:45:00 PM 7.34 45.212 0.146 7.54 1.97 14.01
10/19/2022 9:00:00 PM 7.31 45.158 0.146 7.53 1.97 14.01
10/19/2022 9:15:00 PM 7.28 45.104 0.146 7.52 1.99 14.01
10/19/2022 9:30:00 PM 7.24 45.032 0.146 7.51 1.96 14.01
10/19/2022 9:45:00 PM 7.2 44.96 0.146 7.51 1.92 14.02
10/19/2022 10:00:00 PM 7.16 44.888 0.146 7.51 1.91 14.03
10/19/2022 10:15:00 PM 7.12 44.816 0.146 7.5 1.95 14.04
10/19/2022 10:30:00 PM 7.11 44.798 0.146 7.49 1.92 14.05
10/19/2022 10:45:00 PM 7.1 44.78 0.146 7.49 1.96 14.05
10/19/2022 11:00:00 PM 7.08 44.744 0.146 7.47 1.94 14.06
10/19/2022 11:15:00 PM 7.08 44.744 0.146 7.49 1.97 14.06
10/19/2022 11:30:00 PM 7.08 44.744 0.146 7.49 1.89 14.07
10/19/2022 11:45:00 PM 7.07 44.726 0.146 7.48 1.94 14.07
10/20/2022 12:00:00 AM 7.05 44.69 0.146 7.48 1.91 14.07
10/20/2022 12:15:00 AM 7.05 44.69 0.146 7.48 1.85 14.07
10/20/2022 12:30:00 AM 7.05 44.69 0.146 7.47 1.89 14.08
10/20/2022 12:45:00 AM 7.06 44.708 0.146 7.47 1.92 14.08
10/20/2022 1:00:00 AM 7.06 44.708 0.146 7.47 1.86 14.08
10/20/2022 1:15:00 AM 7.06 44.708 0.146 7.47 1.89 14.08
10/20/2022 1:30:00 AM 7.05 44.69 0.146 7.47 1.85 14.09
10/20/2022 1:45:00 AM 7.05 44.69 0.146 7.47 1.87 14.08
10/20/2022 2:00:00 AM 7.05 44.69 0.146 7.47 1.85 14.08
10/20/2022 2:15:00 AM 7.03 44.654 0.146 7.47 1.91 14.08
10/20/2022 2:30:00 AM 7 44.6 0.146 7.47 1.87 14.09
10/20/2022 2:45:00 AM 6.96 44.528 0.146 7.46 1.88 14.1
10/20/2022 3:00:00 AM 6.93 44.474 0.146 7.45 1.86 14.1
10/20/2022 3:15:00 AM 6.89 44.402 0.146 7.46 1.89 14.11
10/20/2022 3:30:00 AM 6.86 44.348 0.146 7.46 1.88 14.12
10/20/2022 3:45:00 AM 6.83 44.294 0.146 7.46 1.9 14.13
10/20/2022 4:00:00 AM 6.79 44.222 0.146 7.46 1.92 14.14
10/20/2022 4:15:00 AM 6.76 44.168 0.146 7.45 1.94 14.15
10/20/2022 4:30:00 AM 6.73 44.114 0.146 7.45 1.88 14.16
10/20/2022 4:45:00 AM 6.7 44.06 0.146 7.45 1.89 14.17
10/20/2022 5:00:00 AM 6.67 44.006 0.146 7.45 1.88 14.18
10/20/2022 5:15:00 AM 6.64 43.952 0.146 7.44 1.84 14.2
10/20/2022 5:30:00 AM 6.6 43.88 0.146 7.44 1.88 14.22
10/20/2022 5:45:00 AM 6.56 43.808 0.146 7.45 1.86 14.23
10/20/2022 6:00:00 AM 6.53 43.754 0.146 7.45 1.91 14.24
10/20/2022 6:15:00 AM 6.49 43.682 0.146 7.44 1.88 14.26
10/20/2022 6:30:00 AM 6.45 43.61 0.146 7.45 1.94 14.27
10/20/2022 6:45:00 AM 6.42 43.556 0.146 7.44 1.91 14.28
10/20/2022 7:00:00 AM 6.39 43.502 0.146 7.44 1.9 14.3
10/20/2022 7:15:00 AM 6.36 43.448 0.146 7.44 1.9 14.31
10/20/2022 7:30:00 AM 6.34 43.412 0.146 7.45 1.94 14.34
10/20/2022 7:45:00 AM 6.34 43.412 0.146 7.46 1.9 14.39
10/20/2022 8:00:00 AM 6.35 43.43 0.146 7.46 1.86 14.45
10/20/2022 8:15:00 AM 6.37 43.466 0.146 7.48 1.89 14.5
10/20/2022 8:30:00 AM 6.38 43.484 0.146 7.5 1.89 14.57
10/20/2022 8:45:00 AM 6.4 43.52 0.146 7.52 1.88 14.65
10/20/2022 9:00:00 AM 6.42 43.556 0.146 7.54 1.88 14.78
10/20/2022 9:15:00 AM 6.47 43.646 0.146 7.58 1.88 14.93
10/20/2022 9:30:00 AM 6.49 43.682 0.146 7.62 1.85 15
10/20/2022 9:45:00 AM 6.57 43.826 0.145 7.67 1.85 15.12
10/20/2022 10:00:00 AM 6.65 43.97 0.145 7.71 1.81 15.23
10/20/2022 10:15:00 AM 6.78 44.204 0.145 7.77 1.85 15.31
10/20/2022 10:30:00 AM 6.89 44.402 0.145 7.83 1.79 15.38
10/20/2022 10:45:00 AM 7.01 44.618 0.145 7.89 1.77 15.41
10/20/2022 11:00:00 AM 7.12 44.816 0.144 7.95 1.81 15.43
10/20/2022 11:15:00 AM 7.21 44.978 0.144 8 1.82 15.46
10/20/2022 11:30:00 AM 7.28 45.104 0.144 8.06 1.82 15.47
10/20/2022 11:45:00 AM 7.4 45.32 0.144 8.11 1.82 15.49
10/20/2022 12:00:00 PM 7.51 45.518 0.144 8.17 1.83 15.48
10/20/2022 12:15:00 PM 7.65 45.77 0.144 8.23 1.83 15.47
10/20/2022 12:30:00 PM 7.8 46.04 0.143 8.28 1.85 15.44
10/20/2022 12:45:00 PM 7.95 46.31 0.143 8.32 1.87 15.4
10/20/2022 1:00:00 PM 8.1 46.58 0.143 8.37 1.81 15.3
10/20/2022 1:15:00 PM 8.28 46.904 0.143 8.39 1.82 15.2
10/20/2022 1:30:00 PM 8.43 47.174 0.143 8.4 1.82 15.1
10/20/2022 1:45:00 PM 8.58 47.444 0.143 8.43 1.86 15.04
10/20/2022 2:00:00 PM 8.68 47.624 0.143 8.43 1.82 14.97
10/20/2022 2:15:00 PM 8.81 47.858 0.143 8.47 1.83 14.98
10/20/2022 2:30:00 PM 8.86 47.948 0.143 8.49 1.89 14.97
10/20/2022 2:45:00 PM 8.87 47.966 0.143 8.51 1.87 14.95
10/20/2022 3:00:00 PM 8.9 48.02 0.143 8.53 1.87 14.94
10/20/2022 3:15:00 PM 8.9 48.02 0.143 8.55 1.89 14.89
10/20/2022 3:30:00 PM 8.92 48.056 0.143 8.56 1.84 14.87
10/20/2022 3:45:00 PM 8.93 48.074 0.143 8.57 1.9 14.84
10/20/2022 4:00:00 PM 8.9 48.02 0.143 8.56 1.86 14.81
10/20/2022 4:15:00 PM 8.87 47.966 0.143 8.54 1.88 14.76
10/20/2022 4:30:00 PM 8.82 47.876 0.143 8.52 1.93 14.71
10/20/2022 4:45:00 PM 8.81 47.858 0.143 8.5 1.89 14.69
10/20/2022 5:00:00 PM 8.76 47.768 0.143 8.45 1.95 14.61
10/20/2022 5:15:00 PM 8.7 47.66 0.143 8.36 1.94 14.49
10/20/2022 5:30:00 PM 8.64 47.552 0.144 8.28 1.86 14.39
10/20/2022 5:45:00 PM 8.57 47.426 0.144 8.18 1.89 14.34
10/20/2022 6:00:00 PM 8.47 47.246 0.144 8.05 1.84 14.23
10/20/2022 6:15:00 PM 8.38 47.084 0.144 7.95 1.82 14.13
10/20/2022 6:30:00 PM 8.3 46.94 0.145 7.86 1.79 14.06
10/20/2022 6:45:00 PM 8.21 46.778 0.145 7.79 1.88 13.99
10/20/2022 7:00:00 PM 8.13 46.634 0.145 7.72 1.83 13.94
10/20/2022 7:15:00 PM 8.04 46.472 0.146 7.68 1.82 13.91
10/20/2022 7:30:00 PM 7.95 46.31 0.146 7.64 1.88 13.9
10/20/2022 7:45:00 PM 7.87 46.166 0.146 7.6 1.89 13.9
10/20/2022 8:00:00 PM 7.78 46.004 0.146 7.6 1.88 13.9
10/20/2022 8:15:00 PM 7.71 45.878 0.147 7.58 1.91 13.91
10/20/2022 8:30:00 PM 7.64 45.752 0.147 7.57 1.91 13.92
10/20/2022 8:45:00 PM 7.57 45.626 0.147 7.55 1.93 13.93
10/20/2022 9:00:00 PM 7.51 45.518 0.147 7.54 1.91 13.94
10/20/2022 9:15:00 PM 7.47 45.446 0.147 7.53 1.97 13.96
10/20/2022 9:30:00 PM 7.42 45.356 0.147 7.52 1.91 13.97
10/20/2022 9:45:00 PM 7.39 45.302 0.147 7.52 1.93 13.98
10/20/2022 10:00:00 PM 7.35 45.23 0.147 7.51 1.97 13.99
10/20/2022 10:15:00 PM 7.31 45.158 0.147 7.5 2.05 14
10/20/2022 10:30:00 PM 7.27 45.086 0.147 7.5 1.98 14.01
10/20/2022 10:45:00 PM 7.22 44.996 0.147 7.49 1.96 14.03
10/20/2022 11:00:00 PM 7.17 44.906 0.147 7.49 1.95 14.05
10/20/2022 11:15:00 PM 7.12 44.816 0.147 7.48 1.91 14.06
10/20/2022 11:30:00 PM 7.07 44.726 0.147 7.48 1.92 14.08
10/20/2022 11:45:00 PM 7.03 44.654 0.147 7.48 1.9 14.1
10/21/2022 12:00:00 AM 6.99 44.582 0.147 7.48 1.9 14.11
10/21/2022 12:15:00 AM 6.97 44.546 0.147 7.47 1.93 14.13
10/21/2022 12:30:00 AM 6.95 44.51 0.147 7.46 1.92 14.14
10/21/2022 12:45:00 AM 6.93 44.474 0.147 7.47 1.85 14.15
10/21/2022 1:00:00 AM 6.91 44.438 0.147 7.45 1.91 14.16
10/21/2022 1:15:00 AM 6.9 44.42 0.147 7.45 1.86 14.16
10/21/2022 1:30:00 AM 6.89 44.402 0.147 7.46 1.87 14.17
10/21/2022 1:45:00 AM 6.87 44.366 0.147 7.43 1.88 14.18
10/21/2022 2:00:00 AM 6.85 44.33 0.147 7.45 1.86 14.18
10/21/2022 2:15:00 AM 6.83 44.294 0.146 7.45 1.84 14.19
10/21/2022 2:30:00 AM 6.8 44.24 0.146 7.45 1.9 14.2
10/21/2022 2:45:00 AM 6.76 44.168 0.146 7.43 1.86 14.22
10/21/2022 3:00:00 AM 6.71 44.078 0.146 7.45 1.85 14.23
10/21/2022 3:15:00 AM 6.66 43.988 0.146 7.44 1.84 14.24
10/21/2022 3:30:00 AM 6.61 43.898 0.146 7.45 1.82 14.26
10/21/2022 3:45:00 AM 6.55 43.79 0.146 7.42 1.83 14.27
10/21/2022 4:00:00 AM 6.5 43.7 0.146 7.42 1.86 14.3
10/21/2022 4:15:00 AM 6.45 43.61 0.146 7.41 1.82 14.32
10/21/2022 4:30:00 AM 6.4 43.52 0.146 7.41 1.84 14.34
10/21/2022 4:45:00 AM 6.35 43.43 0.146 7.42 1.87 14.35
10/21/2022 5:00:00 AM 6.3 43.34 0.146 7.41 1.84 14.37
10/21/2022 5:15:00 AM 6.25 43.25 0.146 7.42 1.87 14.39
10/21/2022 5:30:00 AM 6.2 43.16 0.146 7.42 1.87 14.41
10/21/2022 5:45:00 AM 6.15 43.07 0.146 7.42 1.86 14.44
10/21/2022 6:00:00 AM 6.1 42.98 0.146 7.41 1.86 14.46
10/21/2022 6:15:00 AM 6.04 42.872 0.147 7.41 1.92 14.48
10/21/2022 6:30:00 AM 5.99 42.782 0.147 7.41 1.98 14.5
10/21/2022 6:45:00 AM 5.94 42.692 0.147 7.41 1.91 14.53
10/21/2022 7:00:00 AM 5.88 42.584 0.147 7.41 1.9 14.55
10/21/2022 7:15:00 AM 5.83 42.494 0.147 7.41 1.88 14.57
10/21/2022 7:30:00 AM 5.77 42.386 0.147 7.41 1.89 14.62
10/21/2022 7:45:00 AM 5.72 42.296 0.147 7.42 1.88 14.67
10/21/2022 8:00:00 AM 5.68 42.224 0.147 7.43 1.88 14.75
10/21/2022 8:15:00 AM 5.64 42.152 0.147 7.44 1.9 14.84
10/21/2022 8:30:00 AM 5.6 42.08 0.147 7.46 1.84 14.93
10/21/2022 8:45:00 AM 5.57 42.026 0.147 7.47 1.85 15.03
10/21/2022 9:00:00 AM 5.55 41.99 0.147 7.5 1.82 15.12
10/21/2022 9:15:00 AM 5.55 41.99 0.146 7.53 1.83 15.22
10/21/2022 9:30:00 AM 5.58 42.044 0.146 7.56 1.81 15.31
10/21/2022 9:45:00 AM 5.64 42.152 0.146 7.58 1.84 15.41
10/21/2022 10:00:00 AM 5.72 42.296 0.146 7.62 1.81 15.49
10/21/2022 10:15:00 AM 5.83 42.494 0.146 7.63 1.84 15.56
10/21/2022 10:30:00 AM 5.96 42.728 0.146 7.7 1.83 15.61
10/21/2022 10:45:00 AM 6.1 42.98 0.146 7.74 1.79 15.64
10/21/2022 11:00:00 AM 6.24 43.232 0.145 7.78 1.81 15.67
10/21/2022 11:15:00 AM 6.39 43.502 0.145 7.83 2.01 15.68
10/21/2022 11:30:00 AM 6.54 43.772 0.145 7.86 1.81 15.66
10/21/2022 11:45:00 AM 6.67 44.006 0.145 7.9 1.79 15.63
10/21/2022 12:00:00 PM 6.82 44.276 0.145 7.92 1.77 15.6
10/21/2022 12:15:00 PM 6.95 44.51 0.145 7.96 1.79 15.57
10/21/2022 12:30:00 PM 7.1 44.78 0.145 7.99 1.78 15.54
10/21/2022 12:45:00 PM 7.26 45.068 0.145 8.01 1.74 15.5
10/21/2022 1:00:00 PM 7.42 45.356 0.144 8.05 1.73 15.46
10/21/2022 1:15:00 PM 7.6 45.68 0.144 8.07 1.78 15.41
10/21/2022 1:30:00 PM 7.79 46.022 0.144 8.12 1.78 15.35
10/21/2022 1:45:00 PM 7.98 46.364 0.144 8.15 1.77 15.3
10/21/2022 2:00:00 PM 8.15 46.67 0.144 8.18 1.81 15.23
10/21/2022 2:15:00 PM 8.32 46.976 0.144 8.21 1.8 15.16
10/21/2022 2:30:00 PM 8.46 47.228 0.144 8.24 1.79 15.1
10/21/2022 2:45:00 PM 8.58 47.444 0.144 8.26 1.84 15.03
10/21/2022 3:00:00 PM 8.68 47.624 0.144 8.27 1.79 14.96
10/21/2022 3:15:00 PM 8.76 47.768 0.144 8.27 1.83 14.9
10/21/2022 3:30:00 PM 8.81 47.858 0.144 8.27 1.81 14.85
10/21/2022 3:45:00 PM 8.84 47.912 0.144 8.28 1.81 14.79
10/21/2022 4:00:00 PM 8.85 47.93 0.144 8.26 1.8 14.75
10/21/2022 4:15:00 PM 8.85 47.93 0.144 8.23 1.85 14.69
10/21/2022 4:30:00 PM 8.83 47.894 0.144 8.2 1.85 14.64
10/21/2022 4:45:00 PM 8.8 47.84 0.144 8.15 1.84 14.58
10/21/2022 5:00:00 PM 8.74 47.732 0.144 8.09 1.83 14.51
10/21/2022 5:15:00 PM 8.68 47.624 0.145 8.03 1.82 14.45
10/21/2022 5:30:00 PM 8.61 47.498 0.145 7.97 1.8 14.38
10/21/2022 5:45:00 PM 8.52 47.336 0.145 7.9 1.81 14.32
10/21/2022 6:00:00 PM 8.43 47.174 0.145 7.84 1.84 14.24
10/21/2022 6:15:00 PM 8.34 47.012 0.146 7.79 1.78 14.17
10/21/2022 6:30:00 PM 8.25 46.85 0.146 7.73 1.79 14.1
10/21/2022 6:45:00 PM 8.16 46.688 0.146 7.67 1.79 14.04
10/21/2022 7:00:00 PM 8.07 46.526 0.147 7.65 1.8 14.01
10/21/2022 7:15:00 PM 7.98 46.364 0.147 7.62 1.81 13.99
10/21/2022 7:30:00 PM 7.89 46.202 0.147 7.59 1.84 13.99
10/21/2022 7:45:00 PM 7.81 46.058 0.147 7.58 1.81 13.99
10/21/2022 8:00:00 PM 7.72 45.896 0.147 7.55 1.83 13.99
10/21/2022 8:15:00 PM 7.64 45.752 0.147 7.55 1.83 14.01
10/21/2022 8:30:00 PM 7.57 45.626 0.147 7.54 1.82 14.01
10/21/2022 8:45:00 PM 7.51 45.518 0.148 7.53 1.84 14.02
10/21/2022 9:00:00 PM 7.45 45.41 0.148 7.52 1.81 14.04
10/21/2022 9:15:00 PM 7.4 45.32 0.148 7.5 1.86 14.05
10/21/2022 9:30:00 PM 7.36 45.248 0.148 7.5 1.89 14.06
10/21/2022 9:45:00 PM 7.32 45.176 0.148 7.49 1.83 14.08
10/21/2022 10:00:00 PM 7.28 45.104 0.148 7.49 1.85 14.09
10/21/2022 10:15:00 PM 7.24 45.032 0.148 7.49 1.92 14.1
10/21/2022 10:30:00 PM 7.2 44.96 0.148 7.48 1.87 14.1
10/21/2022 10:45:00 PM 7.16 44.888 0.148 7.48 1.8 14.12
10/21/2022 11:00:00 PM 7.12 44.816 0.148 7.48 1.82 14.13
10/21/2022 11:15:00 PM 7.09 44.762 0.148 7.48 1.8 14.14
10/21/2022 11:30:00 PM 7.05 44.69 0.148 7.47 1.79 14.15
10/21/2022 11:45:00 PM 7.02 44.636 0.148 7.47 1.81 14.16
10/22/2022 12:00:00 AM 6.98 44.564 0.148 7.44 1.78 14.17
10/22/2022 12:15:00 AM 6.94 44.492 0.148 7.46 1.87 14.18
10/22/2022 12:30:00 AM 6.91 44.438 0.148 7.45 1.82 14.2
10/22/2022 12:45:00 AM 6.87 44.366 0.148 7.45 1.83 14.21
10/22/2022 1:00:00 AM 6.83 44.294 0.148 7.45 1.83 14.22
10/22/2022 1:15:00 AM 6.79 44.222 0.148 7.45 1.82 14.24
10/22/2022 1:30:00 AM 6.75 44.15 0.148 7.45 1.81 14.25
10/22/2022 1:45:00 AM 6.71 44.078 0.148 7.45 1.8 14.27
10/22/2022 2:00:00 AM 6.66 43.988 0.148 7.44 1.8 14.28
10/22/2022 2:15:00 AM 6.61 43.898 0.148 7.44 1.82 14.3
10/22/2022 2:30:00 AM 6.57 43.826 0.148 7.44 1.85 14.32
10/22/2022 2:45:00 AM 6.52 43.736 0.148 7.43 1.82 14.34
10/22/2022 3:00:00 AM 6.48 43.664 0.148 7.42 1.82 14.35
10/22/2022 3:15:00 AM 6.43 43.574 0.148 7.43 1.85 14.37
10/22/2022 3:30:00 AM 6.38 43.484 0.148 7.42 1.8 14.39
10/22/2022 3:45:00 AM 6.34 43.412 0.148 7.42 1.8 14.4
10/22/2022 4:00:00 AM 6.3 43.34 0.148 7.42 1.8 14.42
10/22/2022 4:15:00 AM 6.25 43.25 0.148 7.4 1.79 14.45
10/22/2022 4:30:00 AM 6.21 43.178 0.148 7.41 1.81 14.46
10/22/2022 4:45:00 AM 6.17 43.106 0.148 7.41 1.85 14.47
10/22/2022 5:00:00 AM 6.13 43.034 0.148 7.41 1.85 14.49
10/22/2022 5:15:00 AM 6.09 42.962 0.148 7.41 1.84 14.5
10/22/2022 5:30:00 AM 6.05 42.89 0.148 7.41 1.84 14.52
10/22/2022 5:45:00 AM 6.02 42.836 0.148 7.41 1.83 14.53
10/22/2022 6:00:00 AM 5.98 42.764 0.148 7.41 1.83 14.56
10/22/2022 6:15:00 AM 5.94 42.692 0.148 7.41 1.85 14.57
10/22/2022 6:30:00 AM 5.9 42.62 0.148 7.41 1.93 14.59
10/22/2022 6:45:00 AM 5.87 42.566 0.148 7.4 1.88 14.6
10/22/2022 7:00:00 AM 5.83 42.494 0.148 7.41 1.89 14.62
10/22/2022 7:15:00 AM 5.79 42.422 0.148 7.41 1.85 14.64
10/22/2022 7:30:00 AM 5.75 42.35 0.148 7.41 1.89 14.67
10/22/2022 7:45:00 AM 5.72 42.296 0.148 7.41 1.87 14.72
10/22/2022 8:00:00 AM 5.69 42.242 0.148 7.43 1.83 14.8
10/22/2022 8:15:00 AM 5.66 42.188 0.148 7.44 1.85 14.89
10/22/2022 8:30:00 AM 5.64 42.152 0.148 7.46 1.83 14.98
10/22/2022 8:45:00 AM 5.63 42.134 0.147 7.47 1.79 15.09
10/22/2022 9:00:00 AM 5.62 42.116 0.147 7.51 1.8 15.17
10/22/2022 9:15:00 AM 5.63 42.134 0.147 7.53 1.79 15.27
10/22/2022 9:30:00 AM 5.68 42.224 0.147 7.55 1.8 15.38
10/22/2022 9:45:00 AM 5.74 42.332 0.147 7.59 1.75 15.47
10/22/2022 10:00:00 AM 5.85 42.53 0.147 7.63 1.78 15.56
10/22/2022 10:15:00 AM 5.98 42.764 0.146 7.67 1.75 15.62
10/22/2022 10:30:00 AM 6.12 43.016 0.146 7.71 1.74 15.67
10/22/2022 10:45:00 AM 6.28 43.304 0.146 7.75 1.79 15.69
10/22/2022 11:00:00 AM 6.44 43.592 0.146 7.8 1.75 15.71
10/22/2022 11:15:00 AM 6.6 43.88 0.146 7.84 1.74 15.7
10/22/2022 11:30:00 AM 6.78 44.204 0.146 7.88 1.78 15.68
10/22/2022 11:45:00 AM 6.94 44.492 0.146 7.92 1.74 15.66
10/22/2022 12:00:00 PM 7.11 44.798 0.146 7.96 1.74 15.63
10/22/2022 12:15:00 PM 7.29 45.122 0.145 8 1.74 15.59
10/22/2022 12:30:00 PM 7.47 45.446 0.145 8.03 1.74 15.55
10/22/2022 12:45:00 PM 7.66 45.788 0.145 8.08 1.71 15.51
10/22/2022 1:00:00 PM 7.84 46.112 0.145 8.12 1.75 15.46
10/22/2022 1:15:00 PM 8.04 46.472 0.145 8.15 1.72 15.41
10/22/2022 1:30:00 PM 8.24 46.832 0.145 8.18 1.74 15.34
10/22/2022 1:45:00 PM 8.46 47.228 0.144 8.22 1.79 15.27
10/22/2022 2:00:00 PM 8.66 47.588 0.144 8.24 1.77 15.2
10/22/2022 2:15:00 PM 8.85 47.93 0.144 8.27 1.78 15.12
10/22/2022 2:30:00 PM 9.03 48.254 0.144 8.3 1.76 15.05
10/22/2022 2:45:00 PM 9.18 48.524 0.144 8.34 1.77 14.96
10/22/2022 3:00:00 PM 9.3 48.74 0.144 8.35 1.78 14.88
10/22/2022 3:15:00 PM 9.41 48.938 0.144 8.33 1.79 14.81
10/22/2022 3:30:00 PM 9.5 49.1 0.144 8.35 1.74 14.74
10/22/2022 3:45:00 PM 9.56 49.208 0.144 8.35 1.77 14.67
10/22/2022 4:00:00 PM 9.6 49.28 0.144 8.33 1.75 14.61
10/22/2022 4:15:00 PM 9.62 49.316 0.144 8.32 1.75 14.55
10/22/2022 4:30:00 PM 9.61 49.298 0.144 8.28 1.74 14.48
10/22/2022 4:45:00 PM 9.58 49.244 0.144 8.23 1.76 14.41
10/22/2022 5:00:00 PM 9.54 49.172 0.144 8.15 1.73 14.33
10/22/2022 5:15:00 PM 9.49 49.082 0.144 8.1 1.75 14.27
10/22/2022 5:30:00 PM 9.43 48.974 0.145 8.01 1.72 14.2
10/22/2022 5:45:00 PM 9.35 48.83 0.145 7.93 1.74 14.12
10/22/2022 6:00:00 PM 9.26 48.668 0.145 7.86 1.75 14.03
10/22/2022 6:15:00 PM 9.16 48.488 0.146 7.79 1.73 13.95
10/22/2022 6:30:00 PM 9.07 48.326 0.146 7.72 1.76 13.88
10/22/2022 6:45:00 PM 8.98 48.164 0.146 7.68 1.76 13.83
10/22/2022 7:00:00 PM 8.89 48.002 0.146 7.64 1.77 13.79
10/22/2022 7:15:00 PM 8.79 47.822 0.147 7.59 1.77 13.77
10/22/2022 7:30:00 PM 8.7 47.66 0.147 7.58 1.78 13.77
10/22/2022 7:45:00 PM 8.61 47.498 0.147 7.56 1.8 13.77
10/22/2022 8:00:00 PM 8.52 47.336 0.147 7.54 1.79 13.78
10/22/2022 8:15:00 PM 8.43 47.174 0.147 7.52 1.77 13.79
10/22/2022 8:30:00 PM 8.35 47.03 0.148 7.52 1.77 13.81
10/22/2022 8:45:00 PM 8.27 46.886 0.148 7.52 1.83 13.82
10/22/2022 9:00:00 PM 8.21 46.778 0.148 7.51 1.83 13.83
10/22/2022 9:15:00 PM 8.15 46.67 0.148 7.5 1.84 13.85
10/22/2022 9:30:00 PM 8.09 46.562 0.148 7.48 1.83 13.85
10/22/2022 9:45:00 PM 8.04 46.472 0.148 7.48 1.81 13.87
10/22/2022 10:00:00 PM 8 46.4 0.148 7.48 1.82 13.89
10/22/2022 10:15:00 PM 7.95 46.31 0.148 7.47 1.82 13.89
10/22/2022 10:30:00 PM 7.91 46.238 0.148 7.47 1.88 13.91
10/22/2022 10:45:00 PM 7.87 46.166 0.148 7.46 1.83 13.92
10/22/2022 11:00:00 PM 7.83 46.094 0.148 7.46 1.85 13.94
10/22/2022 11:15:00 PM 7.8 46.04 0.148 7.46 1.84 13.95
10/22/2022 11:30:00 PM 7.76 45.968 0.148 7.44 1.8 13.96
10/22/2022 11:45:00 PM 7.73 45.914 0.148 7.45 1.79 13.97
10/23/2022 12:00:00 AM 7.69 45.842 0.148 7.44 1.75 13.96
10/23/2022 12:15:00 AM 7.66 45.788 0.148 7.44 1.76 13.99
10/23/2022 12:30:00 AM 7.62 45.716 0.148 7.44 1.75 13.98
10/23/2022 12:45:00 AM 7.59 45.662 0.148 7.43 1.78 13.99
10/23/2022 1:00:00 AM 7.56 45.608 0.148 7.43 1.76 14.02
10/23/2022 1:15:00 AM 7.52 45.536 0.148 7.42 1.76 14.02
10/23/2022 1:30:00 AM 7.49 45.482 0.148 7.44 1.76 14.04
10/23/2022 1:45:00 AM 7.46 45.428 0.148 7.42 1.75 14.05
10/23/2022 2:00:00 AM 7.42 45.356 0.148 7.42 1.75 14.07
10/23/2022 2:15:00 AM 7.37 45.266 0.148 7.43 1.8 14.07
10/23/2022 2:30:00 AM 7.33 45.194 0.148 7.42 1.81 14.1
10/23/2022 2:45:00 AM 7.28 45.104 0.148 7.42 1.78 14.11
10/23/2022 3:00:00 AM 7.24 45.032 0.148 7.42 1.83 14.13
10/23/2022 3:15:00 AM 7.19 44.942 0.148 7.41 1.88 14.14
10/23/2022 3:30:00 AM 7.14 44.852 0.148 7.42 1.78 14.16
10/23/2022 3:45:00 AM 7.09 44.762 0.148 7.42 1.81 14.18
10/23/2022 4:00:00 AM 7.04 44.672 0.148 7.42 1.76 14.2
10/23/2022 4:30:00 AM 6.94 44.492 0.148 7.42 1.93 14.23
10/23/2022 4:45:00 AM 6.89 44.402 0.148 7.42 1.86 14.26
10/23/2022 5:00:00 AM 6.85 44.33 0.148 7.41 1.89 14.27
10/23/2022 5:15:00 AM 6.8 44.24 0.148 7.41 1.85 14.29
10/23/2022 5:30:00 AM 6.75 44.15 0.148 7.41 1.76 14.31
10/23/2022 5:45:00 AM 6.71 44.078 0.148 7.41 1.8 14.33
10/23/2022 6:00:00 AM 6.67 44.006 0.148 7.41 1.83 14.35
10/23/2022 6:15:00 AM 6.63 43.934 0.148 7.4 1.87 14.36
10/23/2022 6:30:00 AM 6.6 43.88 0.148 7.41 1.85 14.38
10/23/2022 6:45:00 AM 6.56 43.808 0.148 7.41 1.84 14.39
10/23/2022 7:00:00 AM 6.52 43.736 0.148 7.41 1.84 14.4
10/23/2022 7:15:00 AM 6.49 43.682 0.148 7.41 1.87 14.42
10/23/2022 7:30:00 AM 6.45 43.61 0.148 7.4 1.79 14.45
10/23/2022 7:45:00 AM 6.41 43.538 0.148 7.41 2.04 14.49
10/23/2022 8:00:00 AM 6.39 43.502 0.148 7.41 1.82 14.57
10/23/2022 8:15:00 AM 6.37 43.466 0.148 7.43 1.8 14.7
10/23/2022 8:30:00 AM 6.36 43.448 0.148 7.45 1.76 14.84
10/23/2022 8:45:00 AM 6.37 43.466 0.148 7.49 1.77 15
10/23/2022 9:00:00 AM 6.38 43.484 0.147 7.51 1.77 15.14
10/23/2022 9:15:00 AM 6.4 43.52 0.147 7.55 1.74 15.27
10/23/2022 9:30:00 AM 6.44 43.592 0.147 7.6 1.76 15.39
10/23/2022 9:45:00 AM 6.49 43.682 0.147 7.65 1.76 15.49
10/23/2022 10:00:00 AM 6.54 43.772 0.146 7.7 1.76 15.59
10/23/2022 10:15:00 AM 6.61 43.898 0.146 7.75 1.79 15.65
10/23/2022 10:30:00 AM 6.68 44.024 0.146 7.8 1.76 15.71
10/23/2022 10:45:00 AM 6.77 44.186 0.146 7.86 1.73 15.76
10/23/2022 11:00:00 AM 6.87 44.366 0.146 7.92 1.73 15.8
10/23/2022 11:15:00 AM 6.97 44.546 0.145 7.98 1.76 15.84
10/23/2022 11:30:00 AM 7.07 44.726 0.145 8.04 1.73 15.84
10/23/2022 11:45:00 AM 7.18 44.924 0.145 8.09 1.72 15.84
10/23/2022 12:00:00 PM 7.31 45.158 0.145 8.16 1.72 15.85
10/23/2022 12:15:00 PM 7.43 45.374 0.145 8.21 1.77 15.82
10/23/2022 12:30:00 PM 7.58 45.644 0.144 8.27 1.7 15.8
10/23/2022 12:45:00 PM 7.78 46.004 0.144 8.34 1.73 15.8
10/23/2022 1:00:00 PM 7.96 46.328 0.144 8.41 1.71 15.76
10/23/2022 1:15:00 PM 8.15 46.67 0.144 8.47 1.74 15.75
10/23/2022 1:30:00 PM 8.31 46.958 0.143 8.52 1.7 15.69
10/23/2022 1:45:00 PM 8.45 47.21 0.143 8.57 1.73 15.63
10/23/2022 2:00:00 PM 8.61 47.498 0.143 8.63 1.74 15.56
10/23/2022 2:15:00 PM 8.73 47.714 0.143 8.65 1.76 15.5
10/23/2022 2:30:00 PM 8.8 47.84 0.143 8.68 1.73 15.4
10/23/2022 2:45:00 PM 8.9 48.02 0.143 8.71 1.83 15.38
10/23/2022 3:00:00 PM 8.98 48.164 0.143 8.72 1.79 15.34
10/23/2022 3:15:00 PM 9.04 48.272 0.143 8.73 1.78 15.24
10/23/2022 3:30:00 PM 9.08 48.344 0.144 8.73 1.82 15.12
10/23/2022 3:45:00 PM 9.12 48.416 0.144 8.71 1.8 15
10/23/2022 4:00:00 PM 9.13 48.434 0.144 8.67 1.79 14.86
10/23/2022 4:15:00 PM 9.13 48.434 0.144 8.6 1.79 14.72
10/23/2022 4:30:00 PM 9.13 48.434 0.144 8.51 1.74 14.59
10/23/2022 4:45:00 PM 9.14 48.452 0.144 8.39 1.78 14.48
10/23/2022 5:00:00 PM 9.14 48.452 0.145 8.27 1.79 14.4
10/23/2022 5:15:00 PM 9.14 48.452 0.145 8.15 1.76 14.29
10/23/2022 5:30:00 PM 9.14 48.452 0.145 8.04 1.84 14.18
10/23/2022 5:45:00 PM 9.14 48.452 0.145 7.93 1.74 14.09
10/23/2022 6:00:00 PM 9.14 48.452 0.145 7.85 1.78 14.01
10/23/2022 6:15:00 PM 9.13 48.434 0.146 7.78 1.76 13.91
10/23/2022 6:30:00 PM 9.13 48.434 0.146 7.71 1.76 13.83
10/23/2022 6:45:00 PM 9.11 48.398 0.146 7.67 1.76 13.77
10/23/2022 7:00:00 PM 9.1 48.38 0.146 7.62 1.74 13.72
10/23/2022 7:15:00 PM 9.09 48.362 0.147 7.59 1.75 13.68
10/23/2022 7:30:00 PM 9.08 48.344 0.147 7.55 1.74 13.65
10/23/2022 7:45:00 PM 9.06 48.308 0.147 7.53 1.78 13.62
10/23/2022 8:00:00 PM 9.05 48.29 0.147 7.51 1.75 13.61
10/23/2022 8:15:00 PM 9.04 48.272 0.148 7.5 1.77 13.59
10/23/2022 8:30:00 PM 9.03 48.254 0.148 7.48 1.76 13.58
10/23/2022 8:45:00 PM 9.02 48.236 0.148 7.45 1.8 13.58
10/23/2022 9:00:00 PM 9.02 48.236 0.148 7.46 1.76 13.56
10/23/2022 9:15:00 PM 9.01 48.218 0.148 7.44 1.79 13.56
10/23/2022 9:30:00 PM 9 48.2 0.148 7.43 1.8 13.55
10/23/2022 9:45:00 PM 9 48.2 0.149 7.42 1.75 13.55
10/23/2022 10:00:00 PM 8.99 48.182 0.149 7.42 1.76 13.54
10/23/2022 10:15:00 PM 8.99 48.182 0.149 7.42 1.77 13.53
10/23/2022 10:30:00 PM 8.99 48.182 0.149 7.41 1.79 13.54
10/23/2022 10:45:00 PM 8.98 48.164 0.149 7.42 1.77 13.55
10/23/2022 11:00:00 PM 8.97 48.146 0.149 7.43 1.83 13.55
10/23/2022 11:15:00 PM 8.96 48.128 0.149 7.42 1.82 13.56
10/23/2022 11:30:00 PM 8.94 48.092 0.149 7.42 1.95 13.57
10/23/2022 11:45:00 PM 8.93 48.074 0.149 7.42 1.88 13.58
10/24/2022 12:00:00 AM 8.92 48.056 0.149 7.42 1.84 13.58
10/24/2022 12:15:00 AM 8.91 48.038 0.149 7.41 1.78 13.59
10/24/2022 12:30:00 AM 8.9 48.02 0.149 7.42 1.8 13.6
10/24/2022 12:45:00 AM 8.9 48.02 0.148 7.41 1.83 13.59
10/24/2022 1:00:00 AM 8.9 48.02 0.148 7.41 1.78 13.59
10/24/2022 1:15:00 AM 8.91 48.038 0.148 7.4 1.8 13.58
10/24/2022 1:30:00 AM 8.92 48.056 0.148 7.4 1.78 13.59
10/24/2022 1:45:00 AM 8.93 48.074 0.148 7.4 1.84 13.59
10/24/2022 2:00:00 AM 8.94 48.092 0.148 7.41 1.78 13.57
10/24/2022 2:15:00 AM 8.95 48.11 0.148 7.41 1.8 13.57
10/24/2022 2:30:00 AM 8.97 48.146 0.147 7.4 1.82 13.56
10/24/2022 2:45:00 AM 8.98 48.164 0.147 7.4 1.8 13.57
10/24/2022 3:00:00 AM 8.99 48.182 0.147 7.38 1.84 13.56
10/24/2022 3:15:00 AM 9 48.2 0.147 7.4 1.81 13.55
10/24/2022 3:30:00 AM 9.01 48.218 0.147 7.39 1.81 13.55
10/24/2022 3:45:00 AM 9.02 48.236 0.147 7.4 1.81 13.54
10/24/2022 4:00:00 AM 9.05 48.29 0.144 7.39 1.86 13.55
10/24/2022 4:15:00 AM 9.09 48.362 0.141 7.38 2.13 13.53
10/24/2022 4:30:00 AM 9.12 48.416 0.14 7.37 2.54 13.51
10/24/2022 4:45:00 AM 9.15 48.47 0.138 7.37 2.39 13.51
10/24/2022 5:00:00 AM 9.17 48.506 0.137 7.33 2.32 13.49
10/24/2022 5:15:00 AM 9.2 48.56 0.135 7.33 2.89 13.48
10/24/2022 5:30:00 AM 9.23 48.614 0.134 7.31 3.15 13.46
10/24/2022 5:45:00 AM 9.25 48.65 0.134 7.3 3.36 13.43
10/24/2022 6:00:00 AM 9.27 48.686 0.135 7.27 4.16 13.41
10/24/2022 6:15:00 AM 9.29 48.722 0.135 7.23 5.26 13.4
10/24/2022 6:30:00 AM 9.3 48.74 0.135 7.24 5.98 13.39
10/24/2022 6:45:00 AM 9.31 48.758 0.134 7.24 6.89 13.38
10/24/2022 7:00:00 AM 9.32 48.776 0.134 7.29 6.59 13.37
10/24/2022 7:15:00 AM 9.33 48.794 0.133 7.3 7.24 13.37
10/24/2022 7:30:00 AM 9.34 48.812 0.133 7.27 7 13.36
10/24/2022 7:45:00 AM 9.37 48.866 0.134 7.24 6.83 13.35
10/24/2022 8:00:00 AM 9.4 48.92 0.135 7.22 7.52 13.36
10/24/2022 8:15:00 AM 9.43 48.974 0.135 7.26 10.47 13.37
10/24/2022 8:30:00 AM 9.47 49.046 0.133 7.26 10.6 13.38
10/24/2022 8:45:00 AM 9.5 49.1 0.133 7.27 11.81 13.42
10/24/2022 9:00:00 AM 9.54 49.172 0.134 7.28 12.9 13.45
10/24/2022 9:15:00 AM 9.58 49.244 0.135 7.29 11.19 13.48
10/24/2022 9:30:00 AM 9.62 49.316 0.136 7.32 12 13.51
10/24/2022 9:45:00 AM 9.65 49.37 0.136 7.33 9.72 13.55
10/24/2022 10:00:00 AM 9.72 49.496 0.135 7.36 8.35 13.67
10/24/2022 10:15:00 AM 9.78 49.604 0.135 7.39 8.98 13.75
10/24/2022 10:30:00 AM 9.82 49.676 0.135 7.41 7.35 13.79
10/24/2022 10:45:00 AM 9.89 49.802 0.135 7.44 8.21 13.84
10/24/2022 11:00:00 AM 9.96 49.928 0.135 7.45 8.17 13.86
10/24/2022 11:15:00 AM 9.99 49.982 0.135 7.45 9.49 13.8
10/24/2022 11:30:00 AM 10.05 50.09 0.134 7.45 10.2 13.77
10/24/2022 11:45:00 AM 10.09 50.162 0.133 7.43 11.28 13.69
10/24/2022 12:00:00 PM 10.13 50.234 0.132 7.42 12.44 13.64
10/24/2022 12:15:00 PM 10.16 50.288 0.131 7.4 11.67 13.57
10/24/2022 12:30:00 PM 10.21 50.378 0.131 7.4 11.37 13.57
10/24/2022 12:45:00 PM 10.27 50.486 0.131 7.41 10.25 13.61
10/24/2022 1:00:00 PM 10.33 50.594 0.131 7.43 9.15 13.65
10/24/2022 1:15:00 PM 10.37 50.666 0.131 7.45 8.54 13.67
10/24/2022 1:30:00 PM 10.41 50.738 0.132 7.47 8.22 13.69
10/24/2022 1:45:00 PM 10.44 50.792 0.132 7.48 7.24 13.68
10/24/2022 2:00:00 PM 10.47 50.846 0.132 7.5 6.47 13.68
10/24/2022 2:15:00 PM 10.53 50.954 0.132 7.5 6.19 13.71
10/24/2022 2:30:00 PM 10.57 51.026 0.132 7.52 5.88 13.72
10/24/2022 2:45:00 PM 10.62 51.116 0.133 7.54 5.47 13.74
10/24/2022 3:00:00 PM 10.67 51.206 0.133 7.55 5.55 13.75
10/24/2022 3:15:00 PM 10.72 51.296 0.133 7.57 5.79 13.76
10/24/2022 3:30:00 PM 10.76 51.368 0.134 7.58 6.64 13.72
10/24/2022 3:45:00 PM 10.79 51.422 0.136 7.59 7.82 13.66
10/24/2022 4:00:00 PM 10.82 51.476 0.138 7.56 8.37 13.61
10/24/2022 4:15:00 PM 10.84 51.512 0.141 7.51 10.3 13.54
10/24/2022 4:30:00 PM 10.86 51.548 0.143 7.49 11.67 13.45
10/24/2022 4:45:00 PM 10.87 51.566 0.144 7.48 13.18 13.38
10/24/2022 5:00:00 PM 10.87 51.566 0.145 7.45 13.27 13.29
10/24/2022 5:15:00 PM 10.88 51.584 0.144 7.43 13.05 13.22
10/24/2022 5:30:00 PM 10.88 51.584 0.143 7.39 13.3 13.16
10/24/2022 5:45:00 PM 10.88 51.584 0.141 7.38 13.62 13.14
10/24/2022 6:00:00 PM 10.88 51.584 0.139 7.36 12.86 13.12
10/24/2022 6:15:00 PM 10.87 51.566 0.138 7.35 12.36 13.1
10/24/2022 6:30:00 PM 10.85 51.53 0.137 7.33 11.76 13.08
10/24/2022 6:45:00 PM 10.83 51.494 0.136 7.32 12.04 13.08
10/24/2022 7:00:00 PM 10.8 51.44 0.136 7.32 12.04 13.09
10/24/2022 7:15:00 PM 10.78 51.404 0.135 7.31 12.23 13.08
10/24/2022 7:30:00 PM 10.77 51.386 0.135 7.31 11.96 13.07
10/24/2022 7:45:00 PM 10.76 51.368 0.135 7.3 11.38 13.07
10/24/2022 8:00:00 PM 10.75 51.35 0.134 7.29 11.63 13.06
10/24/2022 8:15:00 PM 10.75 51.35 0.134 7.28 11.78 13.06
10/24/2022 8:30:00 PM 10.74 51.332 0.135 7.28 12.83 13.05
10/24/2022 8:45:00 PM 10.73 51.314 0.135 7.27 13.24 13.04
10/24/2022 9:00:00 PM 10.71 51.278 0.136 7.26 14.42 13.03
10/24/2022 9:15:00 PM 10.69 51.242 0.138 7.26 15.1 13.02
10/24/2022 9:30:00 PM 10.68 51.224 0.138 7.25 11.41 13.02
10/24/2022 9:45:00 PM 10.66 51.188 0.139 7.24 52.85 13.01
10/24/2022 10:00:00 PM 10.65 51.17 0.139 7.23 21.1 13
10/24/2022 10:15:00 PM 10.65 51.17 0.138 7.22 12.66 13
10/24/2022 10:30:00 PM 10.64 51.152 0.137 7.22 13.97 13
10/24/2022 10:45:00 PM 10.64 51.152 0.136 7.21 12.71 12.99
10/24/2022 11:00:00 PM 10.64 51.152 0.135 7.21 13.06 12.99
10/24/2022 11:15:00 PM 10.64 51.152 0.135 7.15 12.69 12.98
10/24/2022 11:30:00 PM 10.64 51.152 0.134 7.2 12.54 12.98
10/24/2022 11:45:00 PM 10.65 51.17 0.134 7.19 12.69 12.97
10/25/2022 12:00:00 AM 10.65 51.17 0.134 7.17 13.17 12.98
10/25/2022 12:15:00 AM 10.65 51.17 0.134 7.16 14.42 12.97
10/25/2022 12:30:00 AM 10.65 51.17 0.133 7.17 14.92 12.96
10/25/2022 12:45:00 AM 10.64 51.152 0.133 7.16 20.46 12.96
10/25/2022 1:00:00 AM 10.64 51.152 0.133 7.16 16.06 12.96
10/25/2022 1:15:00 AM 10.64 51.152 0.132 7.15 16.36 12.96
10/25/2022 1:30:00 AM 10.64 51.152 0.132 7.14 15.93 12.96
10/25/2022 1:45:00 AM 10.63 51.134 0.132 7.14 16.43 12.97
10/25/2022 2:00:00 AM 10.63 51.134 0.131 7.14 14.1 12.97
10/25/2022 2:15:00 AM 10.63 51.134 0.131 7.15 13.62 12.97
10/25/2022 2:30:00 AM 10.63 51.134 0.13 7.14 13.82 12.97
10/25/2022 2:45:00 AM 10.64 51.152 0.13 7.15 13.18 12.97
10/25/2022 3:00:00 AM 10.65 51.17 0.129 7.14 12.29 12.96
10/25/2022 3:15:00 AM 10.66 51.188 0.129 7.14 11.52 12.96
10/25/2022 3:30:00 AM 10.67 51.206 0.128 7.14 11.42 12.95
10/25/2022 3:45:00 AM 10.68 51.224 0.128 7.14 10.94 12.95
10/25/2022 4:00:00 AM 10.69 51.242 0.127 7.14 10.89 12.94
10/25/2022 4:15:00 AM 10.7 51.26 0.127 7.14 11.19 12.94
10/25/2022 4:30:00 AM 10.71 51.278 0.127 7.13 11.25 12.93
10/25/2022 4:45:00 AM 10.72 51.296 0.126 7.13 10.94 12.92
10/25/2022 5:00:00 AM 10.73 51.314 0.126 7.14 10.5 12.91
10/25/2022 5:15:00 AM 10.75 51.35 0.126 7.13 11.54 12.91
10/25/2022 5:30:00 AM 10.76 51.368 0.125 7.13 10.84 12.9
10/25/2022 5:45:00 AM 10.77 51.386 0.125 7.13 11.74 12.89
10/25/2022 6:00:00 AM 10.78 51.404 0.125 7.13 10.67 12.88
10/25/2022 6:15:00 AM 10.79 51.422 0.125 7.13 11.04 12.88
10/25/2022 6:30:00 AM 10.8 51.44 0.124 7.14 11.97 12.88
10/25/2022 6:45:00 AM 10.81 51.458 0.124 7.12 11.39 12.87
10/25/2022 7:00:00 AM 10.82 51.476 0.124 7.13 10.13 12.86
10/25/2022 7:15:00 AM 10.84 51.512 0.124 7.12 10.43 12.86
10/25/2022 7:30:00 AM 10.85 51.53 0.123 7.12 11.26 12.86
10/25/2022 7:45:00 AM 10.86 51.548 0.123 7.14 10.22 12.86
10/25/2022 8:00:00 AM 10.88 51.584 0.123 7.11 10.41 12.88
10/25/2022 8:15:00 AM 10.9 51.62 0.123 7.13 10.32 12.89
10/25/2022 8:30:00 AM 10.92 51.656 0.123 7.13 10.08 12.91
10/25/2022 8:45:00 AM 10.96 51.728 0.123 7.11 9.16 12.94
10/25/2022 9:00:00 AM 11 51.8 0.123 7.11 9.11 12.99
10/25/2022 9:15:00 AM 11.05 51.89 0.123 7.17 8.88 13.04
10/25/2022 9:30:00 AM 11.11 51.998 0.123 7.15 9.04 13.1
10/25/2022 9:45:00 AM 11.17 52.106 0.123 7.21 8.45 13.13
10/25/2022 10:00:00 AM 11.23 52.214 0.123 7.25 8.63 13.15
10/25/2022 10:15:00 AM 11.29 52.322 0.123 7.27 8.07 13.19
10/25/2022 10:30:00 AM 11.36 52.448 0.123 7.29 8.09 13.2
10/25/2022 10:45:00 AM 11.4 52.52 0.123 7.31 8.46 13.21
10/25/2022 11:00:00 AM 11.46 52.628 0.123 7.32 7.98 13.21
10/25/2022 11:15:00 AM 11.51 52.718 0.123 7.34 7.93 13.23
10/25/2022 11:30:00 AM 11.57 52.826 0.123 7.35 7.85 13.23
10/25/2022 11:45:00 AM 11.68 53.024 0.123 7.34 7.64 13.26
10/25/2022 12:00:00 PM 11.82 53.276 0.123 7.39 7.73 13.32
10/25/2022 12:15:00 PM 11.96 53.528 0.123 7.42 7 13.33
10/25/2022 12:30:00 PM 12.13 53.834 0.123 7.44 7.03 13.33
10/25/2022 12:45:00 PM 12.27 54.086 0.123 7.46 7.04 13.35
10/25/2022 1:00:00 PM 12.43 54.374 0.123 7.5 6.9 13.34
10/25/2022 1:15:00 PM 12.55 54.59 0.123 7.52 6.93 13.33
10/25/2022 1:30:00 PM 12.6 54.68 0.123 7.53 6.79 13.31
10/25/2022 1:45:00 PM 12.67 54.806 0.123 7.55 6.55 13.29
10/25/2022 2:00:00 PM 12.76 54.968 0.123 7.56 6.73 13.27
10/25/2022 2:15:00 PM 12.86 55.148 0.123 7.57 6.69 13.21
10/25/2022 2:30:00 PM 13.01 55.418 0.123 7.58 6.23 13.17
10/25/2022 2:45:00 PM 13.15 55.67 0.123 7.6 6.33 13.13
10/25/2022 3:00:00 PM 13.23 55.814 0.123 7.59 6.12 13.07
10/25/2022 3:15:00 PM 13.27 55.886 0.123 7.58 6.19 13.01
10/25/2022 3:30:00 PM 13.28 55.904 0.124 7.57 5.77 12.93
10/25/2022 3:45:00 PM 13.27 55.886 0.124 7.56 5.81 12.9
10/25/2022 4:00:00 PM 13.26 55.868 0.124 7.53 5.89 12.83
10/25/2022 4:15:00 PM 13.24 55.832 0.124 7.5 5.87 12.75
10/25/2022 4:30:00 PM 13.24 55.832 0.124 7.5 5.68 12.71
10/25/2022 4:45:00 PM 13.24 55.832 0.124 7.48 5.55 12.66
10/25/2022 5:00:00 PM 13.22 55.796 0.124 7.47 8.2 12.59
10/25/2022 5:15:00 PM 13.22 55.796 0.124 7.44 5.59 12.53
10/25/2022 5:30:00 PM 13.21 55.778 0.124 7.43 5.34 12.46
10/25/2022 5:45:00 PM 13.22 55.796 0.124 7.39 5.39 12.4
10/25/2022 6:00:00 PM 13.22 55.796 0.124 7.37 5.45 12.36
10/25/2022 6:15:00 PM 13.23 55.814 0.125 7.36 5.37 12.32
10/25/2022 6:30:00 PM 13.24 55.832 0.125 7.34 5.29 12.27
10/25/2022 6:45:00 PM 13.25 55.85 0.125 7.32 5.24 12.24
10/25/2022 7:00:00 PM 13.26 55.868 0.125 7.31 5.29 12.21
10/25/2022 7:15:00 PM 13.26 55.868 0.125 7.3 5.22 12.19
10/25/2022 7:30:00 PM 13.27 55.886 0.125 7.3 5.36 12.17
10/25/2022 7:45:00 PM 13.26 55.868 0.125 7.28 5.2 12.16
10/25/2022 8:00:00 PM 13.25 55.85 0.125 7.27 5.19 12.16
10/25/2022 8:15:00 PM 13.25 55.85 0.125 7.28 4.91 12.14
10/25/2022 8:30:00 PM 13.24 55.832 0.125 7.27 5.03 12.15
10/25/2022 8:45:00 PM 13.23 55.814 0.125 7.26 5.84 12.14
10/25/2022 9:00:00 PM 13.2 55.76 0.125 7.25 4.73 12.15
10/25/2022 9:15:00 PM 13.17 55.706 0.125 7.25 4.72 12.14
10/25/2022 9:30:00 PM 13.14 55.652 0.125 7.25 4.57 12.15
10/25/2022 9:45:00 PM 13.12 55.616 0.126 7.24 4.61 12.15
10/25/2022 10:00:00 PM 13.11 55.598 0.126 7.24 4.41 12.15
10/25/2022 10:15:00 PM 13.09 55.562 0.126 7.23 4.5 12.15
10/25/2022 10:30:00 PM 13.06 55.508 0.126 7.24 4.43 12.16
10/25/2022 10:45:00 PM 13.03 55.454 0.126 7.24 4.39 12.17
10/25/2022 11:00:00 PM 12.99 55.382 0.126 7.23 4.46 12.18
10/25/2022 11:15:00 PM 12.95 55.31 0.126 7.22 4.35 12.19
10/25/2022 11:30:00 PM 12.91 55.238 0.126 7.23 4.3 12.2
10/25/2022 11:45:00 PM 12.88 55.184 0.126 7.22 4.2 12.2
10/26/2022 12:00:00 AM 12.85 55.13 0.127 7.22 4.28 12.21
10/26/2022 12:15:00 AM 12.82 55.076 0.127 7.23 4.21 12.22
10/26/2022 12:30:00 AM 12.79 55.022 0.127 7.22 4.14 12.23
10/26/2022 12:45:00 AM 12.77 54.986 0.127 7.21 4.14 12.21
10/26/2022 1:00:00 AM 12.74 54.932 0.127 7.21 4.17 12.24
10/26/2022 1:15:00 AM 12.71 54.878 0.127 7.22 4.05 12.24
10/26/2022 1:30:00 AM 12.68 54.824 0.127 7.22 4.18 12.25
10/26/2022 1:45:00 AM 12.65 54.77 0.127 7.21 4.21 12.26
10/26/2022 2:00:00 AM 12.62 54.716 0.127 7.17 4.02 12.27
10/26/2022 2:15:00 AM 12.61 54.698 0.127 7.2 3.95 12.26
10/26/2022 2:30:00 AM 12.59 54.662 0.127 7.19 4.04 12.27
10/26/2022 2:45:00 AM 12.58 54.644 0.127 7.19 3.88 12.28
10/26/2022 3:00:00 AM 12.56 54.608 0.127 7.18 3.74 12.28
10/26/2022 3:15:00 AM 12.55 54.59 0.127 7.18 3.8 12.28
10/26/2022 3:30:00 AM 12.53 54.554 0.127 7.19 3.83 12.28
10/26/2022 3:45:00 AM 12.5 54.5 0.127 7.19 3.88 12.29
10/26/2022 4:00:00 AM 12.49 54.482 0.127 7.21 3.94 12.28
10/26/2022 4:15:00 AM 12.48 54.464 0.127 7.16 3.79 12.28
10/26/2022 4:30:00 AM 12.48 54.464 0.127 7.19 3.74 12.29
10/26/2022 4:45:00 AM 12.48 54.464 0.127 7.19 3.73 12.29
10/26/2022 5:00:00 AM 12.48 54.464 0.127 7.21 3.55 12.29
10/26/2022 5:15:00 AM 12.48 54.464 0.127 7.2 3.6 12.29
10/26/2022 5:30:00 AM 12.48 54.464 0.127 7.2 3.58 12.28
10/26/2022 5:45:00 AM 12.47 54.446 0.127 7.22 3.6 12.29
10/26/2022 6:00:00 AM 12.47 54.446 0.127 7.22 3.59 12.29
10/26/2022 6:15:00 AM 12.47 54.446 0.127 7.19 3.68 12.29
10/26/2022 6:30:00 AM 12.47 54.446 0.127 7.22 3.85 12.29
10/26/2022 6:45:00 AM 12.48 54.464 0.128 7.22 3.43 12.29
10/26/2022 7:00:00 AM 12.48 54.464 0.128 7.23 3.38 12.28
10/26/2022 7:15:00 AM 12.49 54.482 0.128 7.23 3.35 12.27
10/26/2022 7:30:00 AM 12.5 54.5 0.128 7.24 3.5 12.28
10/26/2022 7:45:00 AM 12.51 54.518 0.128 7.25 3.51 12.29
10/26/2022 8:00:00 AM 12.52 54.536 0.128 7.24 3.52 12.31
10/26/2022 8:15:00 AM 12.53 54.554 0.128 7.25 3.3 12.33
10/26/2022 8:30:00 AM 12.55 54.59 0.127 7.26 3.18 12.39
10/26/2022 8:45:00 AM 12.57 54.626 0.128 7.27 3.2 12.38
10/26/2022 9:00:00 AM 12.59 54.662 0.127 7.27 3.14 12.42
10/26/2022 9:15:00 AM 12.61 54.698 0.128 7.27 3.06 12.46
10/26/2022 9:30:00 AM 12.65 54.77 0.127 7.31 3.04 12.54
10/26/2022 9:45:00 AM 12.67 54.806 0.127 7.32 2.99 12.55
10/26/2022 10:00:00 AM 12.71 54.878 0.127 7.32 2.92 12.63
10/26/2022 10:15:00 AM 12.77 54.986 0.127 7.37 2.99 12.73
10/26/2022 10:30:00 AM 12.83 55.094 0.127 7.4 2.88 12.8
10/26/2022 10:45:00 AM 12.92 55.256 0.127 7.43 2.9 12.93
10/26/2022 11:00:00 AM 12.99 55.382 0.127 7.46 2.91 12.96
10/26/2022 11:15:00 AM 13.13 55.634 0.127 7.5 2.85 13.03
10/26/2022 11:30:00 AM 13.24 55.832 0.127 7.56 2.75 13.08
10/26/2022 11:45:00 AM 13.34 56.012 0.126 7.6 2.75 13.14
10/26/2022 12:00:00 PM 13.48 56.264 0.126 7.64 2.78 13.18
10/26/2022 12:15:00 PM 13.58 56.444 0.126 7.7 2.82 13.2
10/26/2022 12:30:00 PM 13.69 56.642 0.126 7.73 2.77 13.17
10/26/2022 12:45:00 PM 13.76 56.768 0.126 7.77 2.85 13.14
10/26/2022 1:00:00 PM 13.83 56.894 0.126 7.79 2.79 13.15
10/26/2022 1:15:00 PM 13.89 57.002 0.126 7.8 2.86 13.11
10/26/2022 1:30:00 PM 13.93 57.074 0.126 7.82 2.81 13.07
10/26/2022 1:45:00 PM 13.95 57.11 0.126 7.81 2.87 13
10/26/2022 2:00:00 PM 14 57.2 0.126 7.83 2.92 13.02
10/26/2022 2:15:00 PM 14.07 57.326 0.126 7.83 2.76 13.01
10/26/2022 2:30:00 PM 14.09 57.362 0.127 7.83 2.81 12.92
10/26/2022 2:45:00 PM 14.12 57.416 0.127 7.82 2.86 12.85
10/26/2022 3:00:00 PM 14.13 57.434 0.127 7.81 2.74 12.84
10/26/2022 3:15:00 PM 14.13 57.434 0.127 7.78 2.73 12.77
10/26/2022 3:30:00 PM 14.14 57.452 0.127 7.77 2.76 12.75
10/26/2022 3:45:00 PM 14.15 57.47 0.127 7.75 2.77 12.72
10/26/2022 4:00:00 PM 14.14 57.452 0.127 7.73 2.92 12.62
10/26/2022 4:15:00 PM 14.15 57.47 0.127 7.7 2.65 12.6
10/26/2022 4:30:00 PM 14.16 57.488 0.127 7.67 2.74 12.53
10/26/2022 4:45:00 PM 14.17 57.506 0.127 7.64 2.71 12.47
10/26/2022 5:00:00 PM 14.16 57.488 0.127 7.6 2.8 12.34
10/26/2022 5:15:00 PM 14.15 57.47 0.127 7.56 2.87 12.27
10/26/2022 5:30:00 PM 14.14 57.452 0.128 7.52 2.78 12.22
10/26/2022 5:45:00 PM 14.12 57.416 0.128 7.5 2.65 12.14
10/26/2022 6:00:00 PM 14.11 57.398 0.128 7.47 2.64 12.07
10/26/2022 6:15:00 PM 14.1 57.38 0.128 7.44 2.73 12.02
10/26/2022 6:30:00 PM 14.08 57.344 0.128 7.41 2.73 11.97
10/26/2022 6:45:00 PM 14.07 57.326 0.128 7.39 2.69 11.93
10/26/2022 7:00:00 PM 14.07 57.326 0.128 7.38 2.61 11.91
10/26/2022 7:15:00 PM 14.06 57.308 0.128 7.36 2.71 11.88
10/26/2022 7:30:00 PM 14.05 57.29 0.128 7.35 2.76 11.86
10/26/2022 7:45:00 PM 14.04 57.272 0.128 7.34 2.71 11.86
10/26/2022 8:00:00 PM 14.02 57.236 0.128 7.34 2.72 11.86
10/26/2022 8:15:00 PM 13.98 57.164 0.128 7.31 2.68 11.86
10/26/2022 8:30:00 PM 13.94 57.092 0.128 7.32 2.67 11.86
10/26/2022 8:45:00 PM 13.9 57.02 0.128 7.31 2.64 11.85
10/26/2022 9:00:00 PM 13.85 56.93 0.128 7.31 2.66 11.86
10/26/2022 9:15:00 PM 13.81 56.858 0.128 7.31 2.7 11.87
10/26/2022 9:30:00 PM 13.78 56.804 0.128 7.31 2.73 11.88
10/26/2022 9:45:00 PM 13.76 56.768 0.129 7.31 2.61 11.89
10/26/2022 10:00:00 PM 13.75 56.75 0.129 7.29 2.73 11.9
10/26/2022 10:15:00 PM 13.71 56.678 0.129 7.3 2.73 11.9
10/26/2022 10:30:00 PM 13.66 56.588 0.129 7.29 2.76 11.91
10/26/2022 10:45:00 PM 13.61 56.498 0.129 7.28 2.59 11.93
10/26/2022 11:00:00 PM 13.56 56.408 0.129 7.28 2.68 11.94
10/26/2022 11:15:00 PM 13.53 56.354 0.129 7.29 2.67 11.95
10/26/2022 11:30:00 PM 13.5 56.3 0.13 7.28 2.59 11.97
10/26/2022 11:45:00 PM 13.46 56.228 0.13 7.29 2.65 11.97
10/27/2022 12:00:00 AM 13.43 56.174 0.13 7.28 2.66 11.99
10/27/2022 12:15:00 AM 13.38 56.084 0.13 7.29 2.56 11.99
10/27/2022 12:30:00 AM 13.33 55.994 0.13 7.29 2.54 12.02
10/27/2022 12:45:00 AM 13.28 55.904 0.13 7.28 2.55 12.03
10/27/2022 1:00:00 AM 13.22 55.796 0.13 7.29 2.58 12.05
10/27/2022 1:15:00 AM 13.16 55.688 0.13 7.28 2.6 12.07
10/27/2022 1:30:00 AM 13.12 55.616 0.131 7.28 2.72 12.08
10/27/2022 1:45:00 AM 13.1 55.58 0.131 7.28 2.66 12.09
10/27/2022 2:00:00 AM 13.08 55.544 0.131 7.28 2.67 12.11
10/27/2022 2:15:00 AM 13.04 55.472 0.131 7.3 2.49 12.13
10/27/2022 2:30:00 AM 13 55.4 0.131 7.29 2.59 12.14
10/27/2022 2:45:00 AM 12.97 55.346 0.131 7.3 2.58 12.15
10/27/2022 3:00:00 AM 12.94 55.292 0.131 7.3 2.64 12.16
10/27/2022 3:15:00 AM 12.91 55.238 0.131 7.29 2.69 12.18
10/27/2022 3:30:00 AM 12.88 55.184 0.131 7.3 2.52 12.2
10/27/2022 3:45:00 AM 12.84 55.112 0.131 7.31 2.66 12.21
10/27/2022 4:00:00 AM 12.8 55.04 0.131 7.32 2.57 12.22
10/27/2022 4:15:00 AM 12.77 54.986 0.131 7.3 2.57 12.24
10/27/2022 4:30:00 AM 12.74 54.932 0.131 7.31 2.57 12.25
10/27/2022 4:45:00 AM 12.69 54.842 0.131 7.31 2.59 12.27
10/27/2022 5:00:00 AM 12.65 54.77 0.131 7.32 2.68 12.28
10/27/2022 5:15:00 AM 12.62 54.716 0.131 7.3 2.56 12.29
10/27/2022 5:30:00 AM 12.57 54.626 0.131 7.32 2.63 12.31
10/27/2022 5:45:00 AM 12.53 54.554 0.131 7.32 2.7 12.33
10/27/2022 6:00:00 AM 12.48 54.464 0.131 7.32 2.6 12.34
10/27/2022 6:15:00 AM 12.44 54.392 0.131 7.34 2.65 12.37
10/27/2022 6:30:00 AM 12.4 54.32 0.131 7.35 2.73 12.39
10/27/2022 6:45:00 AM 12.35 54.23 0.131 7.35 2.71 12.41
10/27/2022 7:00:00 AM 12.3 54.14 0.131 7.36 2.71 12.42
10/27/2022 7:15:00 AM 12.24 54.032 0.131 7.35 2.69 12.43
10/27/2022 7:30:00 AM 12.18 53.924 0.13 7.33 2.65 12.46
10/27/2022 7:45:00 AM 12.14 53.852 0.13 7.34 2.71 12.49
10/27/2022 8:00:00 AM 12.09 53.762 0.13 7.34 2.74 12.54
10/27/2022 8:15:00 AM 12.04 53.672 0.13 7.35 2.72 12.58
10/27/2022 8:30:00 AM 12.02 53.636 0.13 7.36 2.62 12.63
10/27/2022 8:45:00 AM 11.97 53.546 0.13 7.36 2.56 12.7
10/27/2022 9:00:00 AM 11.95 53.51 0.13 7.38 2.51 12.79
10/27/2022 9:15:00 AM 11.93 53.474 0.13 7.4 2.48 12.88
10/27/2022 9:30:00 AM 11.91 53.438 0.13 7.41 2.51 12.94
10/27/2022 9:45:00 AM 11.9 53.42 0.13 7.43 2.49 13.04
10/27/2022 10:00:00 AM 11.9 53.42 0.13 7.44 2.48 13.17
10/27/2022 10:15:00 AM 11.95 53.51 0.13 7.51 2.51 13.32
10/27/2022 10:30:00 AM 12.02 53.636 0.13 7.56 2.46 13.41
10/27/2022 10:45:00 AM 12.05 53.69 0.129 7.61 2.46 13.49
10/27/2022 11:00:00 AM 12.18 53.924 0.129 7.66 2.39 13.59
10/27/2022 11:15:00 AM 12.17 53.906 0.129 7.71 2.32 13.6
10/27/2022 11:30:00 AM 12.23 54.014 0.129 7.75 2.38 13.62
10/27/2022 11:45:00 AM 12.24 54.032 0.129 7.77 2.33 13.63
10/27/2022 12:00:00 PM 12.25 54.05 0.129 7.78 2.37 13.62
10/27/2022 12:15:00 PM 12.32 54.176 0.129 7.81 2.43 13.65
10/27/2022 12:30:00 PM 12.41 54.338 0.129 7.84 2.41 13.64
10/27/2022 12:45:00 PM 12.5 54.5 0.129 7.88 2.39 13.66
10/27/2022 1:00:00 PM 12.58 54.644 0.129 7.9 2.36 13.65
10/27/2022 1:15:00 PM 12.63 54.734 0.129 7.93 2.36 13.63
10/27/2022 1:30:00 PM 12.69 54.842 0.129 7.94 2.32 13.61
10/27/2022 1:45:00 PM 12.76 54.968 0.129 7.95 2.42 13.58
10/27/2022 2:00:00 PM 12.79 55.022 0.129 7.97 2.32 13.57
10/27/2022 2:15:00 PM 12.81 55.058 0.129 7.97 2.33 13.55
10/27/2022 2:30:00 PM 12.81 55.058 0.129 7.98 2.38 13.54
10/27/2022 2:45:00 PM 12.78 55.004 0.129 7.95 2.34 13.5
10/27/2022 3:00:00 PM 12.75 54.95 0.129 7.95 2.33 13.46
10/27/2022 3:15:00 PM 12.7 54.86 0.129 7.92 2.38 13.44
10/27/2022 3:30:00 PM 12.66 54.788 0.129 7.9 2.31 13.41
10/27/2022 3:45:00 PM 12.61 54.698 0.129 7.88 2.36 13.38
10/27/2022 4:00:00 PM 12.55 54.59 0.129 7.84 2.4 13.34
10/27/2022 4:15:00 PM 12.48 54.464 0.13 7.81 2.32 13.31
10/27/2022 4:30:00 PM 12.41 54.338 0.13 7.77 2.4 13.26
10/27/2022 4:45:00 PM 12.34 54.212 0.13 7.73 2.43 13.22
10/27/2022 5:00:00 PM 12.28 54.104 0.13 7.68 2.36 13.15
10/27/2022 5:15:00 PM 12.21 53.978 0.13 7.64 2.35 13.09
10/27/2022 5:30:00 PM 12.15 53.87 0.13 7.59 2.35 13.02
10/27/2022 5:45:00 PM 12.1 53.78 0.13 7.56 2.4 12.97
10/27/2022 6:00:00 PM 12.07 53.726 0.13 7.53 2.4 12.91
10/27/2022 6:15:00 PM 12.03 53.654 0.13 7.5 2.98 12.85
10/27/2022 6:30:00 PM 12 53.6 0.13 7.47 2.39 12.8
10/27/2022 6:45:00 PM 11.98 53.564 0.13 7.44 2.41 12.77
10/27/2022 7:00:00 PM 11.96 53.528 0.13 7.43 2.35 12.73
10/27/2022 7:15:00 PM 11.95 53.51 0.13 7.39 2.42 12.72
10/27/2022 7:30:00 PM 11.92 53.456 0.13 7.41 2.47 12.72
10/27/2022 7:45:00 PM 11.89 53.402 0.13 7.4 2.43 12.72
10/27/2022 8:00:00 PM 11.85 53.33 0.13 7.39 2.38 12.71
10/27/2022 8:15:00 PM 11.81 53.258 0.13 7.39 2.28 12.72
10/27/2022 8:30:00 PM 11.77 53.186 0.13 7.37 2.45 12.72
10/27/2022 8:45:00 PM 11.72 53.096 0.13 7.37 2.44 12.73
10/27/2022 9:00:00 PM 11.67 53.006 0.13 7.36 2.38 12.75
10/27/2022 9:15:00 PM 11.59 52.862 0.13 7.36 2.42 12.76
10/27/2022 9:30:00 PM 11.52 52.736 0.13 7.33 2.33 12.78
10/27/2022 9:45:00 PM 11.45 52.61 0.131 7.35 2.46 12.8
10/27/2022 10:00:00 PM 11.36 52.448 0.131 7.33 2.32 12.82
10/27/2022 10:15:00 PM 11.28 52.304 0.131 7.34 2.32 12.85
10/27/2022 10:30:00 PM 11.19 52.142 0.131 7.33 2.36 12.87
10/27/2022 10:45:00 PM 11.1 51.98 0.131 7.33 2.29 12.9
10/27/2022 11:00:00 PM 11 51.8 0.131 7.32 2.38 12.93
10/27/2022 11:15:00 PM 10.91 51.638 0.131 7.31 2.35 12.96
10/27/2022 11:30:00 PM 10.81 51.458 0.131 7.28 2.35 12.99
10/27/2022 11:45:00 PM 10.71 51.278 0.131 7.3 2.35 13.03
10/28/2022 12:00:00 AM 10.62 51.116 0.131 7.3 2.35 13.06
10/28/2022 12:15:00 AM 10.52 50.936 0.132 7.3 2.31 13.09
10/28/2022 12:30:00 AM 10.42 50.756 0.132 7.32 2.3 13.12
10/28/2022 12:45:00 AM 10.31 50.558 0.132 7.32 2.69 13.15
10/28/2022 1:00:00 AM 10.22 50.396 0.132 7.32 2.27 13.18
10/28/2022 1:15:00 AM 10.12 50.216 0.132 7.31 2.34 13.22
10/28/2022 1:30:00 AM 10.02 50.036 0.132 7.32 2.37 13.25
10/28/2022 1:45:00 AM 9.93 49.874 0.132 7.31 2.32 13.28
10/28/2022 2:00:00 AM 9.84 49.712 0.132 7.29 2.26 13.31
10/28/2022 2:15:00 AM 9.75 49.55 0.132 7.32 2.26 13.34
10/28/2022 2:30:00 AM 9.67 49.406 0.132 7.3 2.3 13.37
10/28/2022 2:45:00 AM 9.58 49.244 0.132 7.3 2.32 13.4
10/28/2022 3:00:00 AM 9.5 49.1 0.132 7.31 2.29 13.43
10/28/2022 3:15:00 AM 9.42 48.956 0.132 7.3 2.28 13.45
10/28/2022 3:30:00 AM 9.34 48.812 0.132 7.3 2.43 13.49
10/28/2022 3:45:00 AM 9.26 48.668 0.132 7.3 2.34 13.51
10/28/2022 4:00:00 AM 9.18 48.524 0.132 7.31 2.24 13.54
10/28/2022 4:15:00 AM 9.11 48.398 0.132 7.3 2.27 13.57
10/28/2022 4:30:00 AM 9.04 48.272 0.132 7.32 2.21 13.59
10/28/2022 4:45:00 AM 8.96 48.128 0.132 7.32 2.26 13.61
10/28/2022 5:00:00 AM 8.89 48.002 0.132 7.31 2.28 13.64
10/28/2022 5:15:00 AM 8.83 47.894 0.132 7.32 2.32 13.66
10/28/2022 5:30:00 AM 8.76 47.768 0.132 7.32 2.29 13.69
10/28/2022 5:45:00 AM 8.69 47.642 0.132 7.32 2.28 13.72
10/28/2022 6:00:00 AM 8.63 47.534 0.132 7.32 2.29 13.74
10/28/2022 6:15:00 AM 8.57 47.426 0.132 7.32 2.4 13.76
10/28/2022 6:30:00 AM 8.53 47.354 0.132 7.33 2.25 13.78
10/28/2022 6:45:00 AM 8.48 47.264 0.132 7.33 2.33 13.8
10/28/2022 7:00:00 AM 8.44 47.192 0.132 7.34 2.37 13.82
10/28/2022 7:15:00 AM 8.39 47.102 0.132 7.34 2.29 13.84
10/28/2022 7:30:00 AM 8.34 47.012 0.132 7.34 2.32 13.87
10/28/2022 7:45:00 AM 8.29 46.922 0.132 7.34 2.29 13.91
10/28/2022 8:00:00 AM 8.25 46.85 0.132 7.35 2.22 13.97
10/28/2022 8:15:00 AM 8.21 46.778 0.132 7.37 2.24 14.05
10/28/2022 8:30:00 AM 8.18 46.724 0.132 7.38 2.25 14.17
10/28/2022 8:45:00 AM 8.15 46.67 0.132 7.41 2.22 14.27
10/28/2022 9:00:00 AM 8.12 46.616 0.132 7.44 2.2 14.4
10/28/2022 9:15:00 AM 8.11 46.598 0.132 7.47 2.29 14.53
10/28/2022 9:30:00 AM 8.11 46.598 0.132 7.5 2.24 14.65
10/28/2022 9:45:00 AM 8.1 46.58 0.132 7.54 2.23 14.74
10/28/2022 10:00:00 AM 8.1 46.58 0.132 7.58 2.18 14.84
10/28/2022 10:15:00 AM 8.14 46.652 0.132 7.62 2.19 14.93
10/28/2022 10:30:00 AM 8.21 46.778 0.131 7.67 2.21 15.01
10/28/2022 10:45:00 AM 8.27 46.886 0.131 7.72 2.17 15.07
10/28/2022 11:00:00 AM 8.36 47.048 0.131 7.77 2.14 15.09
10/28/2022 11:15:00 AM 8.41 47.138 0.131 7.81 2.14 15.11
10/28/2022 11:30:00 AM 8.47 47.246 0.131 7.84 2.19 15.13
10/28/2022 11:45:00 AM 8.53 47.354 0.131 7.88 2.29 15.15
10/28/2022 12:00:00 PM 8.6 47.48 0.131 7.92 2.2 15.16
10/28/2022 12:15:00 PM 8.69 47.642 0.131 7.95 2.16 15.15
10/28/2022 12:30:00 PM 8.8 47.84 0.131 7.98 2.16 15.14
10/28/2022 12:45:00 PM 8.95 48.11 0.13 8.04 2.16 15.14
10/28/2022 1:00:00 PM 9.1 48.38 0.13 8.08 2.12 15.09
10/28/2022 1:15:00 PM 9.24 48.632 0.13 8.11 2.19 15.05
10/28/2022 1:30:00 PM 9.38 48.884 0.13 8.13 2.1 14.99
10/28/2022 1:45:00 PM 9.49 49.082 0.13 8.15 2.16 14.94
10/28/2022 2:00:00 PM 9.59 49.262 0.13 8.17 2.15 14.89
10/28/2022 2:15:00 PM 9.68 49.424 0.13 8.19 2.21 14.83
10/28/2022 2:30:00 PM 9.76 49.568 0.13 8.18 2.24 14.78
10/28/2022 2:45:00 PM 9.8 49.64 0.13 8.18 2.26 14.74
10/28/2022 3:00:00 PM 9.86 49.748 0.13 8.21 2.19 14.76
10/28/2022 3:15:00 PM 9.88 49.784 0.13 8.22 2.22 14.74
10/28/2022 3:30:00 PM 9.91 49.838 0.13 8.23 2.13 14.73
10/28/2022 3:45:00 PM 9.92 49.856 0.13 8.23 2.17 14.71
10/28/2022 4:00:00 PM 9.93 49.874 0.13 8.23 2.18 14.69
10/28/2022 4:15:00 PM 9.92 49.856 0.13 8.22 2.22 14.65
10/28/2022 4:30:00 PM 9.91 49.838 0.13 8.18 2.22 14.58
10/28/2022 4:45:00 PM 9.88 49.784 0.13 8.13 2.3 14.5
10/28/2022 5:00:00 PM 9.86 49.748 0.13 8.05 2.2 14.4
10/28/2022 5:15:00 PM 9.84 49.712 0.13 7.97 2.18 14.31
10/28/2022 5:30:00 PM 9.81 49.658 0.131 7.89 2.2 14.18
10/28/2022 5:45:00 PM 9.78 49.604 0.131 7.8 2.17 14.07
10/28/2022 6:00:00 PM 9.76 49.568 0.131 7.72 2.35 13.94
10/28/2022 6:15:00 PM 9.74 49.532 0.131 7.66 2.25 13.85
10/28/2022 6:30:00 PM 9.72 49.496 0.131 7.6 2.26 13.76
10/28/2022 6:45:00 PM 9.7 49.46 0.131 7.56 2.42 13.69
10/28/2022 7:00:00 PM 9.68 49.424 0.131 7.52 2.22 13.64
10/28/2022 7:15:00 PM 9.67 49.406 0.131 7.52 2.19 13.6
10/28/2022 7:30:00 PM 9.67 49.406 0.131 7.5 2.19 13.57
10/28/2022 7:45:00 PM 9.67 49.406 0.131 7.47 2.18 13.55
10/28/2022 8:00:00 PM 9.68 49.424 0.131 7.47 2.22 13.53
10/28/2022 8:15:00 PM 9.67 49.406 0.132 7.45 2.23 13.51
10/28/2022 8:30:00 PM 9.66 49.388 0.132 7.44 2.22 13.5
10/28/2022 8:45:00 PM 9.63 49.334 0.132 7.44 2.15 13.5
10/28/2022 9:00:00 PM 9.6 49.28 0.132 7.43 2.15 13.49
10/28/2022 9:15:00 PM 9.56 49.208 0.132 7.42 2.18 13.49
10/28/2022 9:30:00 PM 9.51 49.118 0.132 7.42 2.22 13.5
10/28/2022 9:45:00 PM 9.45 49.01 0.132 7.41 2.21 13.51
10/28/2022 10:00:00 PM 9.4 48.92 0.132 7.41 2.18 13.52
10/28/2022 10:15:00 PM 9.35 48.83 0.132 7.41 2.14 13.54
10/28/2022 10:30:00 PM 9.29 48.722 0.132 7.4 2.13 13.55
10/28/2022 10:45:00 PM 9.24 48.632 0.132 7.39 2.14 13.56
10/28/2022 11:00:00 PM 9.18 48.524 0.132 7.39 2.17 13.58
10/28/2022 11:15:00 PM 9.13 48.434 0.132 7.39 2.17 13.6
10/28/2022 11:30:00 PM 9.07 48.326 0.132 7.38 2.2 13.62
10/28/2022 11:45:00 PM 9.01 48.218 0.133 7.38 2.14 13.62
10/29/2022 12:00:00 AM 8.94 48.092 0.133 7.38 2.12 13.65
10/29/2022 12:15:00 AM 8.88 47.984 0.133 7.38 2.12 13.67
10/29/2022 12:30:00 AM 8.81 47.858 0.133 7.38 2.16 13.69
10/29/2022 12:45:00 AM 8.73 47.714 0.133 7.37 2.14 13.72
10/29/2022 1:00:00 AM 8.66 47.588 0.133 7.37 2.15 13.74
10/29/2022 1:15:00 AM 8.58 47.444 0.133 7.37 2.16 13.77
10/29/2022 1:30:00 AM 8.51 47.318 0.133 7.37 2.13 13.79
10/29/2022 1:45:00 AM 8.43 47.174 0.133 7.37 2.16 13.81
10/29/2022 2:00:00 AM 8.36 47.048 0.133 7.37 2.13 13.84
10/29/2022 2:15:00 AM 8.28 46.904 0.134 7.33 2.2 13.87
10/29/2022 2:30:00 AM 8.21 46.778 0.134 7.33 2.17 13.9
10/29/2022 2:45:00 AM 8.14 46.652 0.134 7.33 2.18 13.92
10/29/2022 3:00:00 AM 8.07 46.526 0.134 7.34 2.11 13.94
10/29/2022 3:15:00 AM 8 46.4 0.134 7.34 2.15 13.97
10/29/2022 3:30:00 AM 7.93 46.274 0.134 7.35 2.12 14
10/29/2022 3:45:00 AM 7.86 46.148 0.134 7.34 2.12 14.01
10/29/2022 4:00:00 AM 7.8 46.04 0.134 7.34 2.16 14.04
10/29/2022 4:15:00 AM 7.74 45.932 0.134 7.32 2.1 14.05
10/29/2022 4:30:00 AM 7.67 45.806 0.134 7.34 2.08 14.07
10/29/2022 4:45:00 AM 7.61 45.698 0.134 7.34 2.11 14.09
10/29/2022 5:00:00 AM 7.55 45.59 0.135 7.33 2.13 14.12
10/29/2022 5:15:00 AM 7.48 45.464 0.135 7.33 2.17 14.15
10/29/2022 5:30:00 AM 7.42 45.356 0.135 7.33 2.06 14.17
10/29/2022 5:45:00 AM 7.35 45.23 0.135 7.32 2.11 14.19
10/29/2022 6:00:00 AM 7.29 45.122 0.135 7.32 2.16 14.21
10/29/2022 6:15:00 AM 7.22 44.996 0.135 7.33 2.14 14.23
10/29/2022 6:30:00 AM 7.16 44.888 0.135 7.33 2.14 14.26
10/29/2022 6:45:00 AM 7.09 44.762 0.135 7.32 2.15 14.28
10/29/2022 7:00:00 AM 7.03 44.654 0.135 7.33 2.22 14.31
10/29/2022 7:15:00 AM 6.96 44.528 0.135 7.33 2.48 14.33
10/29/2022 7:30:00 AM 6.9 44.42 0.135 7.33 2.5 14.37
10/29/2022 7:45:00 AM 6.84 44.312 0.135 7.33 2.26 14.42
10/29/2022 8:00:00 AM 6.78 44.204 0.135 7.34 2.18 14.49
10/29/2022 8:15:00 AM 6.72 44.096 0.135 7.35 2.15 14.56
10/29/2022 8:30:00 AM 6.68 44.024 0.135 7.37 2.19 14.65
10/29/2022 8:45:00 AM 6.63 43.934 0.135 7.39 2.11 14.74
10/29/2022 9:00:00 AM 6.59 43.862 0.135 7.41 2.1 14.83
10/29/2022 9:15:00 AM 6.57 43.826 0.135 7.42 2.07 14.92
10/29/2022 9:30:00 AM 6.59 43.862 0.135 7.45 2.1 15.04
10/29/2022 9:45:00 AM 6.62 43.916 0.135 7.5 2.1 15.14
10/29/2022 10:00:00 AM 6.69 44.042 0.135 7.53 2.09 15.25
10/29/2022 10:15:00 AM 6.78 44.204 0.135 7.57 2.09 15.32
10/29/2022 10:30:00 AM 6.86 44.348 0.134 7.6 2.06 15.38
10/29/2022 10:45:00 AM 6.95 44.51 0.134 7.66 2.04 15.43
10/29/2022 11:00:00 AM 7.03 44.654 0.134 7.68 2.05 15.46
10/29/2022 11:15:00 AM 7.12 44.816 0.134 7.72 2.05 15.47
10/29/2022 11:30:00 AM 7.21 44.978 0.134 7.75 2.07 15.48
10/29/2022 11:45:00 AM 7.31 45.158 0.134 7.78 2.06 15.48
10/29/2022 12:00:00 PM 7.42 45.356 0.134 7.81 2.02 15.46
10/29/2022 12:15:00 PM 7.54 45.572 0.134 7.84 2.09 15.45
10/29/2022 12:30:00 PM 7.67 45.806 0.134 7.87 2.03 15.43
10/29/2022 12:45:00 PM 7.81 46.058 0.133 7.91 2.03 15.4
10/29/2022 1:00:00 PM 7.95 46.31 0.133 7.94 2.08 15.37
10/29/2022 1:15:00 PM 8.1 46.58 0.133 7.97 2.05 15.34
10/29/2022 1:30:00 PM 8.24 46.832 0.133 7.99 2.05 15.29
10/29/2022 1:45:00 PM 8.38 47.084 0.133 8.03 2.02 15.25
10/29/2022 2:00:00 PM 8.51 47.318 0.133 8.06 2.05 15.21
10/29/2022 2:15:00 PM 8.62 47.516 0.133 8.07 2.06 15.17
10/29/2022 2:30:00 PM 8.72 47.696 0.133 8.09 2.03 15.11
10/29/2022 2:45:00 PM 8.79 47.822 0.133 8.08 2.08 15.03
10/29/2022 3:00:00 PM 8.86 47.948 0.133 8.09 2.09 14.97
10/29/2022 3:15:00 PM 8.9 48.02 0.133 8.08 2.08 14.92
10/29/2022 3:30:00 PM 8.92 48.056 0.133 8.08 2.11 14.87
10/29/2022 3:45:00 PM 8.92 48.056 0.133 8.04 2.09 14.82
10/29/2022 4:00:00 PM 8.89 48.002 0.133 8.04 2.16 14.78
10/29/2022 4:15:00 PM 8.85 47.93 0.133 8 2.11 14.73
10/29/2022 4:30:00 PM 8.8 47.84 0.133 7.96 2.11 14.67
10/29/2022 4:45:00 PM 8.74 47.732 0.133 7.92 2.13 14.62
10/29/2022 5:00:00 PM 8.67 47.606 0.133 7.87 2.12 14.56
10/29/2022 5:15:00 PM 8.59 47.462 0.133 7.8 2.1 14.49
10/29/2022 5:30:00 PM 8.52 47.336 0.133 7.74 2.14 14.41
10/29/2022 5:45:00 PM 8.44 47.192 0.133 7.69 2.15 14.33
10/29/2022 6:00:00 PM 8.38 47.084 0.133 7.65 2.13 14.27
10/29/2022 6:15:00 PM 8.32 46.976 0.134 7.61 2.11 14.2
10/29/2022 6:30:00 PM 8.27 46.886 0.134 7.57 2.11 14.14
10/29/2022 6:45:00 PM 8.22 46.796 0.134 7.54 2.1 14.1
10/29/2022 7:00:00 PM 8.19 46.742 0.134 7.51 2.13 14.06
10/29/2022 7:15:00 PM 8.17 46.706 0.134 7.5 2.09 14.04
10/29/2022 7:30:00 PM 8.15 46.67 0.133 7.49 2.1 14.02
10/29/2022 7:45:00 PM 8.15 46.67 0.133 7.47 2.13 14
10/29/2022 8:00:00 PM 8.14 46.652 0.133 7.46 2.12 13.98
10/29/2022 8:15:00 PM 8.13 46.634 0.133 7.45 2.12 13.98
10/29/2022 8:30:00 PM 8.12 46.616 0.133 7.44 2.07 13.96
10/29/2022 8:45:00 PM 8.12 46.616 0.133 7.44 2.08 13.96
10/29/2022 9:00:00 PM 8.1 46.58 0.133 7.42 2.16 13.95
10/29/2022 9:15:00 PM 8.09 46.562 0.133 7.43 2.17 13.95
10/29/2022 9:30:00 PM 8.07 46.526 0.133 7.42 2.14 13.95
10/29/2022 9:45:00 PM 8.04 46.472 0.133 7.42 2.14 13.95
10/29/2022 10:00:00 PM 8.02 46.436 0.133 7.41 2.13 13.95
10/29/2022 10:15:00 PM 7.98 46.364 0.133 7.42 2.11 13.96
10/29/2022 10:30:00 PM 7.95 46.31 0.133 7.41 2.16 13.97
10/29/2022 10:45:00 PM 7.91 46.238 0.133 7.4 2.12 13.98
10/29/2022 11:00:00 PM 7.86 46.148 0.134 7.4 2.07 13.99
10/29/2022 11:15:00 PM 7.81 46.058 0.134 7.4 2.04 14.01
10/29/2022 11:30:00 PM 7.76 45.968 0.134 7.39 2.03 14.02
10/29/2022 11:45:00 PM 7.71 45.878 0.134 7.4 2.14 14.03
10/30/2022 12:00:00 AM 7.65 45.77 0.134 7.4 2.13 14.06
10/30/2022 12:15:00 AM 7.59 45.662 0.134 7.39 2.13 14.07
10/30/2022 12:30:00 AM 7.53 45.554 0.134 7.39 2.13 14.08
10/30/2022 12:45:00 AM 7.47 45.446 0.134 7.39 2.06 14.1
10/30/2022 1:00:00 AM 7.42 45.356 0.134 7.38 2.13 14.13
10/30/2022 1:15:00 AM 7.35 45.23 0.134 7.38 2.09 14.14
10/30/2022 1:30:00 AM 7.29 45.122 0.134 7.38 2.12 14.16
10/30/2022 1:45:00 AM 7.23 45.014 0.134 7.38 2.09 14.18
10/30/2022 2:00:00 AM 7.17 44.906 0.134 7.37 2.08 14.2
10/30/2022 2:15:00 AM 7.1 44.78 0.135 7.37 2.08 14.22
10/30/2022 2:30:00 AM 7.04 44.672 0.135 7.37 2.07 14.25
10/30/2022 2:45:00 AM 6.96 44.528 0.135 7.38 2.11 14.28
10/30/2022 3:00:00 AM 6.9 44.42 0.135 7.37 2.11 14.31
10/30/2022 3:15:00 AM 6.83 44.294 0.135 7.36 2.09 14.33
10/30/2022 3:30:00 AM 6.76 44.168 0.135 7.36 2.1 14.35
10/30/2022 3:45:00 AM 6.69 44.042 0.135 7.35 2.16 14.38
10/30/2022 4:00:00 AM 6.62 43.916 0.135 7.34 2.19 14.41
10/30/2022 4:30:00 AM 6.48 43.664 0.135 7.34 2.12 14.45
10/30/2022 4:45:00 AM 6.41 43.538 0.135 7.34 2.1 14.47
10/30/2022 5:00:00 AM 6.35 43.43 0.135 7.34 2.16 14.51
10/30/2022 5:15:00 AM 6.28 43.304 0.135 7.34 2.4 14.52
10/30/2022 5:30:00 AM 6.22 43.196 0.135 7.34 2.11 14.56
10/30/2022 5:45:00 AM 6.15 43.07 0.135 7.34 2.13 14.58
10/30/2022 6:00:00 AM 6.09 42.962 0.135 7.34 2.17 14.6
10/30/2022 6:15:00 AM 6.03 42.854 0.135 7.33 2.14 14.63
10/30/2022 6:30:00 AM 5.97 42.746 0.136 7.35 2.11 14.65
10/30/2022 6:45:00 AM 5.9 42.62 0.136 7.34 2.1 14.68
10/30/2022 7:00:00 AM 5.84 42.512 0.136 7.34 2.14 14.7
10/30/2022 7:15:00 AM 5.78 42.404 0.136 7.34 2.11 14.72
10/30/2022 7:30:00 AM 5.72 42.296 0.136 7.35 2.17 14.76
10/30/2022 7:45:00 AM 5.67 42.206 0.136 7.35 2.09 14.81
10/30/2022 8:00:00 AM 5.62 42.116 0.136 7.36 2.13 14.88
10/30/2022 8:15:00 AM 5.57 42.026 0.136 7.37 2.11 14.97
10/30/2022 8:30:00 AM 5.54 41.972 0.136 7.39 2.05 15.08
10/30/2022 8:45:00 AM 5.51 41.918 0.135 7.41 2.1 15.19
10/30/2022 9:00:00 AM 5.49 41.882 0.135 7.44 2.05 15.29
10/30/2022 9:15:00 AM 5.49 41.882 0.135 7.47 2.02 15.42
10/30/2022 9:30:00 AM 5.52 41.936 0.135 7.51 2.08 15.55
10/30/2022 9:45:00 AM 5.57 42.026 0.135 7.55 2.07 15.65
10/30/2022 10:00:00 AM 5.64 42.152 0.135 7.59 2.04 15.74
10/30/2022 10:15:00 AM 5.68 42.224 0.135 7.63 2.07 15.79
10/30/2022 10:30:00 AM 5.79 42.422 0.135 7.67 2.07 15.84
10/30/2022 10:45:00 AM 5.86 42.548 0.134 7.71 2.1 15.88
10/30/2022 11:00:00 AM 5.96 42.728 0.134 7.75 2 15.91
10/30/2022 11:15:00 AM 6.09 42.962 0.134 7.79 2.04 15.91
10/30/2022 11:30:00 AM 6.21 43.178 0.134 7.82 2 15.89
10/30/2022 11:45:00 AM 6.35 43.43 0.134 7.86 2.04 15.87
10/30/2022 12:00:00 PM 6.49 43.682 0.134 7.9 2.02 15.84
10/30/2022 12:15:00 PM 6.63 43.934 0.134 7.92 2.05 15.8
10/30/2022 12:30:00 PM 6.78 44.204 0.134 7.96 2 15.76
10/30/2022 12:45:00 PM 6.94 44.492 0.134 8 1.99 15.72
10/30/2022 1:00:00 PM 7.1 44.78 0.133 8.04 2.03 15.67
10/30/2022 1:15:00 PM 7.25 45.05 0.133 8.07 2 15.62
10/30/2022 1:30:00 PM 7.41 45.338 0.133 8.1 2.02 15.57
10/30/2022 1:45:00 PM 7.56 45.608 0.133 8.13 1.97 15.52
10/30/2022 2:00:00 PM 7.71 45.878 0.133 8.16 2.01 15.47
10/30/2022 2:15:00 PM 7.84 46.112 0.133 8.19 2.02 15.41
10/30/2022 2:30:00 PM 7.94 46.292 0.133 8.22 1.96 15.38
10/30/2022 2:45:00 PM 8.03 46.454 0.133 8.25 2.04 15.33
10/30/2022 3:00:00 PM 8.09 46.562 0.133 8.26 2.65 15.29
10/30/2022 3:15:00 PM 8.16 46.688 0.133 8.28 2.01 15.26
10/30/2022 3:30:00 PM 8.23 46.814 0.133 8.3 2.08 15.22
10/30/2022 3:45:00 PM 8.26 46.868 0.133 8.3 2.04 15.16
10/30/2022 4:00:00 PM 8.25 46.85 0.133 8.29 2.05 15.1
10/30/2022 4:15:00 PM 8.22 46.796 0.133 8.26 2 15.06
10/30/2022 4:30:00 PM 8.2 46.76 0.133 8.23 2.04 15
10/30/2022 4:45:00 PM 8.15 46.67 0.133 8.15 2.01 14.9
10/30/2022 5:00:00 PM 8.08 46.544 0.133 8.08 2.05 14.88
10/30/2022 5:15:00 PM 8.01 46.418 0.133 8.01 2.05 14.81
10/30/2022 5:30:00 PM 7.96 46.328 0.133 7.94 2.04 14.73
10/30/2022 5:45:00 PM 7.9 46.22 0.134 7.85 2.1 14.62
10/30/2022 6:00:00 PM 7.84 46.112 0.134 7.79 2.06 14.51
10/30/2022 6:15:00 PM 7.78 46.004 0.134 7.72 2.06 14.42
10/30/2022 6:30:00 PM 7.72 45.896 0.134 7.65 2.03 14.32
10/30/2022 6:45:00 PM 7.66 45.788 0.134 7.61 2.03 14.27
10/30/2022 7:00:00 PM 7.61 45.698 0.134 7.57 2.03 14.23
10/30/2022 7:15:00 PM 7.58 45.644 0.134 7.55 2.04 14.19
10/30/2022 7:30:00 PM 7.57 45.626 0.134 7.52 2.13 14.16
10/30/2022 7:45:00 PM 7.56 45.608 0.134 7.5 2.04 14.15
10/30/2022 8:00:00 PM 7.56 45.608 0.134 7.48 2.08 14.13
10/30/2022 8:15:00 PM 7.57 45.626 0.134 7.48 2.05 14.11
10/30/2022 8:30:00 PM 7.58 45.644 0.134 7.47 2.07 14.08
10/30/2022 8:45:00 PM 7.58 45.644 0.134 7.46 2.09 14.07
10/30/2022 9:00:00 PM 7.6 45.68 0.134 7.45 2.01 14.05
10/30/2022 9:15:00 PM 7.61 45.698 0.134 7.45 2.04 14.03
10/30/2022 9:30:00 PM 7.63 45.734 0.134 7.44 2.03 14.04
10/30/2022 9:45:00 PM 7.63 45.734 0.134 7.43 2.05 14.03
10/30/2022 10:00:00 PM 7.63 45.734 0.134 7.43 2.08 14.01
10/30/2022 10:15:00 PM 7.63 45.734 0.134 7.43 2.08 14.01
10/30/2022 10:30:00 PM 7.62 45.716 0.134 7.4 2.07 14
10/30/2022 10:45:00 PM 7.61 45.698 0.134 7.42 2.11 14.01
10/30/2022 11:00:00 PM 7.59 45.662 0.134 7.41 2.08 14.01
10/30/2022 11:15:00 PM 7.56 45.608 0.134 7.4 2.09 14.02
10/30/2022 11:30:00 PM 7.53 45.554 0.134 7.41 2.07 14.01
10/30/2022 11:45:00 PM 7.5 45.5 0.134 7.4 2.09 14.03
10/31/2022 12:00:00 AM 7.47 45.446 0.134 7.4 2.09 14.02
10/31/2022 12:15:00 AM 7.44 45.392 0.134 7.4 2.05 14.04
10/31/2022 12:30:00 AM 7.41 45.338 0.134 7.4 2.15 14.04
10/31/2022 12:45:00 AM 7.39 45.302 0.134 7.39 2.03 14.05
10/31/2022 1:00:00 AM 7.38 45.284 0.134 7.39 2.03 14.05
10/31/2022 1:15:00 AM 7.35 45.23 0.134 7.39 2.26 14.06
10/31/2022 1:30:00 AM 7.32 45.176 0.134 7.39 2.04 14.07
10/31/2022 1:45:00 AM 7.29 45.122 0.134 7.39 2.01 14.08
10/31/2022 2:00:00 AM 7.26 45.068 0.134 7.38 2.06 14.09
10/31/2022 2:15:00 AM 7.21 44.978 0.134 7.39 2.02 14.1
10/31/2022 2:30:00 AM 7.16 44.888 0.134 7.38 2.07 14.12
10/31/2022 2:45:00 AM 7.11 44.798 0.135 7.39 1.99 14.13
10/31/2022 3:00:00 AM 7.06 44.708 0.135 7.38 1.98 14.15
10/31/2022 3:15:00 AM 7.01 44.618 0.135 7.38 2.06 14.17
10/31/2022 3:30:00 AM 6.96 44.528 0.135 7.38 2.08 14.19
10/31/2022 3:45:00 AM 6.91 44.438 0.135 7.37 2.12 14.2
10/31/2022 4:00:00 AM 6.86 44.348 0.135 7.37 2.08 14.22
10/31/2022 4:15:00 AM 6.82 44.276 0.135 7.37 2.05 14.23
10/31/2022 4:30:00 AM 6.77 44.186 0.135 7.37 2 14.25
10/31/2022 4:45:00 AM 6.73 44.114 0.135 7.37 2.08 14.26
10/31/2022 5:00:00 AM 6.69 44.042 0.135 7.37 2.08 14.28
10/31/2022 5:15:00 AM 6.65 43.97 0.135 7.37 2.03 14.29
10/31/2022 5:30:00 AM 6.63 43.934 0.135 7.37 2.07 14.31
10/31/2022 5:45:00 AM 6.6 43.88 0.136 7.37 2.08 14.32
10/31/2022 6:00:00 AM 6.57 43.826 0.136 7.37 2.05 14.33
10/31/2022 6:15:00 AM 6.53 43.754 0.136 7.37 2.07 14.34
10/31/2022 6:30:00 AM 6.51 43.718 0.136 7.37 2.12 14.35
10/31/2022 6:45:00 AM 6.48 43.664 0.136 7.37 2.06 14.37
10/31/2022 7:00:00 AM 6.45 43.61 0.136 7.37 2.08 14.38
10/31/2022 7:15:00 AM 6.41 43.538 0.136 7.37 2.05 14.39
10/31/2022 7:30:00 AM 6.38 43.484 0.136 7.37 2.05 14.41
10/31/2022 7:45:00 AM 6.35 43.43 0.136 7.38 2.08 14.46
10/31/2022 8:00:00 AM 6.33 43.394 0.136 7.39 2.04 14.53
10/31/2022 8:15:00 AM 6.32 43.376 0.136 7.4 2.03 14.59
10/31/2022 8:30:00 AM 6.3 43.34 0.136 7.42 2.01 14.68
10/31/2022 8:45:00 AM 6.3 43.34 0.136 7.42 2.09 14.75
10/31/2022 9:00:00 AM 6.3 43.34 0.136 7.45 2 14.86
10/31/2022 9:15:00 AM 6.31 43.358 0.135 7.48 1.99 14.96
10/31/2022 9:30:00 AM 6.36 43.448 0.135 7.51 2 15.09
10/31/2022 9:45:00 AM 6.46 43.628 0.135 7.56 2 15.25
10/31/2022 10:00:00 AM 6.56 43.808 0.135 7.62 2 15.37
10/31/2022 10:15:00 AM 6.71 44.078 0.135 7.7 1.99 15.49
10/31/2022 10:30:00 AM 6.86 44.348 0.134 7.78 2 15.56
10/31/2022 10:45:00 AM 6.99 44.582 0.134 7.85 2 15.58
10/31/2022 11:00:00 AM 7.18 44.924 0.134 7.94 1.98 15.63
10/31/2022 11:15:00 AM 7.32 45.176 0.134 8.01 1.97 15.66
10/31/2022 11:30:00 AM 7.45 45.41 0.134 8.1 1.96 15.65
10/31/2022 11:45:00 AM 7.54 45.572 0.133 8.16 1.96 15.59
10/31/2022 12:00:00 PM 7.6 45.68 0.133 8.2 1.97 15.58
10/31/2022 12:15:00 PM 7.71 45.878 0.133 8.26 1.99 15.59
10/31/2022 12:30:00 PM 7.78 46.004 0.133 8.3 2.01 15.52
10/31/2022 12:45:00 PM 7.89 46.202 0.133 8.35 2.01 15.52
10/31/2022 1:00:00 PM 7.97 46.346 0.133 8.38 2.04 15.46
10/31/2022 1:15:00 PM 8.05 46.49 0.133 8.42 1.98 15.41
10/31/2022 1:30:00 PM 8.13 46.634 0.132 8.41 2.05 15.36
10/31/2022 1:45:00 PM 8.22 46.796 0.132 8.44 1.98 15.31
10/31/2022 2:00:00 PM 8.32 46.976 0.132 8.47 1.98 15.29
10/31/2022 2:15:00 PM 8.42 47.156 0.132 8.5 2 15.26
10/31/2022 2:30:00 PM 8.47 47.246 0.132 8.48 2.01 15.12
10/31/2022 2:45:00 PM 8.54 47.372 0.132 8.5 1.99 15.1
10/31/2022 3:00:00 PM 8.6 47.48 0.132 8.5 1.98 15.11
10/31/2022 3:15:00 PM 8.64 47.552 0.132 8.48 2 15.02
10/31/2022 3:30:00 PM 8.7 47.66 0.132 8.5 2.03 15.01
10/31/2022 3:45:00 PM 8.74 47.732 0.132 8.51 1.99 15.01
10/31/2022 4:00:00 PM 8.78 47.804 0.132 8.51 1.99 14.93
10/31/2022 4:15:00 PM 8.81 47.858 0.132 8.5 2.01 14.89
10/31/2022 4:30:00 PM 8.85 47.93 0.132 8.46 1.97 14.83
10/31/2022 4:45:00 PM 8.87 47.966 0.132 8.41 1.99 14.7
10/31/2022 5:00:00 PM 8.89 48.002 0.133 8.33 2.01 14.55
10/31/2022 5:15:00 PM 8.91 48.038 0.133 8.22 1.98 14.44
10/31/2022 5:30:00 PM 8.92 48.056 0.133 8.08 1.97 14.28
10/31/2022 5:45:00 PM 8.92 48.056 0.133 7.94 2.01 14.15
10/31/2022 6:00:00 PM 8.93 48.074 0.134 7.85 2 14.02
10/31/2022 6:15:00 PM 8.94 48.092 0.134 7.76 2.01 13.9
10/31/2022 6:30:00 PM 8.94 48.092 0.134 7.7 2.04 13.82
10/31/2022 6:45:00 PM 8.95 48.11 0.134 7.65 2.06 13.76
10/31/2022 7:00:00 PM 8.96 48.128 0.134 7.61 2.05 13.7
10/31/2022 7:15:00 PM 8.97 48.146 0.134 7.59 2.08 13.67
10/31/2022 7:30:00 PM 8.98 48.164 0.135 7.57 2.06 13.64
10/31/2022 7:45:00 PM 9.01 48.218 0.135 7.55 1.99 13.6
10/31/2022 8:00:00 PM 9.03 48.254 0.135 7.54 2.02 13.59
10/31/2022 8:15:00 PM 9.05 48.29 0.135 7.52 2.05 13.56
10/31/2022 8:30:00 PM 9.08 48.344 0.135 7.51 1.95 13.54
10/31/2022 8:45:00 PM 9.1 48.38 0.135 7.5 2.07 13.52
10/31/2022 9:00:00 PM 9.11 48.398 0.135 7.49 2.01 13.51
10/31/2022 9:15:00 PM 9.13 48.434 0.135 7.48 2 13.49
10/31/2022 9:30:00 PM 9.15 48.47 0.135 7.47 1.99 13.48
10/31/2022 9:45:00 PM 9.16 48.488 0.135 7.47 1.99 13.47
10/31/2022 10:00:00 PM 9.18 48.524 0.135 7.46 1.94 13.46
10/31/2022 10:15:00 PM 9.19 48.542 0.135 7.45 2.02 13.44
10/31/2022 10:30:00 PM 9.21 48.578 0.135 7.45 2.03 13.44
10/31/2022 10:45:00 PM 9.22 48.596 0.135 7.44 2.02 13.43
10/31/2022 11:00:00 PM 9.24 48.632 0.135 7.43 1.99 13.41
10/31/2022 11:15:00 PM 9.26 48.668 0.135 7.43 2.03 13.4
10/31/2022 11:30:00 PM 9.28 48.704 0.135 7.42 2.02 13.4
10/31/2022 11:45:00 PM 9.3 48.74 0.135 7.42 2.02 13.39
11/1/2022 12:00:00 AM 9.32 48.776 0.135 7.42 2.07 13.37
11/1/2022 12:15:00 AM 9.34 48.812 0.135 7.4 2.04 13.36
11/1/2022 12:30:00 AM 9.36 48.848 0.135 7.41 2.06 13.36
11/1/2022 12:45:00 AM 9.37 48.866 0.134 7.4 2.04 13.35
11/1/2022 1:00:00 AM 9.38 48.884 0.134 7.39 2.02 13.34
11/1/2022 1:15:00 AM 9.4 48.92 0.134 7.39 1.99 13.33
11/1/2022 1:30:00 AM 9.41 48.938 0.134 7.38 1.98 13.33
11/1/2022 1:45:00 AM 9.42 48.956 0.135 7.38 2.01 13.33
11/1/2022 2:00:00 AM 9.44 48.992 0.135 7.38 2 13.32
11/1/2022 2:15:00 AM 9.46 49.028 0.134 7.37 2 13.32
11/1/2022 2:30:00 AM 9.48 49.064 0.134 7.37 2.04 13.3
11/1/2022 2:45:00 AM 9.5 49.1 0.134 7.37 2.03 13.29
11/1/2022 3:00:00 AM 9.51 49.118 0.134 7.37 1.99 13.29
11/1/2022 3:15:00 AM 9.52 49.136 0.134 7.36 1.95 13.28
11/1/2022 3:30:00 AM 9.53 49.154 0.134 7.36 2.01 13.28
11/1/2022 3:45:00 AM 9.54 49.172 0.134 7.35 1.99 13.27
11/1/2022 4:00:00 AM 9.55 49.19 0.134 7.35 1.94 13.27
11/1/2022 4:15:00 AM 9.56 49.208 0.134 7.34 1.97 13.27
11/1/2022 4:30:00 AM 9.58 49.244 0.134 7.35 1.96 13.27
11/1/2022 4:45:00 AM 9.59 49.262 0.135 7.33 1.99 13.26
11/1/2022 5:00:00 AM 9.6 49.28 0.135 7.34 2.02 13.25
11/1/2022 5:15:00 AM 9.61 49.298 0.135 7.34 1.98 13.25
11/1/2022 5:30:00 AM 9.61 49.298 0.135 7.34 2.03 13.25
11/1/2022 5:45:00 AM 9.62 49.316 0.135 7.33 2.06 13.24
11/1/2022 6:00:00 AM 9.61 49.298 0.135 7.33 2.07 13.24
11/1/2022 6:15:00 AM 9.6 49.28 0.135 7.33 2.08 13.24
11/1/2022 6:30:00 AM 9.6 49.28 0.136 7.33 2 13.24
11/1/2022 6:45:00 AM 9.6 49.28 0.136 7.32 2.04 13.25
11/1/2022 7:00:00 AM 9.61 49.298 0.136 7.32 2.06 13.25
11/1/2022 7:15:00 AM 9.61 49.298 0.136 7.32 2 13.26
11/1/2022 7:30:00 AM 9.62 49.316 0.136 7.32 1.98 13.26
11/1/2022 7:45:00 AM 9.62 49.316 0.136 7.32 1.98 13.26
11/1/2022 8:00:00 AM 9.63 49.334 0.136 7.33 2.05 13.3
11/1/2022 8:15:00 AM 9.64 49.352 0.136 7.34 2.01 13.42
11/1/2022 8:30:00 AM 9.67 49.406 0.136 7.37 1.94 13.58
11/1/2022 8:45:00 AM 9.71 49.478 0.136 7.41 1.99 13.78
11/1/2022 9:00:00 AM 9.77 49.586 0.136 7.46 1.96 13.95
11/1/2022 9:15:00 AM 9.85 49.73 0.136 7.54 1.96 14.19
11/1/2022 9:30:00 AM 9.95 49.91 0.135 7.64 1.93 14.39
11/1/2022 9:45:00 AM 10 50 0.135 7.71 1.93 14.38
11/1/2022 10:00:00 AM 10.05 50.09 0.135 7.77 1.92 14.39
11/1/2022 10:15:00 AM 10.09 50.162 0.135 7.81 1.96 14.39
11/1/2022 10:30:00 AM 10.15 50.27 0.135 7.87 2 14.46
11/1/2022 10:45:00 AM 10.19 50.342 0.135 7.92 1.93 14.45
11/1/2022 11:00:00 AM 10.22 50.396 0.135 7.93 1.89 14.36
11/1/2022 11:15:00 AM 10.24 50.432 0.135 7.9 1.93 14.23
11/1/2022 11:30:00 AM 10.26 50.468 0.135 7.86 1.95 14.12
11/1/2022 11:45:00 AM 10.29 50.522 0.134 7.83 1.94 14.09
11/1/2022 12:00:00 PM 10.33 50.594 0.134 7.83 1.92 14.13
11/1/2022 12:15:00 PM 10.37 50.666 0.133 7.84 1.99 14.1
11/1/2022 12:30:00 PM 10.42 50.756 0.132 7.83 1.96 14.08
11/1/2022 12:45:00 PM 10.48 50.864 0.132 7.89 1.93 14.2
11/1/2022 1:00:00 PM 10.52 50.936 0.132 7.9 2.04 14.2
11/1/2022 1:15:00 PM 10.56 51.008 0.131 7.92 1.99 14.14
11/1/2022 1:30:00 PM 10.58 51.044 0.131 7.89 2.01 13.99
11/1/2022 1:45:00 PM 10.59 51.062 0.131 7.84 2.02 13.95
11/1/2022 2:00:00 PM 10.6 51.08 0.131 7.83 2.05 13.94
11/1/2022 2:15:00 PM 10.63 51.134 0.132 7.86 2.04 14.07
11/1/2022 2:30:00 PM 10.68 51.224 0.132 7.93 2.46 14.22
11/1/2022 2:45:00 PM 10.73 51.314 0.132 8 2.15 14.27
11/1/2022 3:00:00 PM 10.81 51.458 0.132 8.11 2.14 14.39
11/1/2022 3:15:00 PM 10.85 51.53 0.132 8.17 2.13 14.35
11/1/2022 3:30:00 PM 10.9 51.62 0.132 8.2 2.08 14.29
11/1/2022 3:45:00 PM 10.94 51.692 0.132 8.25 2.15 14.31
11/1/2022 4:00:00 PM 10.96 51.728 0.132 8.24 2.17 14.2
11/1/2022 4:15:00 PM 10.96 51.728 0.132 8.22 2.11 14.12
11/1/2022 4:30:00 PM 10.96 51.728 0.132 8.18 2.22 14.05
11/1/2022 4:45:00 PM 10.98 51.764 0.132 8.14 2.19 13.98
11/1/2022 5:00:00 PM 10.95 51.71 0.132 8.03 2.21 13.86
11/1/2022 5:15:00 PM 10.92 51.656 0.132 7.92 2.18 13.73
11/1/2022 5:30:00 PM 10.89 51.602 0.133 7.83 2.29 13.63
11/1/2022 5:45:00 PM 10.87 51.566 0.133 7.74 2.28 13.51
11/1/2022 6:00:00 PM 10.84 51.512 0.134 7.66 2.27 13.4
11/1/2022 6:15:00 PM 10.82 51.476 0.134 7.6 2.33 13.3
11/1/2022 6:30:00 PM 10.81 51.458 0.135 7.54 2.47 13.22
11/1/2022 6:45:00 PM 10.78 51.404 0.136 7.51 2.39 13.15
11/1/2022 7:00:00 PM 10.77 51.386 0.136 7.48 2.43 13.11
11/1/2022 7:15:00 PM 10.76 51.368 0.137 7.45 2.56 13.07
11/1/2022 7:30:00 PM 10.74 51.332 0.137 7.44 2.56 13.05
11/1/2022 7:45:00 PM 10.73 51.314 0.137 7.42 2.42 13.04
11/1/2022 8:00:00 PM 10.71 51.278 0.137 7.41 2.37 13.03
11/1/2022 8:15:00 PM 10.71 51.278 0.137 7.39 2.33 13.02
11/1/2022 8:30:00 PM 10.7 51.26 0.137 7.38 2.27 13.01
11/1/2022 8:45:00 PM 10.69 51.242 0.137 7.37 2.24 13
11/1/2022 9:00:00 PM 10.67 51.206 0.137 7.36 2.25 13
11/1/2022 9:15:00 PM 10.66 51.188 0.137 7.35 2.25 13
11/1/2022 9:30:00 PM 10.65 51.17 0.137 7.34 2.2 13
11/1/2022 9:45:00 PM 10.64 51.152 0.137 7.34 2.23 13.01
11/1/2022 10:00:00 PM 10.62 51.116 0.137 7.34 2.17 13.01
11/1/2022 10:15:00 PM 10.61 51.098 0.137 7.33 2.14 13.02
11/1/2022 10:30:00 PM 10.59 51.062 0.137 7.32 2.18 13.02
11/1/2022 10:45:00 PM 10.56 51.008 0.137 7.32 2.19 13.03
11/1/2022 11:00:00 PM 10.53 50.954 0.137 7.31 2.21 13.03
11/1/2022 11:15:00 PM 10.48 50.864 0.137 7.3 2.13 13.04
11/1/2022 11:30:00 PM 10.45 50.81 0.137 7.31 2.2 13.06
11/1/2022 11:45:00 PM 10.41 50.738 0.137 7.31 2.14 13.06
11/2/2022 12:00:00 AM 10.36 50.648 0.137 7.31 2.16 13.08
11/2/2022 12:15:00 AM 10.3 50.54 0.137 7.31 2.22 13.09
11/2/2022 12:30:00 AM 10.26 50.468 0.137 7.3 2.29 13.1
11/2/2022 12:45:00 AM 10.22 50.396 0.137 7.31 2.2 13.11
11/2/2022 1:00:00 AM 10.19 50.342 0.137 7.31 2.4 13.12
11/2/2022 1:15:00 AM 10.17 50.306 0.137 7.3 2.19 13.13
11/2/2022 1:30:00 AM 10.14 50.252 0.137 7.31 2.24 13.15
11/2/2022 1:45:00 AM 10.1 50.18 0.136 7.3 2.16 13.16
11/2/2022 2:00:00 AM 10.06 50.108 0.136 7.3 2.19 13.18
11/2/2022 2:15:00 AM 10.03 50.054 0.136 7.31 2.24 13.19
11/2/2022 2:30:00 AM 10 50 0.136 7.3 2.18 13.2
11/2/2022 2:45:00 AM 9.95 49.91 0.136 7.31 2.26 13.22
11/2/2022 3:00:00 AM 9.9 49.82 0.136 7.31 2.19 13.23
11/2/2022 3:15:00 AM 9.85 49.73 0.136 7.3 2.14 13.25
11/2/2022 3:30:00 AM 9.8 49.64 0.136 7.31 2.14 13.27
11/2/2022 3:45:00 AM 9.75 49.55 0.136 7.3 2.2 13.3
11/2/2022 4:00:00 AM 9.69 49.442 0.136 7.3 2.22 13.31
11/2/2022 4:15:00 AM 9.65 49.37 0.136 7.31 2.37 13.33
11/2/2022 4:30:00 AM 9.61 49.298 0.136 7.3 2.19 13.35
11/2/2022 4:45:00 AM 9.58 49.244 0.136 7.31 2.21 13.36
11/2/2022 5:00:00 AM 9.57 49.226 0.137 7.31 2.18 13.37
11/2/2022 5:15:00 AM 9.55 49.19 0.137 7.31 2.3 13.38
11/2/2022 5:30:00 AM 9.52 49.136 0.137 7.32 2.24 13.39
11/2/2022 5:45:00 AM 9.49 49.082 0.137 7.33 2.24 13.41
11/2/2022 6:00:00 AM 9.46 49.028 0.137 7.32 2.4 13.42
11/2/2022 6:15:00 AM 9.45 49.01 0.137 7.32 2.32 13.43
11/2/2022 6:30:00 AM 9.43 48.974 0.138 7.32 2.36 13.44
11/2/2022 6:45:00 AM 9.4 48.92 0.138 7.32 2.25 13.44
11/2/2022 7:00:00 AM 9.37 48.866 0.138 7.33 2.32 13.45
11/2/2022 7:15:00 AM 9.35 48.83 0.138 7.32 2.32 13.47
11/2/2022 7:30:00 AM 9.33 48.794 0.138 7.33 2.32 13.48
11/2/2022 7:45:00 AM 9.32 48.776 0.139 7.33 2.29 13.51
11/2/2022 8:00:00 AM 9.3 48.74 0.139 7.33 2.26 13.57
11/2/2022 8:15:00 AM 9.28 48.704 0.138 7.35 2.21 13.66
11/2/2022 8:30:00 AM 9.27 48.686 0.138 7.37 2.28 13.78
11/2/2022 8:45:00 AM 9.25 48.65 0.138 7.39 2.26 13.91
11/2/2022 9:00:00 AM 9.25 48.65 0.138 7.41 2.31 14.04
11/2/2022 9:15:00 AM 9.26 48.668 0.138 7.46 2.27 14.15
11/2/2022 9:30:00 AM 9.28 48.704 0.138 7.5 2.22 14.29
11/2/2022 9:45:00 AM 9.31 48.758 0.138 7.56 2.3 14.42
11/2/2022 10:00:00 AM 9.37 48.866 0.137 7.61 2.2 14.54
11/2/2022 10:15:00 AM 9.44 48.992 0.137 7.68 2.26 14.64
11/2/2022 10:30:00 AM 9.48 49.064 0.137 7.74 2.32 14.68
11/2/2022 10:45:00 AM 9.56 49.208 0.137 7.81 2.26 14.77
11/2/2022 11:00:00 AM 9.71 49.478 0.136 7.89 2.2 14.87
11/2/2022 11:15:00 AM 9.8 49.64 0.136 7.97 2.31 14.91
11/2/2022 11:30:00 AM 9.86 49.748 0.136 8.04 2.24 14.93
11/2/2022 11:45:00 AM 9.92 49.856 0.135 8.09 2.2 14.95
11/2/2022 12:00:00 PM 10 50 0.135 8.17 2.28 14.97
11/2/2022 12:15:00 PM 10.1 50.18 0.135 8.24 2.26 14.97
11/2/2022 12:30:00 PM 10.21 50.378 0.134 8.3 2.29 14.94
11/2/2022 12:45:00 PM 10.33 50.594 0.134 8.35 2.22 14.91
11/2/2022 1:00:00 PM 10.41 50.738 0.134 8.38 2.22 14.86
11/2/2022 1:15:00 PM 10.48 50.864 0.133 8.4 2.27 14.82
11/2/2022 1:30:00 PM 10.6 51.08 0.133 8.43 2.3 14.79
11/2/2022 1:45:00 PM 10.74 51.332 0.133 8.47 2.23 14.75
11/2/2022 2:00:00 PM 10.84 51.512 0.133 8.5 2.36 14.7
11/2/2022 2:15:00 PM 10.93 51.674 0.132 8.52 2.28 14.64
11/2/2022 2:30:00 PM 11.01 51.818 0.132 8.53 2.25 14.56
11/2/2022 2:45:00 PM 11.08 51.944 0.132 8.53 2.29 14.49
11/2/2022 3:00:00 PM 11.14 52.052 0.132 8.52 2.4 14.43
11/2/2022 3:15:00 PM 11.17 52.106 0.132 8.52 2.33 14.37
11/2/2022 3:30:00 PM 11.18 52.124 0.132 8.49 2.27 14.32
11/2/2022 3:45:00 PM 11.16 52.088 0.132 8.46 2.33 14.26
11/2/2022 4:00:00 PM 11.13 52.034 0.132 8.42 2.31 14.2
11/2/2022 4:15:00 PM 11.09 51.962 0.132 8.37 2.35 14.13
11/2/2022 4:30:00 PM 11.05 51.89 0.132 8.27 2.33 14.07
11/2/2022 4:45:00 PM 11 51.8 0.132 8.19 2.3 13.99
11/2/2022 5:00:00 PM 10.95 51.71 0.132 8.07 2.28 13.89
11/2/2022 5:15:00 PM 10.9 51.62 0.133 7.95 2.27 13.8
11/2/2022 5:30:00 PM 10.85 51.53 0.133 7.85 2.36 13.68
11/2/2022 5:45:00 PM 10.81 51.458 0.133 7.75 2.29 13.57
11/2/2022 6:00:00 PM 10.77 51.386 0.133 7.68 2.33 13.47
11/2/2022 6:15:00 PM 10.74 51.332 0.133 7.61 2.33 13.38
11/2/2022 6:30:00 PM 10.72 51.296 0.134 7.56 2.54 13.3
11/2/2022 6:45:00 PM 10.7 51.26 0.134 7.52 2.29 13.24
11/2/2022 7:00:00 PM 10.7 51.26 0.134 7.49 2.32 13.2
11/2/2022 7:15:00 PM 10.7 51.26 0.134 7.47 2.3 13.17
11/2/2022 7:30:00 PM 10.7 51.26 0.134 7.45 2.26 13.14
11/2/2022 7:45:00 PM 10.71 51.278 0.134 7.44 2.27 13.13
11/2/2022 8:00:00 PM 10.7 51.26 0.134 7.41 2.22 13.1
11/2/2022 8:15:00 PM 10.7 51.26 0.134 7.41 2.25 13.09
11/2/2022 8:30:00 PM 10.69 51.242 0.135 7.41 2.25 13.09
11/2/2022 8:45:00 PM 10.68 51.224 0.135 7.4 2.29 13.07
11/2/2022 9:00:00 PM 10.66 51.188 0.135 7.39 2.31 13.07
11/2/2022 9:15:00 PM 10.63 51.134 0.135 7.37 2.21 13.07
11/2/2022 9:30:00 PM 10.6 51.08 0.135 7.38 2.34 13.08
11/2/2022 9:45:00 PM 10.56 51.008 0.135 7.38 2.32 13.08
11/2/2022 10:00:00 PM 10.52 50.936 0.135 7.36 2.21 13.09
11/2/2022 10:15:00 PM 10.48 50.864 0.135 7.36 2.2 13.1
11/2/2022 10:30:00 PM 10.43 50.774 0.136 7.36 2.23 13.11
11/2/2022 10:45:00 PM 10.37 50.666 0.136 7.35 2.22 13.13
11/2/2022 11:00:00 PM 10.32 50.576 0.136 7.36 2.22 13.14
11/2/2022 11:15:00 PM 10.26 50.468 0.136 7.34 2.26 13.15
11/2/2022 11:30:00 PM 10.2 50.36 0.136 7.33 2.24 13.17
11/2/2022 11:45:00 PM 10.14 50.252 0.136 7.33 2.25 13.19
11/3/2022 12:00:00 AM 10.08 50.144 0.136 7.34 2.2 13.21
11/3/2022 12:15:00 AM 10.01 50.018 0.136 7.34 2.54 13.23
11/3/2022 12:30:00 AM 9.95 49.91 0.136 7.34 2.44 13.24
11/3/2022 12:45:00 AM 9.88 49.784 0.136 7.33 2.26 13.26
11/3/2022 1:00:00 AM 9.82 49.676 0.136 7.33 2.2 13.29
11/3/2022 1:15:00 AM 9.75 49.55 0.136 7.33 2.24 13.31
11/3/2022 1:30:00 AM 9.68 49.424 0.136 7.33 2.24 13.34
11/3/2022 1:45:00 AM 9.61 49.298 0.136 7.33 2.19 13.36
11/3/2022 2:00:00 AM 9.54 49.172 0.136 7.32 2.15 13.39
11/3/2022 2:15:00 AM 9.48 49.064 0.136 7.32 2.13 13.41
11/3/2022 2:30:00 AM 9.42 48.956 0.136 7.33 2.17 13.43
11/3/2022 2:45:00 AM 9.34 48.812 0.136 7.33 2.12 13.45
11/3/2022 3:00:00 AM 9.27 48.686 0.136 7.33 2.12 13.47
11/3/2022 3:15:00 AM 9.21 48.578 0.136 7.32 2.18 13.5
11/3/2022 3:30:00 AM 9.15 48.47 0.136 7.32 2.12 13.52
11/3/2022 3:45:00 AM 9.11 48.398 0.136 7.3 2.13 13.54
11/3/2022 4:00:00 AM 9.09 48.362 0.136 7.31 2.14 13.55
11/3/2022 4:15:00 AM 9.05 48.29 0.137 7.31 2.15 13.56
11/3/2022 4:30:00 AM 9.02 48.236 0.137 7.31 2.11 13.58
11/3/2022 4:45:00 AM 8.98 48.164 0.137 7.3 2.14 13.59
11/3/2022 5:00:00 AM 8.94 48.092 0.137 7.31 2.17 13.61
11/3/2022 5:15:00 AM 8.91 48.038 0.137 7.31 2.13 13.63
11/3/2022 5:30:00 AM 8.88 47.984 0.137 7.32 2.1 13.64
11/3/2022 5:45:00 AM 8.83 47.894 0.137 7.31 2.17 13.65
11/3/2022 6:00:00 AM 8.79 47.822 0.137 7.32 2.14 13.67
11/3/2022 6:15:00 AM 8.74 47.732 0.137 7.32 2.22 13.69
11/3/2022 6:30:00 AM 8.69 47.642 0.137 7.32 2.1 13.7
11/3/2022 6:45:00 AM 8.65 47.57 0.137 7.32 2.19 13.72
11/3/2022 7:00:00 AM 8.59 47.462 0.137 7.31 2.22 13.74
11/3/2022 7:15:00 AM 8.54 47.372 0.137 7.31 2.17 13.76
11/3/2022 7:30:00 AM 8.5 47.3 0.137 7.31 2.13 13.77
11/3/2022 7:45:00 AM 8.46 47.228 0.137 7.32 2.11 13.81
11/3/2022 8:00:00 AM 8.43 47.174 0.137 7.33 2.09 13.86
11/3/2022 8:15:00 AM 8.39 47.102 0.137 7.34 2.08 13.96
11/3/2022 8:30:00 AM 8.36 47.048 0.137 7.36 2.11 14.09
11/3/2022 8:45:00 AM 8.33 46.994 0.137 7.38 2.07 14.26
11/3/2022 9:00:00 AM 8.33 46.994 0.137 7.43 2.08 14.45
11/3/2022 9:15:00 AM 8.3 46.94 0.137 7.48 2.02 14.58
11/3/2022 9:30:00 AM 8.29 46.922 0.136 7.51 2.03 14.71
11/3/2022 9:45:00 AM 8.33 46.994 0.136 7.58 2.06 14.87
11/3/2022 10:00:00 AM 8.38 47.084 0.136 7.63 2.07 14.96
11/3/2022 10:15:00 AM 8.43 47.174 0.136 7.69 2.02 15.03
11/3/2022 10:30:00 AM 8.5 47.3 0.136 7.75 2.02 15.1
11/3/2022 10:45:00 AM 8.56 47.408 0.136 7.81 2.04 15.15
11/3/2022 11:00:00 AM 8.65 47.57 0.136 7.88 2.02 15.19
11/3/2022 11:15:00 AM 8.75 47.75 0.136 7.93 2.05 15.21
11/3/2022 11:30:00 AM 8.83 47.894 0.135 7.98 1.98 15.21
11/3/2022 11:45:00 AM 8.93 48.074 0.135 8.02 2.02 15.21
11/3/2022 12:00:00 PM 9.04 48.272 0.135 8.09 2 15.21
11/3/2022 12:15:00 PM 9.16 48.488 0.135 8.15 2 15.2
11/3/2022 12:30:00 PM 9.29 48.722 0.135 8.22 2.04 15.18
11/3/2022 12:45:00 PM 9.42 48.956 0.134 8.28 2 15.16
11/3/2022 1:00:00 PM 9.56 49.208 0.134 8.33 1.99 15.12
11/3/2022 1:15:00 PM 9.69 49.442 0.134 8.38 1.98 15.08
11/3/2022 1:30:00 PM 9.81 49.658 0.134 8.42 2.04 15.04
11/3/2022 1:45:00 PM 9.94 49.892 0.134 8.47 2.07 14.99
11/3/2022 2:00:00 PM 10.05 50.09 0.133 8.5 2.02 14.95
11/3/2022 2:15:00 PM 10.14 50.252 0.133 8.52 2.01 14.87
11/3/2022 2:30:00 PM 10.21 50.378 0.133 8.53 1.98 14.78
11/3/2022 2:45:00 PM 10.28 50.504 0.133 8.54 2.04 14.72
11/3/2022 3:00:00 PM 10.34 50.612 0.133 8.55 2.01 14.67
11/3/2022 3:15:00 PM 10.38 50.684 0.133 8.54 2.04 14.61
11/3/2022 3:30:00 PM 10.4 50.72 0.133 8.53 2.01 14.56
11/3/2022 3:45:00 PM 10.4 50.72 0.133 8.51 2 14.49
11/3/2022 4:00:00 PM 10.37 50.666 0.133 8.47 2 14.43
11/3/2022 4:15:00 PM 10.33 50.594 0.133 8.42 2.05 14.37
11/3/2022 4:30:00 PM 10.29 50.522 0.133 8.35 2 14.31
11/3/2022 4:45:00 PM 10.22 50.396 0.133 8.27 2.01 14.25
11/3/2022 5:00:00 PM 10.15 50.27 0.133 8.16 1.98 14.16
11/3/2022 5:15:00 PM 10.08 50.144 0.133 8.03 2.01 14.07
11/3/2022 5:30:00 PM 10 50 0.134 7.91 2.03 13.97
11/3/2022 5:45:00 PM 9.92 49.856 0.134 7.81 1.98 13.88
11/3/2022 6:00:00 PM 9.86 49.748 0.134 7.73 2 13.78
11/3/2022 6:15:00 PM 9.8 49.64 0.134 7.66 2.06 13.7
11/3/2022 6:30:00 PM 9.74 49.532 0.134 7.6 2.04 13.63
11/3/2022 6:45:00 PM 9.69 49.442 0.134 7.56 2.05 13.58
11/3/2022 7:00:00 PM 9.65 49.37 0.134 7.53 2.03 13.54
11/3/2022 7:15:00 PM 9.61 49.298 0.134 7.5 2.06 13.52
11/3/2022 7:30:00 PM 9.59 49.262 0.134 7.48 2.01 13.49
11/3/2022 7:45:00 PM 9.57 49.226 0.134 7.46 2.04 13.49
11/3/2022 8:00:00 PM 9.56 49.208 0.134 7.45 2.02 13.47
11/3/2022 8:15:00 PM 9.55 49.19 0.134 7.43 2.04 13.46
11/3/2022 8:30:00 PM 9.55 49.19 0.134 7.43 2.04 13.45
11/3/2022 8:45:00 PM 9.54 49.172 0.134 7.42 2.02 13.43
11/3/2022 9:00:00 PM 9.53 49.154 0.134 7.42 2.04 13.44
11/3/2022 9:15:00 PM 9.51 49.118 0.133 7.41 2.05 13.42
11/3/2022 9:30:00 PM 9.5 49.1 0.133 7.4 2.01 13.43
11/3/2022 9:45:00 PM 9.48 49.064 0.133 7.4 2.03 13.42
11/3/2022 10:00:00 PM 9.45 49.01 0.133 7.39 2.02 13.43
11/3/2022 10:15:00 PM 9.43 48.974 0.134 7.38 2.01 13.43
11/3/2022 10:30:00 PM 9.4 48.92 0.134 7.38 2.04 13.44
11/3/2022 10:45:00 PM 9.37 48.866 0.134 7.38 2.04 13.45
11/3/2022 11:00:00 PM 9.33 48.794 0.134 7.38 2.05 13.45
11/3/2022 11:15:00 PM 9.3 48.74 0.134 7.38 2.01 13.46
11/3/2022 11:30:00 PM 9.26 48.668 0.134 7.37 2.05 13.48
11/3/2022 11:45:00 PM 9.21 48.578 0.134 7.37 2.01 13.49
11/4/2022 12:00:00 AM 9.17 48.506 0.134 7.36 2.02 13.5
11/4/2022 12:15:00 AM 9.13 48.434 0.134 7.36 2.01 13.52
11/4/2022 12:30:00 AM 9.08 48.344 0.134 7.37 2.02 13.53
11/4/2022 12:45:00 AM 9.03 48.254 0.134 7.36 1.97 13.54
11/4/2022 1:00:00 AM 8.99 48.182 0.134 7.36 1.97 13.56
11/4/2022 1:15:00 AM 8.94 48.092 0.135 7.33 2.02 13.57
11/4/2022 1:30:00 AM 8.89 48.002 0.135 7.36 2.06 13.58
11/4/2022 1:45:00 AM 8.84 47.912 0.135 7.34 2 13.6
11/4/2022 2:00:00 AM 8.79 47.822 0.135 7.35 2.05 13.62
11/4/2022 2:15:00 AM 8.74 47.732 0.135 7.36 2 13.63
11/4/2022 2:30:00 AM 8.69 47.642 0.135 7.36 2 13.65
11/4/2022 2:45:00 AM 8.63 47.534 0.135 7.35 2.01 13.67
11/4/2022 3:00:00 AM 8.58 47.444 0.135 7.35 1.99 13.69
11/4/2022 3:15:00 AM 8.53 47.354 0.136 7.35 2.01 13.71
11/4/2022 3:30:00 AM 8.47 47.246 0.136 7.35 2.02 13.73
11/4/2022 3:45:00 AM 8.41 47.138 0.136 7.35 2.05 13.75
11/4/2022 4:00:00 AM 8.36 47.048 0.136 7.34 2.03 13.77
11/4/2022 4:15:00 AM 8.3 46.94 0.136 7.34 1.98 13.8
11/4/2022 4:30:00 AM 8.25 46.85 0.136 7.33 1.95 13.81
11/4/2022 4:45:00 AM 8.19 46.742 0.136 7.34 2 13.83
11/4/2022 5:00:00 AM 8.14 46.652 0.136 7.34 2.05 13.85
11/4/2022 5:15:00 AM 8.09 46.562 0.137 7.34 2.01 13.87
11/4/2022 5:30:00 AM 8.04 46.472 0.137 7.33 2.01 13.88
11/4/2022 5:45:00 AM 7.99 46.382 0.137 7.34 1.99 13.9
11/4/2022 6:00:00 AM 7.94 46.292 0.137 7.33 1.98 13.92
11/4/2022 6:15:00 AM 7.89 46.202 0.137 7.34 1.98 13.94
11/4/2022 6:30:00 AM 7.85 46.13 0.137 7.33 2 13.96
11/4/2022 6:45:00 AM 7.8 46.04 0.137 7.34 1.99 13.97
11/4/2022 7:00:00 AM 7.76 45.968 0.137 7.33 3.42 13.99
11/4/2022 7:15:00 AM 7.71 45.878 0.137 7.33 1.96 14
11/4/2022 7:30:00 AM 7.67 45.806 0.137 7.29 1.99 14.03
11/4/2022 7:45:00 AM 7.63 45.734 0.137 7.33 2.34 14.07
11/4/2022 8:00:00 AM 7.6 45.68 0.137 7.33 1.97 14.17
11/4/2022 8:15:00 AM 7.58 45.644 0.137 7.36 1.96 14.31
11/4/2022 8:30:00 AM 7.58 45.644 0.137 7.4 1.93 14.47
11/4/2022 8:45:00 AM 7.58 45.644 0.137 7.45 1.92 14.64
11/4/2022 9:00:00 AM 7.59 45.662 0.136 7.5 1.92 14.77
11/4/2022 9:15:00 AM 7.61 45.698 0.136 7.55 1.93 14.94
11/4/2022 9:30:00 AM 7.64 45.752 0.136 7.6 1.92 15.06
11/4/2022 9:45:00 AM 7.69 45.842 0.136 7.66 1.99 15.18
11/4/2022 10:00:00 AM 7.76 45.968 0.136 7.73 1.97 15.26
11/4/2022 10:15:00 AM 7.85 46.13 0.136 7.8 1.97 15.35
11/4/2022 10:30:00 AM 7.94 46.292 0.135 7.86 1.94 15.4
11/4/2022 10:45:00 AM 8.04 46.472 0.135 7.96 1.92 15.45
11/4/2022 11:00:00 AM 8.19 46.742 0.135 8.05 1.98 15.47
11/4/2022 11:15:00 AM 8.34 47.012 0.135 8.13 1.93 15.47
11/4/2022 11:30:00 AM 8.49 47.282 0.135 8.19 1.96 15.46
11/4/2022 11:45:00 AM 8.63 47.534 0.135 8.27 1.94 15.43
11/4/2022 12:00:00 PM 8.8 47.84 0.135 8.33 1.87 15.42
11/4/2022 12:15:00 PM 8.95 48.11 0.134 8.4 1.91 15.41
11/4/2022 12:30:00 PM 9.1 48.38 0.134 8.45 1.94 15.39
11/4/2022 12:45:00 PM 9.27 48.686 0.134 8.52 1.94 15.36
11/4/2022 1:00:00 PM 9.43 48.974 0.134 8.59 1.91 15.35
11/4/2022 1:15:00 PM 9.6 49.28 0.134 8.64 1.94 15.31
11/4/2022 1:30:00 PM 9.77 49.586 0.134 8.68 1.94 15.25
11/4/2022 1:45:00 PM 9.94 49.892 0.133 8.73 1.88 15.2
11/4/2022 2:00:00 PM 10.09 50.162 0.133 8.76 1.89 15.13
11/4/2022 2:15:00 PM 10.21 50.378 0.133 8.78 1.96 15.01
11/4/2022 2:30:00 PM 10.35 50.63 0.133 8.8 1.92 14.96
11/4/2022 2:45:00 PM 10.46 50.828 0.133 8.82 1.95 14.87
11/4/2022 3:00:00 PM 10.56 51.008 0.133 8.83 1.92 14.78
11/4/2022 3:15:00 PM 10.63 51.134 0.133 8.84 1.93 14.71
11/4/2022 3:30:00 PM 10.68 51.224 0.133 8.84 1.93 14.65
11/4/2022 3:45:00 PM 10.7 51.26 0.133 8.82 1.93 14.58
11/4/2022 4:00:00 PM 10.7 51.26 0.133 8.8 1.95 14.52
11/4/2022 4:15:00 PM 10.68 51.224 0.133 8.78 1.99 14.47
11/4/2022 4:30:00 PM 10.67 51.206 0.133 8.74 1.91 14.42
11/4/2022 4:45:00 PM 10.63 51.134 0.133 8.7 1.97 14.34
11/4/2022 5:00:00 PM 10.58 51.044 0.134 8.61 1.87 14.23
11/4/2022 5:15:00 PM 10.53 50.954 0.134 8.5 1.9 14.1
11/4/2022 5:30:00 PM 10.47 50.846 0.134 8.34 1.89 13.97
11/4/2022 5:45:00 PM 10.42 50.756 0.134 8.16 1.87 13.83
11/4/2022 6:00:00 PM 10.35 50.63 0.135 7.98 1.87 13.69
11/4/2022 6:15:00 PM 10.29 50.522 0.135 7.85 1.88 13.58
11/4/2022 6:30:00 PM 10.23 50.414 0.135 7.75 1.95 13.49
11/4/2022 6:45:00 PM 10.18 50.324 0.135 7.7 1.93 13.43
11/4/2022 7:00:00 PM 10.15 50.27 0.136 7.64 1.86 13.39
11/4/2022 7:15:00 PM 10.13 50.234 0.136 7.6 1.97 13.36
11/4/2022 7:30:00 PM 10.12 50.216 0.136 7.57 1.9 13.32
11/4/2022 7:45:00 PM 10.12 50.216 0.136 7.55 1.91 13.3
11/4/2022 8:00:00 PM 10.12 50.216 0.136 7.53 1.91 13.28
11/4/2022 8:15:00 PM 10.13 50.234 0.136 7.52 1.93 13.25
11/4/2022 8:30:00 PM 10.14 50.252 0.136 7.5 1.9 13.23
11/4/2022 8:45:00 PM 10.15 50.27 0.136 7.48 1.9 13.22
11/4/2022 9:00:00 PM 10.16 50.288 0.136 7.47 1.92 13.2
11/4/2022 9:15:00 PM 10.17 50.306 0.136 7.45 1.91 13.19
11/4/2022 9:30:00 PM 10.18 50.324 0.136 7.45 1.92 13.18
11/4/2022 9:45:00 PM 10.18 50.324 0.136 7.44 1.89 13.17
11/4/2022 10:00:00 PM 10.2 50.36 0.136 7.44 1.91 13.15
11/4/2022 10:15:00 PM 10.2 50.36 0.136 7.42 1.92 13.15
11/4/2022 10:30:00 PM 10.21 50.378 0.136 7.43 1.89 13.14
11/4/2022 10:45:00 PM 10.21 50.378 0.136 7.42 1.86 13.14
11/4/2022 11:00:00 PM 10.21 50.378 0.136 7.42 1.84 13.13
11/4/2022 11:15:00 PM 10.2 50.36 0.136 7.41 1.92 13.13
11/4/2022 11:30:00 PM 10.21 50.378 0.136 7.41 1.97 13.13
11/4/2022 11:45:00 PM 10.22 50.396 0.136 7.4 1.88 13.12
11/5/2022 12:00:00 AM 10.22 50.396 0.136 7.4 1.88 13.12
11/5/2022 12:15:00 AM 10.23 50.414 0.136 7.4 1.9 13.1
11/5/2022 12:30:00 AM 10.25 50.45 0.136 7.4 1.9 13.11
11/5/2022 12:45:00 AM 10.26 50.468 0.136 7.4 1.85 13.11
11/5/2022 1:00:00 AM 10.26 50.468 0.136 7.39 1.86 13.1
11/5/2022 1:15:00 AM 10.26 50.468 0.136 7.39 1.93 13.1
11/5/2022 1:30:00 AM 10.26 50.468 0.136 7.39 1.89 13.1
11/5/2022 1:45:00 AM 10.28 50.504 0.136 7.39 1.88 13.1
11/5/2022 2:00:00 AM 10.31 50.558 0.136 7.39 1.87 13.09
11/5/2022 2:15:00 AM 10.33 50.594 0.136 7.39 1.9 13.08
11/5/2022 2:30:00 AM 10.36 50.648 0.136 7.39 1.88 13.07
11/5/2022 2:45:00 AM 10.38 50.684 0.136 7.39 1.86 13.06
11/5/2022 3:00:00 AM 10.41 50.738 0.136 7.39 1.87 13.06
11/5/2022 3:15:00 AM 10.45 50.81 0.136 7.39 1.88 13.05
11/5/2022 3:30:00 AM 10.47 50.846 0.136 7.39 1.91 13.04
11/5/2022 3:45:00 AM 10.49 50.882 0.136 7.39 1.91 13.04
11/5/2022 4:00:00 AM 10.49 50.882 0.137 7.38 1.95 13.03
11/5/2022 4:15:00 AM 10.5 50.9 0.137 7.36 1.93 13.03
11/5/2022 4:30:00 AM 10.5 50.9 0.137 7.38 1.92 13.03
11/5/2022 4:45:00 AM 10.51 50.918 0.137 7.38 1.95 13.03
11/5/2022 5:00:00 AM 10.53 50.954 0.137 7.38 1.91 13.03
11/5/2022 5:15:00 AM 10.54 50.972 0.137 7.38 1.88 13.02
11/5/2022 5:30:00 AM 10.55 50.99 0.137 7.38 1.93 13.02
11/5/2022 5:45:00 AM 10.57 51.026 0.138 7.38 1.95 13.01
11/5/2022 6:00:00 AM 10.58 51.044 0.138 7.38 1.87 13.01
11/5/2022 6:15:00 AM 10.61 51.098 0.138 7.38 1.9 13
11/5/2022 6:30:00 AM 10.63 51.134 0.138 7.38 1.91 13
11/5/2022 6:45:00 AM 10.65 51.17 0.138 7.38 1.83 12.99
11/5/2022 7:00:00 AM 10.67 51.206 0.138 7.38 1.94 12.99
11/5/2022 7:15:00 AM 10.7 51.26 0.138 7.38 1.94 12.98
11/5/2022 7:30:00 AM 10.72 51.296 0.138 7.38 1.92 12.97
11/5/2022 7:45:00 AM 10.74 51.332 0.138 7.38 1.88 12.97
11/5/2022 8:00:00 AM 10.75 51.35 0.138 7.39 1.89 12.99
11/5/2022 8:15:00 AM 10.75 51.35 0.138 7.38 1.87 13.03
11/5/2022 8:30:00 AM 10.77 51.386 0.138 7.4 1.86 13.1
11/5/2022 8:45:00 AM 10.8 51.44 0.138 7.42 1.82 13.2
11/5/2022 9:00:00 AM 10.82 51.476 0.138 7.43 1.84 13.25
11/5/2022 9:15:00 AM 10.87 51.566 0.138 7.47 1.86 13.41
11/5/2022 9:30:00 AM 10.93 51.674 0.138 7.51 1.83 13.58
11/5/2022 9:45:00 AM 11.04 51.872 0.138 7.6 1.84 13.86
11/5/2022 10:00:00 AM 11.16 52.088 0.138 7.7 1.82 14
11/5/2022 10:15:00 AM 11.27 52.286 0.137 7.82 1.79 14.18
11/5/2022 10:30:00 AM 11.37 52.466 0.137 7.91 1.87 14.17
11/5/2022 10:45:00 AM 11.45 52.61 0.137 7.97 1.82 14.17
11/5/2022 11:00:00 AM 11.52 52.736 0.137 8.04 1.81 14.2
11/5/2022 11:15:00 AM 11.63 52.934 0.136 8.16 1.87 14.37
11/5/2022 11:30:00 AM 11.74 53.132 0.136 8.28 1.81 14.41
11/5/2022 11:45:00 AM 11.85 53.33 0.136 8.38 1.9 14.44
11/5/2022 12:00:00 PM 11.96 53.528 0.136 8.49 1.83 14.47
11/5/2022 12:15:00 PM 12.08 53.744 0.135 8.6 1.85 14.53
11/5/2022 12:30:00 PM 12.23 54.014 0.135 8.69 1.86 14.57
11/5/2022 12:45:00 PM 12.36 54.248 0.135 8.77 1.84 14.53
11/5/2022 1:00:00 PM 12.48 54.464 0.134 8.83 1.86 14.49
11/5/2022 1:15:00 PM 12.61 54.698 0.134 8.89 1.83 14.42
11/5/2022 1:30:00 PM 12.78 55.004 0.134 8.92 1.89 14.37
11/5/2022 1:45:00 PM 12.94 55.292 0.134 8.95 1.87 14.27
11/5/2022 2:00:00 PM 13.07 55.526 0.133 8.99 1.85 14.25
11/5/2022 2:15:00 PM 13.18 55.724 0.133 9.02 1.87 14.21
11/5/2022 2:30:00 PM 13.29 55.922 0.133 9.05 1.84 14.14
11/5/2022 2:45:00 PM 13.38 56.084 0.133 9.06 1.88 14.1
11/5/2022 3:00:00 PM 13.42 56.156 0.133 9.07 1.83 13.94
11/5/2022 3:15:00 PM 13.46 56.228 0.133 9.04 1.83 13.86
11/5/2022 3:30:00 PM 13.48 56.264 0.133 9.04 1.77 13.77
11/5/2022 3:45:00 PM 13.51 56.318 0.133 9.04 1.92 13.75
11/5/2022 4:00:00 PM 13.53 56.354 0.133 9.02 1.83 13.63
11/5/2022 4:15:00 PM 13.54 56.372 0.133 8.98 1.91 13.39
11/5/2022 4:30:00 PM 13.55 56.39 0.133 8.88 1.84 13.18
11/5/2022 4:45:00 PM 13.56 56.408 0.133 8.79 1.84 13.14
11/5/2022 5:00:00 PM 13.57 56.426 0.133 8.7 1.95 13.05
11/5/2022 5:15:00 PM 13.58 56.444 0.134 8.6 2.07 12.94
11/5/2022 5:30:00 PM 13.57 56.426 0.134 8.47 1.99 12.79
11/5/2022 5:45:00 PM 13.56 56.408 0.134 8.29 1.9 12.66
11/5/2022 6:00:00 PM 13.53 56.354 0.135 8.13 1.99 12.55
11/5/2022 6:15:00 PM 13.5 56.3 0.135 7.97 1.94 12.44
11/5/2022 6:30:00 PM 13.48 56.264 0.135 7.85 1.91 12.36
11/5/2022 6:45:00 PM 13.45 56.21 0.136 7.77 1.9 12.3
11/5/2022 7:00:00 PM 13.43 56.174 0.136 7.71 1.94 12.25
11/5/2022 7:15:00 PM 13.4 56.12 0.136 7.65 1.91 12.22
11/5/2022 7:30:00 PM 13.39 56.102 0.137 7.63 1.88 12.19
11/5/2022 7:45:00 PM 13.38 56.084 0.137 7.6 1.98 12.18
11/5/2022 8:00:00 PM 13.37 56.066 0.137 7.57 1.92 12.16
11/5/2022 8:15:00 PM 13.36 56.048 0.137 7.56 1.84 12.15
11/5/2022 8:30:00 PM 13.36 56.048 0.137 7.54 1.87 12.14
11/5/2022 8:45:00 PM 13.36 56.048 0.137 7.52 1.86 12.14
11/5/2022 9:00:00 PM 13.36 56.048 0.138 7.51 1.91 12.13
11/5/2022 9:15:00 PM 13.36 56.048 0.138 7.5 1.83 12.12
11/5/2022 9:30:00 PM 13.38 56.084 0.138 7.49 1.86 12.11
11/5/2022 9:45:00 PM 13.39 56.102 0.138 7.48 1.87 12.1
11/5/2022 10:00:00 PM 13.39 56.102 0.138 7.47 1.88 12.09
11/5/2022 10:15:00 PM 13.41 56.138 0.138 7.47 1.86 12.08
11/5/2022 10:30:00 PM 13.42 56.156 0.138 7.46 1.81 12.08
11/5/2022 10:45:00 PM 13.44 56.192 0.138 7.45 1.86 12.07
11/5/2022 11:00:00 PM 13.44 56.192 0.138 7.45 1.86 12.07
11/5/2022 11:15:00 PM 13.45 56.21 0.138 7.45 1.94 12.07
11/5/2022 11:30:00 PM 13.46 56.228 0.138 7.44 1.88 12.06
11/5/2022 11:45:00 PM 13.47 56.246 0.138 7.44 1.93 12.05
11/6/2022 12:00:00 AM 13.48 56.264 0.138 7.43 1.84 12.05
11/6/2022 12:15:00 AM 13.49 56.282 0.138 7.44 1.89 12.06
11/6/2022 12:30:00 AM 13.51 56.318 0.138 7.43 1.91 12.05
11/6/2022 12:45:00 AM 13.53 56.354 0.138 7.42 1.83 12.04
11/6/2022 1:00:00 AM 13.56 56.408 0.138 7.42 1.81 12.03
11/6/2022 1:15:00 AM 13.58 56.444 0.137 7.42 1.92 12.02
11/6/2022 1:30:00 AM 13.61 56.498 0.137 7.42 1.86 12.01
11/6/2022 1:45:00 AM 13.64 56.552 0.137 7.42 1.83 12.01
11/6/2022 2:00:00 AM 13.65 56.57 0.137 7.41 1.86 12.01
11/6/2022 2:15:00 AM 13.66 56.588 0.137 7.42 1.87 12
11/6/2022 2:30:00 AM 13.67 56.606 0.137 7.41 1.93 11.99
11/6/2022 2:45:00 AM 13.68 56.624 0.137 7.4 1.86 11.99
11/6/2022 3:00:00 AM 13.7 56.66 0.137 7.4 1.89 11.98
11/6/2022 3:15:00 AM 13.71 56.678 0.137 7.39 1.89 11.98
11/6/2022 3:30:00 AM 13.73 56.714 0.137 7.4 1.92 11.97
11/6/2022 3:45:00 AM 13.74 56.732 0.137 7.4 1.86 11.97
11/6/2022 4:00:00 AM 13.76 56.768 0.137 7.4 1.85 11.97
11/6/2022 4:30:00 AM 13.86 56.948 0.138 7.39 1.87 11.94
11/6/2022 4:45:00 AM 13.87 56.966 0.138 7.39 1.93 11.95
11/6/2022 5:00:00 AM 13.88 56.984 0.138 7.4 1.93 11.95
11/6/2022 5:15:00 AM 13.89 57.002 0.138 7.38 1.89 11.95
11/6/2022 5:30:00 AM 13.9 57.02 0.139 7.39 1.9 11.95
11/6/2022 5:45:00 AM 13.9 57.02 0.139 7.39 1.89 11.94
11/6/2022 6:00:00 AM 13.9 57.02 0.139 7.4 1.94 11.95
11/6/2022 6:15:00 AM 13.9 57.02 0.139 7.4 1.87 11.94
11/6/2022 6:30:00 AM 13.89 57.002 0.139 7.39 1.84 11.95
11/6/2022 6:45:00 AM 13.89 57.002 0.139 7.4 1.85 11.98
11/6/2022 7:00:00 AM 13.9 57.02 0.139 7.41 1.81 12.02
11/6/2022 7:15:00 AM 13.92 57.056 0.139 7.43 1.86 12.1
11/6/2022 7:30:00 AM 13.94 57.092 0.139 7.45 1.87 12.14
11/6/2022 7:45:00 AM 13.97 57.146 0.139 7.46 1.87 12.19
11/6/2022 8:00:00 AM 13.99 57.182 0.14 7.47 1.82 12.24
11/6/2022 8:15:00 AM 14.02 57.236 0.139 7.49 1.8 12.37
11/6/2022 8:30:00 AM 14.06 57.308 0.139 7.54 1.73 12.56
11/6/2022 8:45:00 AM 14.1 57.38 0.139 7.59 1.82 12.63
11/6/2022 9:00:00 AM 14.14 57.452 0.139 7.64 1.83 12.71
11/6/2022 9:15:00 AM 14.17 57.506 0.139 7.66 1.89 12.76
11/6/2022 9:30:00 AM 14.22 57.596 0.139 7.73 1.93 12.91
11/6/2022 9:45:00 AM 14.25 57.65 0.139 7.75 1.88 12.88
11/6/2022 10:00:00 AM 14.28 57.704 0.139 7.78 1.81 12.83
11/6/2022 10:15:00 AM 14.33 57.794 0.139 7.83 1.84 12.99
11/6/2022 10:30:00 AM 14.39 57.902 0.139 7.91 1.83 13.17
11/6/2022 10:45:00 AM 14.48 58.064 0.138 8.09 1.86 13.38
11/6/2022 11:00:00 AM 14.56 58.208 0.138 8.2 1.84 13.39
11/6/2022 11:15:00 AM 14.62 58.316 0.138 8.27 1.87 13.32
11/6/2022 11:30:00 AM 14.68 58.424 0.138 8.38 1.83 13.42
11/6/2022 11:45:00 AM 14.77 58.586 0.137 8.5 1.84 13.6
11/6/2022 12:00:00 PM 14.88 58.784 0.137 8.62 1.84 13.7
11/6/2022 12:15:00 PM 14.98 58.964 0.137 8.72 1.8 13.69
11/6/2022 12:30:00 PM 15.07 59.126 0.137 8.77 1.8 13.58
11/6/2022 12:45:00 PM 15.21 59.378 0.136 8.85 1.85 13.71
11/6/2022 1:00:00 PM 15.28 59.504 0.136 8.89 1.8 13.58
11/6/2022 1:15:00 PM 15.4 59.72 0.136 8.93 1.8 13.49
11/6/2022 1:30:00 PM 15.49 59.882 0.136 8.96 1.79 13.43
11/6/2022 1:45:00 PM 15.56 60.008 0.136 8.98 1.82 13.38
11/6/2022 2:00:00 PM 15.57 60.026 0.135 8.96 1.83 13.23
11/6/2022 2:15:00 PM 15.61 60.098 0.135 8.95 1.93 13.17
11/6/2022 2:30:00 PM 15.62 60.116 0.135 8.93 1.82 13.04
11/6/2022 2:45:00 PM 15.64 60.152 0.135 8.91 1.9 12.99
11/6/2022 3:00:00 PM 15.65 60.17 0.135 8.87 1.82 12.9
11/6/2022 3:15:00 PM 15.64 60.152 0.135 8.81 1.83 12.72
11/6/2022 3:30:00 PM 15.64 60.152 0.135 8.76 1.95 12.67
11/6/2022 3:45:00 PM 15.64 60.152 0.135 8.66 1.82 12.52
11/6/2022 4:00:00 PM 15.65 60.17 0.135 8.61 1.89 12.47
11/6/2022 4:15:00 PM 15.66 60.188 0.135 8.49 1.86 12.31
11/6/2022 4:30:00 PM 15.67 60.206 0.136 8.36 1.91 12.16
11/6/2022 4:45:00 PM 15.66 60.188 0.136 8.19 1.88 12.02
11/6/2022 5:00:00 PM 15.64 60.152 0.136 8.03 1.98 11.9
11/6/2022 5:15:00 PM 15.62 60.116 0.137 7.9 1.86 11.79
11/6/2022 5:30:00 PM 15.6 60.08 0.137 7.79 1.94 11.72
11/6/2022 5:45:00 PM 15.58 60.044 0.137 7.72 1.86 11.65
11/6/2022 6:00:00 PM 15.57 60.026 0.138 7.66 2.01 11.63
11/6/2022 6:15:00 PM 15.57 60.026 0.138 7.62 1.86 11.59
11/6/2022 6:30:00 PM 15.56 60.008 0.138 7.59 1.83 11.57
11/6/2022 6:45:00 PM 15.54 59.972 0.139 7.57 1.84 11.55
11/6/2022 7:00:00 PM 15.54 59.972 0.139 7.55 1.89 11.55
11/6/2022 7:15:00 PM 15.52 59.936 0.139 7.53 1.84 11.53
11/6/2022 7:30:00 PM 15.5 59.9 0.139 7.51 1.87 11.53
11/6/2022 7:45:00 PM 15.48 59.864 0.14 7.51 1.87 11.53
11/6/2022 8:00:00 PM 15.46 59.828 0.14 7.49 1.86 11.52
11/6/2022 8:15:00 PM 15.44 59.792 0.14 7.48 1.85 11.52
11/6/2022 8:30:00 PM 15.41 59.738 0.14 7.48 1.88 11.53
11/6/2022 8:45:00 PM 15.39 59.702 0.14 7.46 1.82 11.52
11/6/2022 9:00:00 PM 15.37 59.666 0.14 7.46 1.86 11.53
11/6/2022 9:15:00 PM 15.37 59.666 0.14 7.45 1.85 11.52
11/6/2022 9:30:00 PM 15.35 59.63 0.14 7.44 1.83 11.53
11/6/2022 9:45:00 PM 15.34 59.612 0.141 7.44 1.88 11.53
11/6/2022 10:00:00 PM 15.33 59.594 0.141 7.44 1.81 11.53
11/6/2022 10:15:00 PM 15.34 59.612 0.141 7.43 1.83 11.53
11/6/2022 10:30:00 PM 15.33 59.594 0.141 7.44 1.89 11.53
11/6/2022 10:45:00 PM 15.32 59.576 0.141 7.43 1.84 11.53
11/6/2022 11:00:00 PM 15.3 59.54 0.14 7.42 1.89 11.55
11/6/2022 11:15:00 PM 15.29 59.522 0.14 7.41 1.9 11.54
11/6/2022 11:30:00 PM 15.27 59.486 0.14 7.41 1.92 11.55
11/6/2022 11:45:00 PM 15.26 59.468 0.14 7.4 1.93 11.56
11/7/2022 12:00:00 AM 15.24 59.432 0.14 7.41 1.85 11.55
11/7/2022 12:15:00 AM 15.22 59.396 0.14 7.4 1.88 11.56
11/7/2022 12:30:00 AM 15.19 59.342 0.14 7.4 1.88 11.57
11/7/2022 12:45:00 AM 15.16 59.288 0.14 7.4 1.88 11.58
11/7/2022 1:00:00 AM 15.14 59.252 0.14 7.39 1.83 11.59
11/7/2022 1:15:00 AM 15.12 59.216 0.139 7.39 1.96 11.6
11/7/2022 1:30:00 AM 15.12 59.216 0.139 7.38 1.85 11.59
11/7/2022 1:45:00 AM 15.13 59.234 0.139 7.38 1.89 11.59
11/7/2022 2:00:00 AM 15.12 59.216 0.139 7.38 1.82 11.59
11/7/2022 2:15:00 AM 15.12 59.216 0.139 7.38 1.87 11.59
11/7/2022 2:30:00 AM 15.11 59.198 0.139 7.36 1.85 11.59
11/7/2022 2:45:00 AM 15.09 59.162 0.139 7.35 1.87 11.6
11/7/2022 3:00:00 AM 15.07 59.126 0.139 7.35 2.01 11.6
11/7/2022 3:15:00 AM 15.04 59.072 0.139 7.35 1.87 11.61
11/7/2022 3:30:00 AM 15 59 0.139 7.34 1.89 11.62
11/7/2022 3:45:00 AM 14.94 58.892 0.14 7.34 1.89 11.63
11/7/2022 4:00:00 AM 14.89 58.802 0.14 7.33 1.88 11.64
11/7/2022 4:15:00 AM 14.84 58.712 0.14 7.33 1.91 11.67
11/7/2022 4:30:00 AM 14.79 58.622 0.14 7.33 1.9 11.67
11/7/2022 4:45:00 AM 14.75 58.55 0.14 7.33 1.91 11.68
11/7/2022 5:00:00 AM 14.72 58.496 0.14 7.33 1.97 11.71
11/7/2022 5:15:00 AM 14.67 58.406 0.14 7.33 1.9 11.71
11/7/2022 5:30:00 AM 14.63 58.334 0.14 7.33 1.93 11.72
11/7/2022 5:45:00 AM 14.57 58.226 0.141 7.33 1.9 11.74
11/7/2022 6:00:00 AM 14.52 58.136 0.141 7.34 2 11.75
11/7/2022 6:15:00 AM 14.46 58.028 0.141 7.34 1.93 11.78
11/7/2022 6:30:00 AM 14.39 57.902 0.141 7.34 1.97 11.8
11/7/2022 6:45:00 AM 14.32 57.776 0.141 7.35 1.92 11.83
11/7/2022 7:00:00 AM 14.25 57.65 0.141 7.36 1.89 11.89
11/7/2022 7:15:00 AM 14.18 57.524 0.141 7.37 1.88 11.97
11/7/2022 7:30:00 AM 14.12 57.416 0.141 7.38 1.9 12.07
11/7/2022 7:45:00 AM 14.06 57.308 0.141 7.41 1.84 12.16
11/7/2022 8:00:00 AM 14.01 57.218 0.141 7.44 1.86 12.3
11/7/2022 8:15:00 AM 13.97 57.146 0.141 7.47 1.86 12.42
11/7/2022 8:30:00 AM 13.95 57.11 0.141 7.51 1.81 12.57
11/7/2022 8:45:00 AM 13.96 57.128 0.141 7.58 1.84 12.76
11/7/2022 9:00:00 AM 13.99 57.182 0.141 7.66 1.81 12.92
11/7/2022 9:15:00 AM 14.01 57.218 0.141 7.76 1.88 13.08
11/7/2022 9:30:00 AM 14.04 57.272 0.141 7.86 1.83 13.21
11/7/2022 9:45:00 AM 14.11 57.398 0.14 7.99 1.97 13.34
11/7/2022 10:00:00 AM 14.16 57.488 0.14 8.1 1.78 13.43
11/7/2022 10:15:00 AM 14.22 57.596 0.14 8.21 1.85 13.5
11/7/2022 10:30:00 AM 14.27 57.686 0.14 8.31 1.86 13.53
11/7/2022 10:45:00 AM 14.32 57.776 0.14 8.4 1.85 13.55
11/7/2022 11:00:00 AM 14.39 57.902 0.14 8.48 1.82 13.58
11/7/2022 11:15:00 AM 14.45 58.01 0.14 8.55 1.85 13.58
11/7/2022 11:30:00 AM 14.53 58.154 0.14 8.6 1.86 13.59
11/7/2022 11:45:00 AM 14.59 58.262 0.139 8.66 1.81 13.59
11/7/2022 12:00:00 PM 14.65 58.37 0.139 8.7 1.87 13.57
11/7/2022 12:15:00 PM 14.72 58.496 0.139 8.73 1.89 13.54
11/7/2022 12:30:00 PM 14.78 58.604 0.139 8.75 1.84 13.5
11/7/2022 12:45:00 PM 14.84 58.712 0.138 8.78 1.85 13.46
11/7/2022 1:00:00 PM 14.88 58.784 0.138 8.82 1.81 13.41
11/7/2022 1:15:00 PM 14.92 58.856 0.138 8.83 1.84 13.36
11/7/2022 1:30:00 PM 14.94 58.892 0.138 8.84 1.91 13.31
11/7/2022 1:45:00 PM 14.94 58.892 0.138 8.85 1.86 13.27
11/7/2022 2:00:00 PM 14.92 58.856 0.138 8.84 1.87 13.22
11/7/2022 2:15:00 PM 14.9 58.82 0.138 8.83 1.82 13.18
11/7/2022 2:30:00 PM 14.88 58.784 0.138 8.84 1.88 13.12
11/7/2022 2:45:00 PM 14.84 58.712 0.138 8.82 1.88 13.07
11/7/2022 3:00:00 PM 14.78 58.604 0.138 8.78 1.84 13
11/7/2022 3:15:00 PM 14.71 58.478 0.138 8.73 1.88 12.93
11/7/2022 3:30:00 PM 14.63 58.334 0.138 8.67 1.83 12.86
11/7/2022 3:45:00 PM 14.53 58.154 0.138 8.58 1.88 12.8
11/7/2022 4:00:00 PM 14.42 57.956 0.139 8.46 1.95 12.71
11/7/2022 4:15:00 PM 14.32 57.776 0.139 8.31 1.91 12.64
11/7/2022 4:30:00 PM 14.19 57.542 0.14 8.13 1.85 12.55
11/7/2022 4:45:00 PM 14.06 57.308 0.14 7.98 1.87 12.46
11/7/2022 5:00:00 PM 13.93 57.074 0.14 7.86 1.91 12.38
11/7/2022 5:15:00 PM 13.8 56.84 0.141 7.78 1.92 12.32
11/7/2022 5:30:00 PM 13.68 56.624 0.141 7.71 1.87 12.28
11/7/2022 5:45:00 PM 13.56 56.408 0.141 7.64 1.96 12.26
11/7/2022 6:00:00 PM 13.44 56.192 0.142 7.56 2.08 12.26
11/7/2022 6:15:00 PM 13.34 56.012 0.142 7.53 2.03 12.26
11/7/2022 6:30:00 PM 13.22 55.796 0.142 7.51 1.98 12.27
11/7/2022 6:45:00 PM 13.11 55.598 0.142 7.49 1.93 12.29
11/7/2022 7:00:00 PM 13.01 55.418 0.142 7.47 1.92 12.31
11/7/2022 7:15:00 PM 12.91 55.238 0.142 7.47 1.91 12.33
11/7/2022 7:30:00 PM 12.82 55.076 0.142 7.46 1.95 12.35
11/7/2022 7:45:00 PM 12.74 54.932 0.142 7.44 1.97 12.37
11/7/2022 8:00:00 PM 12.67 54.806 0.141 7.44 2.03 12.39
11/7/2022 8:15:00 PM 12.6 54.68 0.141 7.45 1.96 12.41
11/7/2022 8:30:00 PM 12.53 54.554 0.141 7.45 1.97 12.43
11/7/2022 8:45:00 PM 12.46 54.428 0.141 7.42 1.94 12.44
11/7/2022 9:00:00 PM 12.4 54.32 0.141 7.42 1.93 12.46
11/7/2022 9:15:00 PM 12.34 54.212 0.141 7.42 1.9 12.48
11/7/2022 9:30:00 PM 12.28 54.104 0.141 7.42 1.96 12.5
11/7/2022 9:45:00 PM 12.2 53.96 0.141 7.43 1.91 12.52
11/7/2022 10:00:00 PM 12.13 53.834 0.141 7.41 1.91 12.54
11/7/2022 10:15:00 PM 12.06 53.708 0.141 7.43 1.95 12.57
11/7/2022 10:30:00 PM 11.98 53.564 0.14 7.41 1.91 12.59
11/7/2022 10:45:00 PM 11.9 53.42 0.14 7.4 1.95 12.61
11/7/2022 11:00:00 PM 11.85 53.33 0.14 7.41 1.96 12.64
11/7/2022 11:15:00 PM 11.79 53.222 0.14 7.41 1.89 12.65
11/7/2022 11:30:00 PM 11.71 53.078 0.14 7.42 1.97 12.68
11/7/2022 11:45:00 PM 11.64 52.952 0.14 7.4 1.91 12.7
11/8/2022 12:00:00 AM 11.57 52.826 0.14 7.39 1.92 12.73
11/8/2022 12:15:00 AM 11.49 52.682 0.14 7.39 1.94 12.76
11/8/2022 12:30:00 AM 11.42 52.556 0.14 7.4 1.92 12.78
11/8/2022 12:45:00 AM 11.35 52.43 0.14 7.4 1.89 12.8
11/8/2022 1:00:00 AM 11.28 52.304 0.14 7.39 1.92 12.83
11/8/2022 1:15:00 AM 11.21 52.178 0.14 7.4 1.91 12.85
11/8/2022 1:30:00 AM 11.14 52.052 0.14 7.4 1.91 12.87
11/8/2022 1:45:00 AM 11.07 51.926 0.14 7.4 1.95 12.89
11/8/2022 2:00:00 AM 11 51.8 0.14 7.4 1.91 12.92
11/8/2022 2:15:00 AM 10.93 51.674 0.14 7.4 1.93 12.94
11/8/2022 2:30:00 AM 10.85 51.53 0.14 7.4 1.91 12.97
11/8/2022 2:45:00 AM 10.78 51.404 0.14 7.39 1.91 12.99
11/8/2022 3:00:00 AM 10.7 51.26 0.141 7.4 1.93 13.02
11/8/2022 3:15:00 AM 10.62 51.116 0.141 7.38 1.92 13.04
11/8/2022 3:30:00 AM 10.54 50.972 0.141 7.38 1.95 13.07
11/8/2022 3:45:00 AM 10.46 50.828 0.141 7.39 1.92 13.1
11/8/2022 4:00:00 AM 10.38 50.684 0.141 7.39 1.93 13.12
11/8/2022 4:15:00 AM 10.3 50.54 0.141 7.38 1.88 13.16
11/8/2022 4:30:00 AM 10.22 50.396 0.141 7.38 1.91 13.18
11/8/2022 4:45:00 AM 10.14 50.252 0.141 7.39 1.92 13.21
11/8/2022 5:00:00 AM 10.05 50.09 0.142 7.4 1.98 13.24
11/8/2022 5:15:00 AM 9.97 49.946 0.142 7.4 1.94 13.28
11/8/2022 5:30:00 AM 9.89 49.802 0.142 7.38 1.95 13.3
11/8/2022 5:45:00 AM 9.81 49.658 0.142 7.39 1.96 13.33
11/8/2022 6:00:00 AM 9.72 49.496 0.142 7.39 1.98 13.36
11/8/2022 6:15:00 AM 9.64 49.352 0.142 7.39 2.02 13.39
11/8/2022 6:30:00 AM 9.56 49.208 0.142 7.4 1.96 13.42
11/8/2022 6:45:00 AM 9.48 49.064 0.142 7.41 2.02 13.47
11/8/2022 7:00:00 AM 9.41 48.938 0.142 7.41 1.97 13.54
11/8/2022 7:15:00 AM 9.36 48.848 0.142 7.42 1.95 13.63
11/8/2022 7:30:00 AM 9.32 48.776 0.142 7.45 1.92 13.75
11/8/2022 7:45:00 AM 9.28 48.704 0.142 7.48 1.88 13.87
11/8/2022 8:00:00 AM 9.26 48.668 0.142 7.51 1.88 14.03
11/8/2022 8:15:00 AM 9.23 48.614 0.142 7.56 1.83 14.17
11/8/2022 8:30:00 AM 9.23 48.614 0.142 7.61 1.85 14.32
11/8/2022 8:45:00 AM 9.24 48.632 0.142 7.68 1.82 14.5
11/8/2022 9:00:00 AM 9.26 48.668 0.142 7.75 1.85 14.64
11/8/2022 9:15:00 AM 9.27 48.686 0.141 7.83 1.87 14.76
11/8/2022 9:30:00 AM 9.3 48.74 0.141 7.92 1.88 14.85
11/8/2022 9:45:00 AM 9.37 48.866 0.141 8.01 1.82 14.94
11/8/2022 10:00:00 AM 9.42 48.956 0.141 8.09 1.87 15
11/8/2022 10:15:00 AM 9.49 49.082 0.141 8.18 1.88 15.04
11/8/2022 10:30:00 AM 9.57 49.226 0.14 8.26 1.83 15.07
11/8/2022 10:45:00 AM 9.65 49.37 0.14 8.34 1.83 15.09
11/8/2022 11:00:00 AM 9.73 49.514 0.14 8.41 1.87 15.1
11/8/2022 11:15:00 AM 9.82 49.676 0.14 8.47 1.86 15.1
11/8/2022 11:30:00 AM 9.91 49.838 0.14 8.52 1.85 15.1
11/8/2022 11:45:00 AM 9.99 49.982 0.14 8.59 1.85 15.09
11/8/2022 12:00:00 PM 10.07 50.126 0.139 8.63 1.89 15.06
11/8/2022 12:15:00 PM 10.15 50.27 0.139 8.66 1.82 15.02
11/8/2022 12:30:00 PM 10.23 50.414 0.139 8.69 1.8 14.98
11/8/2022 12:45:00 PM 10.32 50.576 0.139 8.72 1.81 14.94
11/8/2022 1:00:00 PM 10.39 50.702 0.139 8.73 1.85 14.89
11/8/2022 1:15:00 PM 10.44 50.792 0.138 8.77 1.86 14.83
11/8/2022 1:30:00 PM 10.49 50.882 0.138 8.79 1.91 14.79
11/8/2022 1:45:00 PM 10.53 50.954 0.138 8.8 1.85 14.75
11/8/2022 2:00:00 PM 10.56 51.008 0.138 8.81 1.82 14.7
11/8/2022 2:15:00 PM 10.54 50.972 0.138 8.81 1.89 14.65
11/8/2022 2:30:00 PM 10.53 50.954 0.138 8.8 1.89 14.61
11/8/2022 2:45:00 PM 10.51 50.918 0.138 8.78 1.86 14.55
11/8/2022 3:00:00 PM 10.48 50.864 0.138 8.76 1.84 14.49
11/8/2022 3:15:00 PM 10.41 50.738 0.138 8.73 1.83 14.44
11/8/2022 3:30:00 PM 10.35 50.63 0.138 8.67 1.85 14.38
11/8/2022 3:45:00 PM 10.27 50.486 0.138 8.61 1.86 14.31
11/8/2022 4:00:00 PM 10.19 50.342 0.139 8.5 1.82 14.23
11/8/2022 4:15:00 PM 10.1 50.18 0.139 8.36 1.82 14.15
11/8/2022 4:30:00 PM 10 50 0.139 8.2 1.85 14.06
11/8/2022 4:45:00 PM 9.9 49.82 0.14 8.06 1.86 13.96
11/8/2022 5:00:00 PM 9.8 49.64 0.14 7.94 1.86 13.88
11/8/2022 5:15:00 PM 9.69 49.442 0.14 7.85 1.89 13.81
11/8/2022 5:30:00 PM 9.59 49.262 0.141 7.77 1.88 13.76
11/8/2022 5:45:00 PM 9.5 49.1 0.141 7.71 1.87 13.72
11/8/2022 6:00:00 PM 9.4 48.92 0.141 7.67 1.94 13.71
11/8/2022 6:15:00 PM 9.3 48.74 0.141 7.64 1.97 13.7
11/8/2022 6:30:00 PM 9.2 48.56 0.141 7.61 1.89 13.71
11/8/2022 6:45:00 PM 9.11 48.398 0.141 7.58 1.85 13.72
11/8/2022 7:00:00 PM 9.02 48.236 0.142 7.57 1.91 13.73
11/8/2022 7:15:00 PM 8.93 48.074 0.141 7.52 1.91 13.75
11/8/2022 7:30:00 PM 8.86 47.948 0.141 7.5 1.89 13.77
11/8/2022 7:45:00 PM 8.78 47.804 0.141 7.5 1.92 13.78
11/8/2022 8:00:00 PM 8.71 47.678 0.141 7.49 1.91 13.8
11/8/2022 8:15:00 PM 8.65 47.57 0.141 7.49 1.9 13.82
11/8/2022 8:30:00 PM 8.59 47.462 0.141 7.48 1.93 13.84
11/8/2022 8:45:00 PM 8.53 47.354 0.141 7.48 1.88 13.85
11/8/2022 9:00:00 PM 8.47 47.246 0.141 7.48 1.92 13.87
11/8/2022 9:15:00 PM 8.41 47.138 0.141 7.47 1.92 13.88
11/8/2022 9:30:00 PM 8.35 47.03 0.141 7.47 1.9 13.9
11/8/2022 9:45:00 PM 8.3 46.94 0.141 7.46 1.87 13.92
11/8/2022 10:00:00 PM 8.24 46.832 0.141 7.47 1.95 13.94
11/8/2022 10:15:00 PM 8.18 46.724 0.141 7.46 1.93 13.95
11/8/2022 10:30:00 PM 8.12 46.616 0.141 7.46 1.96 13.97
11/8/2022 10:45:00 PM 8.07 46.526 0.141 7.46 1.93 13.99
11/8/2022 11:00:00 PM 8.01 46.418 0.14 7.45 1.89 14.01
11/8/2022 11:15:00 PM 7.95 46.31 0.14 7.43 1.93 14.03
11/8/2022 11:30:00 PM 7.89 46.202 0.14 7.38 1.96 14.04
11/8/2022 11:45:00 PM 7.83 46.094 0.14 7.4 1.89 14.06
11/9/2022 12:00:00 AM 7.76 45.968 0.14 7.42 1.92 14.09
11/9/2022 12:15:00 AM 7.7 45.86 0.14 7.42 1.92 14.11
11/9/2022 12:30:00 AM 7.63 45.734 0.14 7.42 1.88 14.13
11/9/2022 12:45:00 AM 7.57 45.626 0.14 7.43 1.91 14.16
11/9/2022 1:00:00 AM 7.5 45.5 0.14 7.43 1.89 14.19
11/9/2022 1:15:00 AM 7.44 45.392 0.14 7.43 1.88 14.2
11/9/2022 1:30:00 AM 7.38 45.284 0.14 7.42 1.92 14.23
11/9/2022 1:45:00 AM 7.32 45.176 0.14 7.43 1.93 14.25
11/9/2022 2:00:00 AM 7.27 45.086 0.14 7.43 1.91 14.28
11/9/2022 2:15:00 AM 7.21 44.978 0.14 7.43 1.94 14.29
11/9/2022 2:30:00 AM 7.15 44.87 0.14 7.41 1.94 14.31
11/9/2022 2:45:00 AM 7.09 44.762 0.14 7.42 1.93 14.34
11/9/2022 3:00:00 AM 7.03 44.654 0.14 7.41 1.89 14.36
11/9/2022 3:15:00 AM 6.98 44.564 0.14 7.4 1.92 14.38
11/9/2022 3:30:00 AM 6.92 44.456 0.14 7.42 1.99 14.39
11/9/2022 3:45:00 AM 6.86 44.348 0.14 7.42 1.96 14.42
11/9/2022 4:00:00 AM 6.81 44.258 0.141 7.42 1.92 14.44
11/9/2022 4:15:00 AM 6.75 44.15 0.141 7.43 1.96 14.46
11/9/2022 4:30:00 AM 6.69 44.042 0.141 7.42 1.94 14.48
11/9/2022 4:45:00 AM 6.63 43.934 0.141 7.43 1.93 14.51
11/9/2022 5:00:00 AM 6.57 43.826 0.141 7.42 1.97 14.52
11/9/2022 5:15:00 AM 6.51 43.718 0.141 7.42 1.93 14.55
11/9/2022 5:30:00 AM 6.44 43.592 0.141 7.42 1.92 14.58
11/9/2022 5:45:00 AM 6.38 43.484 0.142 7.42 1.92 14.6
11/9/2022 6:00:00 AM 6.32 43.376 0.142 7.42 1.96 14.62
11/9/2022 6:15:00 AM 6.25 43.25 0.142 7.42 1.93 14.65
11/9/2022 6:30:00 AM 6.19 43.142 0.142 7.42 1.98 14.68
11/9/2022 6:45:00 AM 6.12 43.016 0.142 7.43 2.03 14.71
11/9/2022 7:00:00 AM 6.06 42.908 0.142 7.43 1.94 14.78
11/9/2022 7:15:00 AM 6 42.8 0.142 7.44 1.98 14.86
11/9/2022 7:30:00 AM 5.95 42.71 0.142 7.45 1.97 14.96
11/9/2022 7:45:00 AM 5.9 42.62 0.142 7.48 1.93 15.08
11/9/2022 8:00:00 AM 5.86 42.548 0.142 7.51 1.92 15.21
11/9/2022 8:15:00 AM 5.82 42.476 0.142 7.53 1.89 15.33
11/9/2022 8:30:00 AM 5.81 42.458 0.142 7.57 1.91 15.46
11/9/2022 8:45:00 AM 5.82 42.476 0.142 7.62 1.94 15.61
11/9/2022 9:00:00 AM 5.86 42.548 0.142 7.68 1.87 15.74
11/9/2022 9:15:00 AM 5.91 42.638 0.142 7.73 1.93 15.85
11/9/2022 9:30:00 AM 5.96 42.728 0.141 7.8 1.91 15.95
11/9/2022 9:45:00 AM 6.07 42.926 0.141 7.87 1.91 16.05
11/9/2022 10:00:00 AM 6.17 43.106 0.141 7.96 1.92 16.11
11/9/2022 10:15:00 AM 6.28 43.304 0.141 8.03 1.91 16.14
11/9/2022 10:30:00 AM 6.4 43.52 0.141 8.1 1.91 16.16
11/9/2022 10:45:00 AM 6.52 43.736 0.141 8.17 1.91 16.16
11/9/2022 11:00:00 AM 6.65 43.97 0.14 8.24 1.84 16.16
11/9/2022 11:15:00 AM 6.77 44.186 0.14 8.31 1.89 16.15
11/9/2022 11:30:00 AM 6.89 44.402 0.14 8.37 1.87 16.13
11/9/2022 11:45:00 AM 7.01 44.618 0.14 8.42 1.9 16.11
11/9/2022 12:00:00 PM 7.13 44.834 0.14 8.46 1.88 16.07
11/9/2022 12:15:00 PM 7.25 45.05 0.14 8.5 1.86 16.02
11/9/2022 12:30:00 PM 7.36 45.248 0.139 8.53 1.87 15.97
11/9/2022 12:45:00 PM 7.49 45.482 0.139 8.57 1.85 15.9
11/9/2022 1:00:00 PM 7.61 45.698 0.139 8.61 1.86 15.84
11/9/2022 1:15:00 PM 7.72 45.896 0.139 8.63 1.89 15.77
11/9/2022 1:30:00 PM 7.81 46.058 0.139 8.67 1.86 15.74
11/9/2022 1:45:00 PM 7.89 46.202 0.139 8.69 1.89 15.7
11/9/2022 2:00:00 PM 7.96 46.328 0.138 8.7 1.91 15.65
11/9/2022 2:15:00 PM 8.01 46.418 0.138 8.71 1.88 15.57
11/9/2022 2:30:00 PM 8.05 46.49 0.138 8.72 1.9 15.52
11/9/2022 2:45:00 PM 8.05 46.49 0.138 8.72 1.85 15.5
11/9/2022 3:00:00 PM 8.08 46.544 0.138 8.73 1.9 15.54
11/9/2022 3:15:00 PM 8.06 46.508 0.138 8.7 1.89 15.4
11/9/2022 3:30:00 PM 8.04 46.472 0.138 8.64 1.87 15.26
11/9/2022 3:45:00 PM 8.01 46.418 0.138 8.6 1.91 15.17
11/9/2022 4:00:00 PM 7.97 46.346 0.139 8.5 1.9 15.07
11/9/2022 4:15:00 PM 7.9 46.22 0.139 8.36 1.91 14.93
11/9/2022 4:30:00 PM 7.82 46.076 0.139 8.19 1.93 14.82
11/9/2022 4:45:00 PM 7.76 45.968 0.14 8.05 1.9 14.71
11/9/2022 5:00:00 PM 7.68 45.824 0.14 7.94 1.87 14.62
11/9/2022 5:15:00 PM 7.61 45.698 0.14 7.85 1.93 14.53
11/9/2022 5:30:00 PM 7.53 45.554 0.141 7.78 1.9 14.47
11/9/2022 5:45:00 PM 7.45 45.41 0.141 7.72 1.93 14.44
11/9/2022 6:00:00 PM 7.38 45.284 0.141 7.68 1.92 14.41
11/9/2022 6:15:00 PM 7.3 45.14 0.141 7.65 1.92 14.39
11/9/2022 6:30:00 PM 7.23 45.014 0.141 7.63 1.89 14.39
11/9/2022 6:45:00 PM 7.16 44.888 0.142 7.61 1.92 14.39
11/9/2022 7:00:00 PM 7.09 44.762 0.142 7.58 1.93 14.39
11/9/2022 7:15:00 PM 7.03 44.654 0.142 7.57 1.87 14.39
11/9/2022 7:30:00 PM 6.98 44.564 0.142 7.56 1.89 14.4
11/9/2022 7:45:00 PM 6.92 44.456 0.142 7.55 1.92 14.41
11/9/2022 8:00:00 PM 6.87 44.366 0.142 7.54 1.91 14.42
11/9/2022 8:15:00 PM 6.82 44.276 0.142 7.53 1.93 14.43
11/9/2022 8:30:00 PM 6.77 44.186 0.142 7.53 1.94 14.44
11/9/2022 8:45:00 PM 6.73 44.114 0.142 7.52 1.95 14.46
11/9/2022 9:00:00 PM 6.69 44.042 0.142 7.52 1.97 14.47
11/9/2022 9:15:00 PM 6.65 43.97 0.142 7.51 1.9 14.47
11/9/2022 9:30:00 PM 6.61 43.898 0.142 7.51 1.94 14.49
11/9/2022 9:45:00 PM 6.58 43.844 0.142 7.5 1.95 14.49
11/9/2022 10:00:00 PM 6.55 43.79 0.142 7.51 1.89 14.5
11/9/2022 10:15:00 PM 6.52 43.736 0.142 7.5 1.95 14.51
11/9/2022 10:30:00 PM 6.49 43.682 0.142 7.5 1.91 14.52
11/9/2022 10:45:00 PM 6.47 43.646 0.142 7.49 1.91 14.52
11/9/2022 11:00:00 PM 6.44 43.592 0.142 7.49 1.93 14.53
11/9/2022 11:15:00 PM 6.42 43.556 0.142 7.49 1.9 14.53
11/9/2022 11:30:00 PM 6.39 43.502 0.142 7.48 1.97 14.54
11/9/2022 11:45:00 PM 6.37 43.466 0.141 7.48 1.93 14.55
11/10/2022 12:00:00 AM 6.34 43.412 0.141 7.47 1.89 14.55
11/10/2022 12:15:00 AM 6.31 43.358 0.141 7.47 1.93 14.56
11/10/2022 12:30:00 AM 6.27 43.286 0.141 7.47 1.94 14.57
11/10/2022 12:45:00 AM 6.24 43.232 0.141 7.47 1.93 14.58
11/10/2022 1:00:00 AM 6.21 43.178 0.141 7.47 1.92 14.59
11/10/2022 1:15:00 AM 6.18 43.124 0.141 7.46 1.91 14.61
11/10/2022 1:30:00 AM 6.15 43.07 0.141 7.46 1.95 14.61
11/10/2022 1:45:00 AM 6.11 42.998 0.141 7.46 1.97 14.62
11/10/2022 2:00:00 AM 6.08 42.944 0.141 7.46 1.93 14.63
11/10/2022 2:15:00 AM 6.06 42.908 0.141 7.44 1.94 14.64
11/10/2022 2:30:00 AM 6.03 42.854 0.141 7.46 1.92 14.64
11/10/2022 2:45:00 AM 6 42.8 0.141 7.45 2 14.66
11/10/2022 3:00:00 AM 5.98 42.764 0.141 7.46 1.97 14.66
11/10/2022 3:15:00 AM 5.95 42.71 0.141 7.45 1.92 14.67
11/10/2022 3:30:00 AM 5.93 42.674 0.141 7.45 1.98 14.68
11/10/2022 3:45:00 AM 5.9 42.62 0.141 7.45 1.97 14.69
11/10/2022 4:00:00 AM 5.88 42.584 0.141 7.45 1.98 14.69
11/10/2022 4:15:00 AM 5.85 42.53 0.141 7.45 1.98 14.7
11/10/2022 4:30:00 AM 5.82 42.476 0.141 7.45 1.95 14.71
11/10/2022 4:45:00 AM 5.79 42.422 0.141 7.45 2.03 14.72
11/10/2022 5:00:00 AM 5.76 42.368 0.141 7.45 1.97 14.73
11/10/2022 5:15:00 AM 5.73 42.314 0.141 7.45 1.96 14.75
11/10/2022 5:30:00 AM 5.7 42.26 0.141 7.44 1.99 14.76
11/10/2022 5:45:00 AM 5.66 42.188 0.141 7.45 2.01 14.78
11/10/2022 6:00:00 AM 5.62 42.116 0.142 7.44 1.95 14.79
11/10/2022 6:15:00 AM 5.59 42.062 0.142 7.45 2.04 14.8
11/10/2022 6:30:00 AM 5.55 41.99 0.142 7.36 2.02 14.82
11/10/2022 6:45:00 AM 5.51 41.918 0.142 7.4 2.04 14.84
11/10/2022 7:00:00 AM 5.48 41.864 0.142 7.42 1.93 14.9
11/10/2022 7:15:00 AM 5.45 41.81 0.142 7.45 1.98 14.98
11/10/2022 7:30:00 AM 5.42 41.756 0.142 7.46 1.92 15.08
11/10/2022 7:45:00 AM 5.39 41.702 0.142 7.48 1.96 15.19
11/10/2022 8:00:00 AM 5.38 41.684 0.142 7.5 1.96 15.31
11/10/2022 8:15:00 AM 5.37 41.666 0.142 7.54 1.94 15.43
11/10/2022 8:30:00 AM 5.37 41.666 0.142 7.58 1.93 15.56
11/10/2022 8:45:00 AM 5.41 41.738 0.142 7.62 1.94 15.7
11/10/2022 9:00:00 AM 5.47 41.846 0.142 7.68 1.91 15.82
11/10/2022 9:15:00 AM 5.55 41.99 0.142 7.73 1.93 15.93
11/10/2022 9:30:00 AM 5.64 42.152